Provisional Data: Chemung River at West Elmira, NY


Please select a monitoring station.
Please select start date.
Please select start date.

Toggle Unit: C/F Toggle Unit: C/F
Sample Time Temperature (C) Temperature (F) Specific Conductivity (mS/cm) pH   Turbidity (NTU+) DO (mg/L)
9/6/2021 12:00:00 AM 20.03 68.054 0.378 8.16 62.36 9
9/6/2021 12:15:00 AM 20.01 68.018 0.378 8.16 62.14 9.01
9/6/2021 12:30:00 AM 19.98 67.964 0.378 8.16 62.95 8.99
9/6/2021 12:45:00 AM 19.94 67.892 0.378 8.16 61.56 9
9/6/2021 1:00:00 AM 19.9 67.82 0.378 8.14 62.01 8.98
9/6/2021 1:15:00 AM 19.87 67.766 0.378 8.16 61.77 8.96
9/6/2021 1:30:00 AM 19.83 67.694 0.378 8.14 62.79 8.98
9/6/2021 1:45:00 AM 19.79 67.622 0.378 8.15 60.81 8.98
9/6/2021 2:00:00 AM 19.76 67.568 0.378 8.15 61.62 8.96
9/6/2021 2:15:00 AM 19.73 67.514 0.378 8.14 62.09 8.97
9/6/2021 2:30:00 AM 19.7 67.46 0.378 8.14 62 8.94
9/6/2021 2:45:00 AM 19.66 67.388 0.378 8.14 65.91 8.94
9/6/2021 3:00:00 AM 19.61 67.298 0.378 8.13 62.99 8.97
9/6/2021 3:15:00 AM 19.58 67.244 0.378 8.14 61.83 8.95
9/6/2021 3:30:00 AM 19.55 67.19 0.377 8.14 62.83 8.93
9/6/2021 3:45:00 AM 19.51 67.118 0.377 8.14 60.95 8.94
9/6/2021 4:00:00 AM 19.49 67.082 0.377 8.13 62.19 8.93
9/6/2021 4:15:00 AM 19.46 67.028 0.377 8.14 62.81 8.92
9/6/2021 4:30:00 AM 19.42 66.956 0.377 8.13 61.55 8.92
9/6/2021 4:45:00 AM 19.39 66.902 0.376 8.13 61.58 8.92
9/6/2021 5:00:00 AM 19.37 66.866 0.376 8.13 66.82 8.91
9/6/2021 5:15:00 AM 19.35 66.83 0.376 8.13 63.63 8.91
9/6/2021 5:30:00 AM 19.33 66.794 0.376 8.13 64.52 8.9
9/6/2021 5:45:00 AM 19.3 66.74 0.376 8.13 65.7 8.92
9/6/2021 6:00:00 AM 19.28 66.704 0.375 8.13 62.71 8.91
9/6/2021 6:15:00 AM 19.27 66.686 0.375 8.13 62.03 8.89
9/6/2021 6:30:00 AM 19.26 66.668 0.375 8.13 62.29 8.91
9/6/2021 6:45:00 AM 19.24 66.632 0.375 8.14 62.01 8.89
9/6/2021 7:00:00 AM 19.24 66.632 0.374 8.13 62.73 8.89
9/6/2021 7:15:00 AM 19.23 66.614 0.374 8.13 62.75 8.89
9/6/2021 7:30:00 AM 19.24 66.632 0.374 8.14 62.32 8.9
9/6/2021 7:45:00 AM 19.24 66.632 0.373 8.13 61.83 8.89
9/6/2021 8:00:00 AM 19.25 66.65 0.373 8.15 60.84 8.93
9/6/2021 8:15:00 AM 19.26 66.668 0.373 8.15 60.82 8.94
9/6/2021 8:30:00 AM 19.3 66.74 0.372 8.16 61.69 9.01
9/6/2021 8:45:00 AM 19.35 66.83 0.372 8.17 61.58 9.1
9/6/2021 9:00:00 AM 19.39 66.902 0.372 8.19 62.2 9.15
9/6/2021 9:15:00 AM 19.41 66.938 0.371 8.2 61.14 9.22
9/6/2021 9:30:00 AM 19.45 67.01 0.371 8.21 63.38 9.3
9/6/2021 9:45:00 AM 19.49 67.082 0.371 8.23 62.45 9.38
9/6/2021 10:00:00 AM 19.52 67.136 0.37 8.24 62.39 9.4
9/6/2021 10:15:00 AM 19.57 67.226 0.37 8.25 62.51 9.45
9/6/2021 10:30:00 AM 19.67 67.406 0.37 8.27 60.44 9.54
9/6/2021 10:45:00 AM 19.79 67.622 0.369 8.29 62.04 9.65
9/6/2021 11:00:00 AM 19.92 67.856 0.369 8.31 60.65 9.74
9/6/2021 11:15:00 AM 20.06 68.108 0.368 8.33 60.9 9.85
9/6/2021 11:30:00 AM 20.19 68.342 0.368 8.35 62.54 9.94
9/6/2021 11:45:00 AM 20.32 68.576 0.367 8.37 60.68 10.02
9/6/2021 12:00:00 PM 20.42 68.756 0.367 8.38 61.54 10.1
9/6/2021 12:15:00 PM 20.57 69.026 0.366 8.41 61.01 10.21
9/6/2021 12:30:00 PM 20.71 69.278 0.366 8.42 61.03 10.26
9/6/2021 12:45:00 PM 20.81 69.458 0.365 8.43 60.38 10.3
9/6/2021 1:00:00 PM 20.77 69.386 0.361 8.44 65.18 10.27
9/6/2021 1:15:00 PM 20.84 69.512 0.362 8.46 61.09 10.35
9/6/2021 1:30:00 PM 20.94 69.692 0.362 8.46 63.59 10.36
9/6/2021 1:45:00 PM 20.96 69.728 0.361 8.46 62.04 10.34
9/6/2021 2:00:00 PM 20.96 69.728 0.36 8.46 61.17 10.38
9/6/2021 2:15:00 PM 20.97 69.746 0.36 8.48 61.42 10.4
9/6/2021 2:30:00 PM 20.99 69.782 0.359 8.48 61.37 10.41
9/6/2021 2:45:00 PM 21.04 69.872 0.359 8.47 62.99 10.44
9/6/2021 3:00:00 PM 21.07 69.926 0.358 8.48 61.58 10.48
9/6/2021 3:15:00 PM 21.11 69.998 0.357 8.49 60.77 10.5
9/6/2021 3:30:00 PM 21.15 70.07 0.356 8.49 60.17 10.52
9/6/2021 3:45:00 PM 21.17 70.106 0.356 8.49 60.71 10.51
9/6/2021 4:00:00 PM 21.17 70.106 0.355 8.5 62.87 10.53
9/6/2021 4:15:00 PM 21.18 70.124 0.354 8.5 62.06 10.55
9/6/2021 4:30:00 PM 21.18 70.124 0.354 8.48 60.36 10.53
9/6/2021 4:45:00 PM 21.19 70.142 0.353 8.49 63.67 10.53
9/6/2021 5:00:00 PM 21.19 70.142 0.353 8.5 62.44 10.56
9/6/2021 5:15:00 PM 21.17 70.106 0.352 8.49 61.48 10.54
9/6/2021 5:30:00 PM 21.16 70.088 0.352 8.5 62.11 10.52
9/6/2021 5:45:00 PM 21.13 70.034 0.351 8.49 59.31 10.5
9/6/2021 6:00:00 PM 21.1 69.98 0.351 8.48 59.67 10.48
9/6/2021 6:15:00 PM 21.06 69.908 0.35 8.48 59.9 10.42
9/6/2021 6:30:00 PM 21.01 69.818 0.35 8.47 60.94 10.38
9/6/2021 6:45:00 PM 20.97 69.746 0.35 8.47 60.2 10.33
9/6/2021 7:00:00 PM 20.92 69.656 0.35 8.46 61.23 10.28
9/6/2021 7:15:00 PM 20.88 69.584 0.349 8.44 61.47 10.21
9/6/2021 7:30:00 PM 20.84 69.512 0.349 8.44 61.5 10.16
9/6/2021 7:45:00 PM 20.79 69.422 0.349 8.43 61.11 10.11
9/6/2021 8:00:00 PM 20.74 69.332 0.349 8.42 60.9 10.07
9/6/2021 8:15:00 PM 20.7 69.26 0.349 8.41 63.08 10.01
9/6/2021 8:30:00 PM 20.64 69.152 0.348 8.4 67.38 9.95
9/6/2021 8:45:00 PM 20.6 69.08 0.348 8.38 69.08 9.87
9/6/2021 9:00:00 PM 20.54 68.972 0.348 8.36 64.83 9.82
9/6/2021 9:15:00 PM 20.48 68.864 0.348 8.36 64.12 9.77
9/6/2021 9:30:00 PM 20.42 68.756 0.347 8.34 83.51 9.71
9/6/2021 9:45:00 PM 20.36 68.648 0.347 8.33 79.13 9.67
9/6/2021 10:00:00 PM 20.29 68.522 0.347 8.32 69.39 9.61
9/6/2021 10:15:00 PM 20.23 68.414 0.347 8.31 67.01 9.56
9/6/2021 10:30:00 PM 20.17 68.306 0.347 8.3 67.97 9.52
9/6/2021 10:45:00 PM 20.11 68.198 0.347 8.29 65.84 9.49
9/6/2021 11:00:00 PM 20.06 68.108 0.347 8.24 125.26 9.41
9/6/2021 11:15:00 PM 20 68 0.346 8.26 66.75 9.41
9/6/2021 11:30:00 PM 19.95 67.91 0.346 8.25 63.87 9.38
9/6/2021 11:45:00 PM 19.89 67.802 0.345 8.26 63.15 9.37
9/7/2021 12:00:00 AM 19.85 67.73 0.345 8.23 63.04 9.32
9/7/2021 12:15:00 AM 19.81 67.658 0.345 8.24 63.67 9.28
9/7/2021 12:30:00 AM 19.76 67.568 0.345 8.23 67.12 9.3
9/7/2021 12:45:00 AM 19.72 67.496 0.345 8.21 107.92 9.24
9/7/2021 1:00:00 AM 19.68 67.424 0.345 8.23 64.98 9.25
9/7/2021 1:15:00 AM 19.64 67.352 0.345 8.22 63.79 9.23
9/7/2021 1:30:00 AM 19.6 67.28 0.345 8.21 65.46 9.24
9/7/2021 1:45:00 AM 19.57 67.226 0.345 8.22 65.25 9.21
9/7/2021 2:00:00 AM 19.54 67.172 0.345 8.2 63.18 9.2
9/7/2021 2:15:00 AM 19.5 67.1 0.345 8.21 66.37 9.18
9/7/2021 2:30:00 AM 19.47 67.046 0.345 8.21 64.49 9.17
9/7/2021 2:45:00 AM 19.43 66.974 0.346 8.2 65.17 9.16
9/7/2021 3:00:00 AM 19.39 66.902 0.346 8.2 65.09 9.14
9/7/2021 3:15:00 AM 19.35 66.83 0.346 8.19 62.96 9.13
9/7/2021 3:30:00 AM 19.32 66.776 0.346 8.2 64.3 9.12
9/7/2021 3:45:00 AM 19.27 66.686 0.346 8.19 65.6 9.1
9/7/2021 4:00:00 AM 19.24 66.632 0.346 8.19 64.69 9.07
9/7/2021 4:15:00 AM 19.21 66.578 0.346 8.19 63.27 9.07
9/7/2021 4:30:00 AM 19.17 66.506 0.346 8.19 62.96 9.06
9/7/2021 4:45:00 AM 19.13 66.434 0.346 8.19 62.91 9.05
9/7/2021 5:00:00 AM 19.1 66.38 0.347 8.18 62.92 9.06
9/7/2021 5:15:00 AM 19.06 66.308 0.347 8.18 65.9 9.03
9/7/2021 5:30:00 AM 19.02 66.236 0.347 8.16 67.77 9
9/7/2021 5:45:00 AM 18.97 66.146 0.347 8.17 63.21 9.01
9/7/2021 6:00:00 AM 18.93 66.074 0.347 8.16 70.04 9
9/7/2021 6:15:00 AM 18.89 66.002 0.347 8.16 76.15 9
9/7/2021 6:30:00 AM 18.85 65.93 0.347 8.17 69.71 8.98
9/7/2021 6:45:00 AM 18.81 65.858 0.347 8.17 78.88 8.97
9/7/2021 7:00:00 AM 18.78 65.804 0.347 8.16 67.66 8.97
9/7/2021 7:15:00 AM 18.75 65.75 0.348 8.17 64.69 8.98
9/7/2021 7:30:00 AM 18.72 65.696 0.348 8.17 64.06 8.99
9/7/2021 7:45:00 AM 18.71 65.67799 0.348 8.17 65.84 9.01
9/7/2021 8:00:00 AM 18.7 65.66 0.348 8.16 64.41 9.05
9/7/2021 8:15:00 AM 18.7 65.66 0.348 8.18 64.25 9.07
9/7/2021 8:30:00 AM 18.72 65.696 0.348 8.19 63.86 9.12
9/7/2021 8:45:00 AM 18.74 65.732 0.349 8.19 62.74 9.2
9/7/2021 9:00:00 AM 18.78 65.804 0.349 8.22 65.67 9.27
9/7/2021 9:15:00 AM 18.84 65.912 0.349 8.24 64.36 9.37
9/7/2021 9:30:00 AM 18.91 66.038 0.349 8.26 62.62 9.49
9/7/2021 9:45:00 AM 18.99 66.182 0.349 8.28 62.86 9.61
9/7/2021 10:00:00 AM 19.08 66.344 0.35 8.3 62.95 9.72
9/7/2021 10:15:00 AM 19.19 66.542 0.35 8.32 61.47 9.8
9/7/2021 10:30:00 AM 19.31 66.758 0.352 8.35 62.7 9.91
9/7/2021 10:45:00 AM 19.43 66.974 0.352 8.37 62.69 10.02
9/7/2021 11:00:00 AM 19.55 67.19 0.352 8.4 61.58 10.12
9/7/2021 11:15:00 AM 19.68 67.424 0.353 8.42 61.05 10.25
9/7/2021 11:30:00 AM 19.83 67.694 0.353 8.44 61.67 10.33
9/7/2021 11:45:00 AM 19.98 67.964 0.353 8.47 61.15 10.45
9/7/2021 12:00:00 PM 20.12 68.216 0.353 8.49 60.16 10.57
9/7/2021 12:15:00 PM 20.27 68.486 0.354 8.5 60.84 10.66
9/7/2021 12:30:00 PM 20.4 68.72 0.354 8.53 60.63 10.73
9/7/2021 12:45:00 PM 20.51 68.918 0.354 8.56 63.16 10.83
9/7/2021 1:00:00 PM 20.63 69.134 0.355 8.57 60.68 10.9
9/7/2021 1:15:00 PM 20.75 69.35 0.355 8.59 61.16 10.98
9/7/2021 1:30:00 PM 20.85 69.53 0.355 8.59 59.79 11.01
9/7/2021 1:45:00 PM 20.96 69.728 0.356 8.61 61.38 11.06
9/7/2021 2:00:00 PM 21.08 69.944 0.356 8.63 61.06 11.13
9/7/2021 2:15:00 PM 21.17 70.106 0.356 8.64 60.73 11.17
9/7/2021 2:30:00 PM 21.25 70.25 0.357 8.65 61.26 11.22
9/7/2021 2:45:00 PM 21.32 70.376 0.357 8.66 61.2 11.23
9/7/2021 3:00:00 PM 21.36 70.448 0.357 8.66 61.03 11.22
9/7/2021 3:15:00 PM 21.4 70.52 0.357 8.67 60.71 11.26
9/7/2021 3:30:00 PM 21.43 70.574 0.358 8.65 60.35 11.29
9/7/2021 3:45:00 PM 21.45 70.61 0.358 8.67 60.96 11.3
9/7/2021 4:00:00 PM 21.47 70.646 0.358 8.68 60.78 11.29
9/7/2021 4:15:00 PM 21.47 70.646 0.359 8.69 61.37 11.27
9/7/2021 4:30:00 PM 21.46 70.628 0.359 8.68 59.78 11.25
9/7/2021 4:45:00 PM 21.45 70.61 0.359 8.69 59.46 11.21
9/7/2021 5:00:00 PM 21.44 70.592 0.36 8.69 60.3 11.21
9/7/2021 5:15:00 PM 21.42 70.556 0.36 8.67 59.43 11.21
9/7/2021 5:30:00 PM 21.39 70.502 0.361 8.69 60.06 11.17
9/7/2021 5:45:00 PM 21.36 70.448 0.361 8.68 60.78 11.12
9/7/2021 6:00:00 PM 21.33 70.394 0.361 8.67 60.73 11.07
9/7/2021 6:15:00 PM 21.31 70.358 0.362 8.67 61.45 11.02
9/7/2021 6:30:00 PM 21.29 70.32201 0.362 8.66 62.17 10.96
9/7/2021 6:45:00 PM 21.26 70.268 0.363 8.65 60.05 10.9
9/7/2021 7:00:00 PM 21.23 70.214 0.363 8.64 60.17 10.83
9/7/2021 7:15:00 PM 21.2 70.16 0.364 8.64 59.87 10.76
9/7/2021 7:30:00 PM 21.16 70.088 0.364 8.63 61.04 10.68
9/7/2021 7:45:00 PM 21.12 70.016 0.365 8.61 61.57 10.63
9/7/2021 8:00:00 PM 21.07 69.926 0.365 8.61 63.52 10.56
9/7/2021 8:15:00 PM 21.03 69.854 0.366 8.6 62.93 10.48
9/7/2021 8:30:00 PM 20.99 69.782 0.366 8.58 64.73 10.4
9/7/2021 8:45:00 PM 20.94 69.692 0.367 8.57 62.31 10.35
9/7/2021 9:00:00 PM 20.89 69.602 0.367 8.54 61.38 10.27
9/7/2021 9:15:00 PM 20.84 69.512 0.368 8.54 61.14 10.18
9/7/2021 9:30:00 PM 20.78 69.404 0.368 8.53 65.12 10.12
9/7/2021 9:45:00 PM 20.73 69.314 0.368 8.5 61.81 10.02
9/7/2021 10:00:00 PM 20.67 69.206 0.369 8.5 62.4 9.95
9/7/2021 10:15:00 PM 20.61 69.098 0.369 8.49 61.85 9.89
9/7/2021 10:30:00 PM 20.56 69.008 0.37 8.47 62.91 9.83
9/7/2021 10:45:00 PM 20.5 68.9 0.37 8.45 61.61 9.77
9/7/2021 11:00:00 PM 20.45 68.81 0.37 8.45 65.13 9.7
9/7/2021 11:15:00 PM 20.39 68.702 0.371 8.43 64.15 9.65
9/7/2021 11:30:00 PM 20.34 68.612 0.371 8.42 62.19 9.6
9/7/2021 11:45:00 PM 20.3 68.54 0.371 8.41 71.61 9.57
9/8/2021 12:00:00 AM 20.26 68.468 0.372 8.4 61.12 9.53
9/8/2021 12:15:00 AM 20.21 68.378 0.372 8.39 61.14 9.48
9/8/2021 12:30:00 AM 20.18 68.324 0.372 8.38 61.99 9.45
9/8/2021 12:45:00 AM 20.14 68.252 0.373 8.38 61.72 9.43
9/8/2021 1:00:00 AM 20.11 68.198 0.373 8.37 63.49 9.38
9/8/2021 1:15:00 AM 20.08 68.144 0.373 8.37 63.69 9.35
9/8/2021 1:30:00 AM 20.05 68.09 0.374 8.35 62.35 9.33
9/8/2021 1:45:00 AM 20.02 68.036 0.374 8.35 63.58 9.31
9/8/2021 2:00:00 AM 19.99 67.982 0.374 8.35 70.44 9.27
9/8/2021 2:15:00 AM 19.96 67.92799 0.375 8.34 62.53 9.26
9/8/2021 2:30:00 AM 19.94 67.892 0.375 8.33 63.58 9.25
9/8/2021 2:45:00 AM 19.91 67.838 0.375 8.34 61.93 9.26
9/8/2021 3:00:00 AM 19.89 67.802 0.375 8.33 62.06 9.21
9/8/2021 3:15:00 AM 19.86 67.748 0.376 8.33 68.76 9.19
9/8/2021 3:30:00 AM 19.83 67.694 0.376 8.32 63.09 9.15
9/8/2021 3:45:00 AM 19.81 67.658 0.376 8.3 52.64 9.15
9/8/2021 4:00:00 AM 19.78 67.604 0.376 8.3 52.39 9.15
9/8/2021 4:15:00 AM 19.75 67.55 0.377 8.31 53.39 9.11
9/8/2021 4:30:00 AM 19.72 67.496 0.377 8.3 53.77 9.09
9/8/2021 4:45:00 AM 19.7 67.46 0.377 8.3 54.54 9.07
9/8/2021 5:00:00 AM 19.67 67.406 0.377 8.3 54.28 9.05
9/8/2021 5:15:00 AM 19.64 67.352 0.378 8.29 54.09 9.04
9/8/2021 5:30:00 AM 19.61 67.298 0.378 8.28 53.59 9.03
9/8/2021 5:45:00 AM 19.59 67.262 0.378 8.28 53.21 8.98
9/8/2021 6:00:00 AM 19.56 67.208 0.378 8.28 53.88 8.98
9/8/2021 6:15:00 AM 19.54 67.172 0.379 8.26 52.79 8.96
9/8/2021 6:30:00 AM 19.51 67.118 0.379 8.27 59.99 8.95
9/8/2021 6:45:00 AM 19.49 67.082 0.379 8.25 62.85 8.91
9/8/2021 7:00:00 AM 19.47 67.046 0.379 8.25 59.95 8.89
9/8/2021 7:15:00 AM 19.46 67.028 0.379 8.26 59.7 8.89
9/8/2021 7:30:00 AM 19.46 67.028 0.38 8.25 64.31 8.87
9/8/2021 7:45:00 AM 19.46 67.028 0.38 8.26 62.55 8.89
9/8/2021 8:00:00 AM 19.46 67.028 0.38 8.26 62.42 8.91
9/8/2021 8:15:00 AM 19.47 67.046 0.38 8.27 60.31 8.94
9/8/2021 8:30:00 AM 19.48 67.064 0.38 8.26 61.33 9
9/8/2021 8:45:00 AM 19.5 67.1 0.38 8.29 63.03 9.04
9/8/2021 9:00:00 AM 19.52 67.136 0.38 8.29 60.05 9.1
9/8/2021 9:15:00 AM 19.57 67.226 0.38 8.31 60.19 9.21
9/8/2021 9:30:00 AM 19.64 67.352 0.381 8.31 61.84 9.29
9/8/2021 9:45:00 AM 19.7 67.46 0.381 8.35 59.55 9.41
9/8/2021 10:00:00 AM 19.76 67.568 0.381 8.37 60.19 9.53
9/8/2021 10:15:00 AM 19.85 67.73 0.38 8.4 69.38 9.68
9/8/2021 10:30:00 AM 19.92 67.856 0.38 8.41 63.56 9.81
9/8/2021 10:45:00 AM 20 68 0.38 8.44 64.05 9.92
9/8/2021 11:00:00 AM 20.08 68.144 0.38 8.47 68.11 10.03
9/8/2021 11:15:00 AM 20.15 68.27 0.38 8.5 64.21 10.14
9/8/2021 11:30:00 AM 20.23 68.414 0.38 8.51 61.69 10.25
9/8/2021 11:45:00 AM 20.44 68.792 0.354 8.08 116.72 9.61
9/8/2021 12:00:00 PM 20.5 68.9 0.34 8.26 4.87 9.86
9/8/2021 12:15:00 PM 20.6 69.08 0.338 8.3 4.8 9.99
9/8/2021 12:30:00 PM 20.69 69.242 0.336 8.33 4.41 10.09
9/8/2021 12:45:00 PM 20.78 69.404 0.335 8.36 4.33 10.24
9/8/2021 1:00:00 PM 20.86 69.548 0.336 8.37 4.28 10.33
9/8/2021 1:15:00 PM 20.98 69.764 0.336 8.4 4.25 10.42
9/8/2021 1:30:00 PM 21.06 69.908 0.332 8.41 4.22 10.49
9/8/2021 1:45:00 PM 21.09 69.962 0.332 8.43 4.37 10.51
9/8/2021 2:00:00 PM 21.09 69.962 0.332 8.43 3.99 10.51
9/8/2021 2:15:00 PM 21.1 69.98 0.332 8.45 4.09 10.51
9/8/2021 2:30:00 PM 21.1 69.98 0.331 8.45 4.29 10.49
9/8/2021 2:45:00 PM 21.07 69.926 0.331 8.45 4.51 10.41
9/8/2021 3:00:00 PM 21 69.8 0.325 8.43 21.29 10.18
9/8/2021 3:15:00 PM 20.98 69.764 0.328 8.43 10.55 10.05
9/8/2021 3:30:00 PM 20.97 69.746 0.329 8.42 7.72 10.01
9/8/2021 3:45:00 PM 20.92 69.656 0.328 8.41 9.1 9.88
9/8/2021 4:00:00 PM 20.87 69.566 0.327 8.4 7.89 9.81
9/8/2021 4:15:00 PM 20.84 69.512 0.327 8.4 7.29 9.78
9/8/2021 4:30:00 PM 20.83 69.494 0.328 8.39 8.83 9.74
9/8/2021 4:45:00 PM 20.82 69.476 0.328 8.39 6.44 9.72
9/8/2021 5:00:00 PM 20.79 69.422 0.328 8.37 8.08 9.66
9/8/2021 5:15:00 PM 20.75 69.35 0.328 8.36 9.67 9.62
9/8/2021 5:30:00 PM 20.7 69.26 0.327 8.34 10.38 9.56
9/8/2021 5:45:00 PM 20.67 69.206 0.327 8.32 8.58 9.5
9/8/2021 6:00:00 PM 20.65 69.17 0.327 8.3 8.53 9.45
9/8/2021 6:15:00 PM 20.64 69.152 0.327 8.29 7.67 9.45
9/8/2021 6:30:00 PM 20.62 69.116 0.328 8.28 6.44 9.42
9/8/2021 6:45:00 PM 20.6 69.08 0.328 8.27 6.81 9.38
9/8/2021 7:00:00 PM 20.58 69.044 0.328 8.25 6.3 9.34
9/8/2021 7:15:00 PM 20.55 68.99 0.329 8.25 6.27 9.33
9/8/2021 7:30:00 PM 20.52 68.936 0.329 8.24 5.93 9.31
9/8/2021 7:45:00 PM 20.49 68.882 0.329 8.23 5.99 9.27
9/8/2021 8:00:00 PM 20.46 68.828 0.329 8.22 6.61 9.22
9/8/2021 8:15:00 PM 20.41 68.738 0.329 8.2 7.95 9.15
9/8/2021 8:30:00 PM 20.35 68.63 0.328 8.17 6.35 9.09
9/8/2021 8:45:00 PM 20.29 68.522 0.327 8.15 5.83 9.02
9/8/2021 9:00:00 PM 20.22 68.396 0.326 8.13 5.61 8.97
9/8/2021 9:15:00 PM 20.16 68.288 0.325 8.11 6.8 8.93
9/8/2021 9:30:00 PM 20.1 68.18 0.324 8.09 6.5 8.88
9/8/2021 9:45:00 PM 20.04 68.07201 0.323 8.07 6.93 8.85
9/8/2021 10:00:00 PM 20 68 0.323 8.06 7.93 8.81
9/8/2021 10:15:00 PM 19.95 67.91 0.323 8.05 7 8.78
9/8/2021 10:30:00 PM 19.91 67.838 0.323 8.04 7.43 8.74
9/8/2021 10:45:00 PM 19.87 67.766 0.324 8.03 7.35 8.71
9/8/2021 11:00:00 PM 19.84 67.712 0.324 8.02 6.49 8.66
9/8/2021 11:15:00 PM 19.8 67.64 0.325 8 6.4 8.63
9/8/2021 11:30:00 PM 19.76 67.568 0.325 8 6.32 8.62
9/8/2021 11:45:00 PM 19.74 67.532 0.326 7.99 6.93 8.6
9/9/2021 12:00:00 AM 19.72 67.496 0.326 7.97 6.27 8.57
9/9/2021 12:15:00 AM 19.7 67.46 0.327 7.96 6.37 8.55
9/9/2021 12:30:00 AM 19.67 67.406 0.328 7.96 6.34 8.54
9/9/2021 12:45:00 AM 19.64 67.352 0.328 7.96 5.84 8.53
9/9/2021 1:00:00 AM 19.61 67.298 0.328 7.95 7.12 8.5
9/9/2021 1:15:00 AM 19.58 67.244 0.329 7.94 6.21 8.49
9/9/2021 1:30:00 AM 19.55 67.19 0.329 7.94 6.43 8.48
9/9/2021 1:45:00 AM 19.51 67.118 0.329 7.93 6.85 8.47
9/9/2021 2:00:00 AM 19.48 67.064 0.33 7.93 6.82 8.46
9/9/2021 2:15:00 AM 19.45 67.01 0.33 7.92 6.68 8.44
9/9/2021 2:30:00 AM 19.42 66.956 0.33 7.91 6.41 8.42
9/9/2021 2:45:00 AM 19.39 66.902 0.33 7.91 7.16 8.4
9/9/2021 3:00:00 AM 19.37 66.866 0.331 7.91 7.56 8.4
9/9/2021 3:15:00 AM 19.34 66.812 0.331 7.9 7.35 8.4
9/9/2021 3:30:00 AM 19.31 66.758 0.331 7.89 8.46 8.39
9/9/2021 3:45:00 AM 19.28 66.704 0.331 7.88 10.03 8.36
9/9/2021 4:00:00 AM 19.25 66.65 0.331 7.88 9.9 8.37
9/9/2021 4:15:00 AM 19.23 66.614 0.331 7.88 9.47 8.35
9/9/2021 4:30:00 AM 19.2 66.56 0.331 7.87 9.77 8.34
9/9/2021 4:45:00 AM 19.17 66.506 0.332 7.87 9.86 8.33
9/9/2021 5:00:00 AM 19.15 66.47 0.332 7.87 11.37 8.32
9/9/2021 5:15:00 AM 19.13 66.434 0.332 7.86 10.89 8.32
9/9/2021 5:30:00 AM 19.12 66.416 0.332 7.87 10.59 8.32
9/9/2021 5:45:00 AM 19.1 66.38 0.332 7.86 9.86 8.32
9/9/2021 6:00:00 AM 19.08 66.344 0.331 7.85 10.96 8.28
9/9/2021 6:15:00 AM 19.06 66.308 0.331 7.86 11.28 8.3
9/9/2021 6:30:00 AM 19.05 66.29 0.331 7.85 11.35 8.28
9/9/2021 6:45:00 AM 19.04 66.272 0.331 7.85 10.6 8.27
9/9/2021 7:00:00 AM 19.02 66.236 0.33 7.85 10.81 8.26
9/9/2021 7:15:00 AM 19.01 66.218 0.33 7.84 9.69 8.25
9/9/2021 7:30:00 AM 18.99 66.182 0.329 7.83 10.33 8.25
9/9/2021 7:45:00 AM 18.98 66.164 0.329 7.84 9.78 8.26
9/9/2021 8:00:00 AM 18.98 66.164 0.328 7.84 9.52 8.27
9/9/2021 8:15:00 AM 18.98 66.164 0.328 7.84 9.19 8.28
9/9/2021 8:30:00 AM 19 66.2 0.327 7.85 8.78 8.33
9/9/2021 8:45:00 AM 19.02 66.236 0.327 7.85 10.27 8.38
9/9/2021 9:00:00 AM 19.08 66.344 0.326 7.87 8.45 8.48
9/9/2021 9:15:00 AM 19.12 66.416 0.326 7.88 8.6 8.58
9/9/2021 9:30:00 AM 19.19 66.542 0.326 7.91 8.04 8.71
9/9/2021 9:45:00 AM 19.25 66.65 0.325 7.94 8.21 8.85
9/9/2021 10:00:00 AM 19.37 66.866 0.325 7.97 8.06 8.99
9/9/2021 10:15:00 AM 19.45 67.01 0.325 7.99 7.77 9.13
9/9/2021 10:30:00 AM 19.53 67.154 0.324 8.02 8.53 9.28
9/9/2021 10:45:00 AM 19.62 67.316 0.324 8.04 8.17 9.41
9/9/2021 11:00:00 AM 19.74 67.532 0.324 8.08 7.35 9.57
9/9/2021 11:15:00 AM 19.84 67.712 0.324 8.11 7.52 9.71
9/9/2021 11:30:00 AM 19.95 67.91 0.324 8.13 6.91 9.84
9/9/2021 11:45:00 AM 20.06 68.108 0.324 8.17 7.59 9.96
9/9/2021 12:00:00 PM 20.16 68.288 0.324 8.2 7.05 10.08
9/9/2021 12:15:00 PM 20.26 68.468 0.324 8.23 6.72 10.22
9/9/2021 12:30:00 PM 20.36 68.648 0.323 8.26 6.53 10.34
9/9/2021 12:45:00 PM 20.45 68.81 0.323 8.28 6.88 10.44
9/9/2021 1:00:00 PM 20.54 68.972 0.324 8.3 6.13 10.52
9/9/2021 1:15:00 PM 20.62 69.116 0.324 8.33 6.02 10.59
9/9/2021 1:30:00 PM 20.66 69.188 0.324 8.34 6.57 10.67
9/9/2021 1:45:00 PM 20.69 69.242 0.323 8.36 5.96 10.71
9/9/2021 2:00:00 PM 20.73 69.314 0.323 8.37 6.25 10.77
9/9/2021 2:15:00 PM 20.79 69.422 0.323 8.38 6.91 10.82
9/9/2021 2:30:00 PM 20.85 69.53 0.326 8.4 5.98 10.87
9/9/2021 2:45:00 PM 20.88 69.584 0.323 8.41 5.54 10.91
9/9/2021 3:00:00 PM 20.94 69.692 0.323 8.43 5.71 10.97
9/9/2021 3:15:00 PM 20.97 69.746 0.323 8.44 5.34 11.02
9/9/2021 3:30:00 PM 21.03 69.854 0.323 8.45 5.18 11.06
9/9/2021 3:45:00 PM 21.04 69.872 0.323 8.46 5.44 11.06
9/9/2021 4:00:00 PM 21.06 69.908 0.323 8.47 5.47 11.07
9/9/2021 4:15:00 PM 21.06 69.908 0.323 8.47 5.18 11.07
9/9/2021 4:30:00 PM 21.05 69.89 0.323 8.47 4.72 11.04
9/9/2021 4:45:00 PM 21.04 69.872 0.323 8.47 5.27 11.03
9/9/2021 5:00:00 PM 21.03 69.854 0.323 8.48 5.04 11.03
9/9/2021 5:15:00 PM 21.04 69.872 0.323 8.48 5.32 11.03
9/9/2021 5:30:00 PM 21.02 69.836 0.323 8.48 5.15 10.95
9/9/2021 5:45:00 PM 21 69.8 0.323 8.49 4.87 10.95
9/9/2021 6:00:00 PM 20.99 69.782 0.323 8.48 4.8 10.91
9/9/2021 6:15:00 PM 20.97 69.746 0.323 8.48 4.59 10.88
9/9/2021 6:30:00 PM 20.95 69.71 0.323 8.48 4.77 10.82
9/9/2021 6:45:00 PM 20.92 69.656 0.323 8.47 4.8 10.73
9/9/2021 7:00:00 PM 20.9 69.62 0.323 8.46 4.57 10.64
9/9/2021 7:15:00 PM 20.87 69.566 0.323 8.46 4.82 10.56
9/9/2021 7:30:00 PM 20.83 69.494 0.323 8.44 4.5 10.48
9/9/2021 7:45:00 PM 20.76 69.368 0.32 8.43 8.68 10.31
9/9/2021 8:00:00 PM 20.75 69.35 0.321 8.42 5.6 10.25
9/9/2021 8:15:00 PM 20.71 69.278 0.321 8.41 6.53 10.15
9/9/2021 8:30:00 PM 20.66 69.188 0.321 8.39 6.41 10.03
9/9/2021 8:45:00 PM 20.61 69.098 0.32 8.38 5.81 9.92
9/9/2021 9:00:00 PM 20.56 69.008 0.321 8.36 5.59 9.82
9/9/2021 9:15:00 PM 20.51 68.918 0.321 8.33 6.09 9.74
9/9/2021 9:30:00 PM 20.47 68.846 0.321 8.33 5.74 9.65
9/9/2021 9:45:00 PM 20.42 68.756 0.321 8.31 5.58 9.57
9/9/2021 10:00:00 PM 20.37 68.666 0.322 8.29 5.58 9.49
9/9/2021 10:15:00 PM 20.32 68.576 0.322 8.28 5.53 9.42
9/9/2021 10:30:00 PM 20.27 68.486 0.322 8.27 5.55 9.34
9/9/2021 10:45:00 PM 20.21 68.378 0.323 8.25 5.45 9.27
9/9/2021 11:00:00 PM 20.16 68.288 0.324 8.23 5.66 9.21
9/9/2021 11:15:00 PM 20.11 68.198 0.324 8.22 5.21 9.15
9/9/2021 11:30:00 PM 20.06 68.108 0.324 8.21 5.34 9.11
9/9/2021 11:45:00 PM 20.01 68.018 0.324 8.2 5.9 9.07
9/10/2021 12:00:00 AM 19.96 67.92799 0.325 8.19 5.58 9.03
9/10/2021 12:15:00 AM 19.91 67.838 0.325 8.18 5.82 8.98
9/10/2021 12:30:00 AM 19.85 67.73 0.325 8.17 5.77 8.96
9/10/2021 12:45:00 AM 19.81 67.658 0.325 8.17 5.52 8.92
9/10/2021 1:00:00 AM 19.76 67.568 0.325 8.16 5.83 8.9
9/10/2021 1:15:00 AM 19.72 67.496 0.325 8.15 5.71 8.87
9/10/2021 1:30:00 AM 19.68 67.424 0.326 8.14 5.76 8.85
9/10/2021 1:45:00 AM 19.65 67.37 0.326 8.14 5.47 8.82
9/10/2021 2:00:00 AM 19.62 67.316 0.326 8.13 6.47 8.79
9/10/2021 2:15:00 AM 19.59 67.262 0.326 8.13 5.79 8.77
9/10/2021 2:30:00 AM 19.56 67.208 0.326 8.12 6.02 8.74
9/10/2021 2:45:00 AM 19.53 67.154 0.326 8.11 5.9 8.72
9/10/2021 3:00:00 AM 19.5 67.1 0.326 8.1 6.32 8.71
9/10/2021 3:15:00 AM 19.47 67.046 0.326 8.1 7.01 8.68
9/10/2021 3:30:00 AM 19.43 66.974 0.326 8.09 5.44 8.66
9/10/2021 3:45:00 AM 19.38 66.884 0.326 8.09 6.22 8.65
9/10/2021 4:00:00 AM 19.34 66.812 0.326 8.08 5.94 8.62
9/10/2021 4:15:00 AM 19.31 66.758 0.327 8.07 6.06 8.6
9/10/2021 4:30:00 AM 19.28 66.704 0.327 8.06 6.12 8.58
9/10/2021 4:45:00 AM 19.26 66.668 0.327 8.05 6.64 8.55
9/10/2021 5:00:00 AM 19.23 66.614 0.327 8.05 6.53 8.54
9/10/2021 5:15:00 AM 19.2 66.56 0.327 8.04 6.01 8.53
9/10/2021 5:30:00 AM 19.17 66.506 0.328 8.03 6.27 8.49
9/10/2021 5:45:00 AM 19.15 66.47 0.328 8.03 5.97 8.49
9/10/2021 6:00:00 AM 19.11 66.398 0.328 8.02 6.59 8.47
9/10/2021 6:15:00 AM 19.08 66.344 0.328 8.02 6.46 8.46
9/10/2021 6:30:00 AM 19.04 66.272 0.328 8.01 6.48 8.45
9/10/2021 6:45:00 AM 19.01 66.218 0.329 8.01 6.13 8.43
9/10/2021 7:00:00 AM 18.97 66.146 0.329 8 5.95 8.43
9/10/2021 7:15:00 AM 18.94 66.092 0.329 8 5.99 8.42
9/10/2021 7:30:00 AM 18.92 66.056 0.33 7.99 5.56 8.39
9/10/2021 7:45:00 AM 18.9 66.02 0.33 7.99 5.17 8.42
9/10/2021 8:00:00 AM 18.89 66.002 0.33 7.99 5.41 8.44
9/10/2021 8:15:00 AM 18.9 66.02 0.33 8 5.46 8.47
9/10/2021 8:30:00 AM 18.91 66.038 0.33 8.01 4.8 8.53
9/10/2021 8:45:00 AM 18.93 66.074 0.33 8.02 5.15 8.59
9/10/2021 9:00:00 AM 18.96 66.128 0.331 8.04 5.38 8.67
9/10/2021 9:15:00 AM 18.98 66.164 0.331 8.05 4.86 8.78
9/10/2021 9:30:00 AM 19.06 66.308 0.331 8.08 4.8 8.93
9/10/2021 9:45:00 AM 19.12 66.416 0.331 8.1 5.16 9.04
9/10/2021 10:00:00 AM 19.16 66.488 0.331 8.12 5.06 9.14
9/10/2021 10:15:00 AM 19.16 66.488 0.331 8.14 4.82 9.25
9/10/2021 10:30:00 AM 19.26 66.668 0.331 8.17 4.75 9.38
9/10/2021 10:45:00 AM 19.31 66.758 0.331 8.19 4.63 9.5
9/10/2021 11:00:00 AM 19.37 66.866 0.331 8.2 4.54 9.54
9/10/2021 11:15:00 AM 19.41 66.938 0.331 8.22 4.53 9.61
9/10/2021 11:30:00 AM 19.47 67.046 0.331 8.24 4.47 9.72
9/10/2021 11:45:00 AM 19.56 67.208 0.331 8.27 4.54 9.84
9/10/2021 12:00:00 PM 19.58 67.244 0.331 8.28 4.45 9.9
9/10/2021 12:15:00 PM 19.68 67.424 0.331 8.31 4.46 10.03
9/10/2021 12:30:00 PM 19.77 67.586 0.331 8.34 4.33 10.13
9/10/2021 12:45:00 PM 19.81 67.658 0.331 8.35 4.19 10.2
9/10/2021 1:00:00 PM 19.85 67.73 0.331 8.36 4.32 10.25
9/10/2021 1:15:00 PM 19.87 67.766 0.331 8.38 3.93 10.32
9/10/2021 1:30:00 PM 19.92 67.856 0.331 8.39 4.35 10.38
9/10/2021 1:45:00 PM 20.02 68.036 0.331 8.41 4.19 10.45
9/10/2021 2:00:00 PM 20.07 68.126 0.331 8.42 4.4 10.48
9/10/2021 2:15:00 PM 20.1 68.18 0.331 8.43 4.64 10.52
9/10/2021 2:30:00 PM 20.2 68.36 0.331 8.45 4.38 10.63
9/10/2021 2:45:00 PM 20.31 68.558 0.331 8.47 5.1 10.75
9/10/2021 3:00:00 PM 20.31 68.558 0.33 8.48 3.86 10.78
9/10/2021 3:15:00 PM 20.33 68.594 0.33 8.5 3.83 10.86
9/10/2021 3:30:00 PM 20.41 68.738 0.33 8.52 4.33 10.94
9/10/2021 3:45:00 PM 20.44 68.792 0.33 8.53 3.98 10.95
9/10/2021 4:00:00 PM 20.48 68.864 0.33 8.54 5.85 11.03
9/10/2021 4:15:00 PM 20.52 68.936 0.33 8.55 4.08 11.04
9/10/2021 4:30:00 PM 20.55 68.99 0.33 8.56 4.17 11.13
9/10/2021 4:45:00 PM 20.56 69.008 0.329 8.58 3.94 11.17
9/10/2021 5:00:00 PM 20.59 69.062 0.329 8.59 3.78 11.21
9/10/2021 5:15:00 PM 20.64 69.152 0.329 8.6 3.73 11.23
9/10/2021 5:30:00 PM 20.64 69.152 0.329 8.6 3.97 11.23
9/10/2021 5:45:00 PM 20.63 69.134 0.329 8.6 3.62 11.17
9/10/2021 6:00:00 PM 20.62 69.116 0.329 8.6 3.81 11.17
9/10/2021 6:15:00 PM 20.61 69.098 0.329 8.61 3.82 11.16
9/10/2021 6:30:00 PM 20.6 69.08 0.329 8.61 3.84 11.14
9/10/2021 6:45:00 PM 20.59 69.062 0.329 8.6 4.55 11.06
9/10/2021 7:00:00 PM 20.58 69.044 0.329 8.6 3.8 11.01
9/10/2021 7:15:00 PM 20.58 69.044 0.33 8.6 4.01 10.95
9/10/2021 7:30:00 PM 20.55 68.99 0.33 8.59 3.88 10.86
9/10/2021 7:45:00 PM 20.5 68.9 0.33 8.58 6.78 10.76
9/10/2021 8:00:00 PM 20.46 68.828 0.33 8.57 3.71 10.67
9/10/2021 8:15:00 PM 20.4 68.72 0.33 8.56 4.08 10.57
9/10/2021 8:30:00 PM 20.35 68.63 0.33 8.55 3.94 10.45
9/10/2021 8:45:00 PM 20.29 68.522 0.33 8.54 4.02 10.36
9/10/2021 9:00:00 PM 20.23 68.414 0.331 8.52 4.22 10.25
9/10/2021 9:15:00 PM 20.17 68.306 0.331 8.51 4.43 10.15
9/10/2021 9:30:00 PM 20.1 68.18 0.331 8.49 5.01 10.04
9/10/2021 9:45:00 PM 20.04 68.07201 0.331 8.48 4.16 9.97
9/10/2021 10:00:00 PM 19.97 67.946 0.332 8.46 4.2 9.89
9/10/2021 10:15:00 PM 19.9 67.82 0.332 8.45 4.53 9.79
9/10/2021 10:30:00 PM 19.83 67.694 0.332 8.43 4.56 9.7
9/10/2021 10:45:00 PM 19.75 67.55 0.332 8.42 4.52 9.62
9/10/2021 11:00:00 PM 19.68 67.424 0.333 8.4 4.5 9.55
9/10/2021 11:15:00 PM 19.6 67.28 0.333 8.39 4.53 9.49
9/10/2021 11:30:00 PM 19.53 67.154 0.333 8.37 4.67 9.43
9/10/2021 11:45:00 PM 19.45 67.01 0.334 8.35 12.27 9.35
9/11/2021 12:00:00 AM 19.38 66.884 0.334 8.31 5.17 9.29
9/11/2021 12:15:00 AM 19.31 66.758 0.334 8.33 4.44 9.26
9/11/2021 12:30:00 AM 19.24 66.632 0.334 8.32 4.82 9.22
9/11/2021 12:45:00 AM 19.18 66.524 0.334 8.31 4.63 9.19
9/11/2021 1:00:00 AM 19.11 66.398 0.335 8.3 4.16 9.16
9/11/2021 1:15:00 AM 19.05 66.29 0.335 8.29 4.53 9.13
9/11/2021 1:30:00 AM 18.99 66.182 0.335 8.29 4.59 9.1
9/11/2021 1:45:00 AM 18.92 66.056 0.335 8.28 4.65 9.07
9/11/2021 2:00:00 AM 18.87 65.966 0.335 8.26 4.42 9.06
9/11/2021 2:15:00 AM 18.81 65.858 0.336 8.25 5 9.03
9/11/2021 2:30:00 AM 18.75 65.75 0.336 8.24 4.52 9.01
9/11/2021 2:45:00 AM 18.7 65.66 0.336 8.24 4.76 8.99
9/11/2021 3:00:00 AM 18.65 65.57 0.336 8.23 4.76 8.98
9/11/2021 3:15:00 AM 18.6 65.48 0.336 8.23 4.42 8.96
9/11/2021 3:30:00 AM 18.55 65.39 0.336 8.22 4.86 8.95
9/11/2021 3:45:00 AM 18.51 65.318 0.336 8.21 5.17 8.94
9/11/2021 4:00:00 AM 18.46 65.228 0.337 8.21 5.62 8.92
9/11/2021 4:15:00 AM 18.41 65.138 0.337 8.2 4.83 8.91
9/11/2021 4:30:00 AM 18.38 65.084 0.337 8.2 4.87 8.9
9/11/2021 4:45:00 AM 18.33 64.994 0.337 8.19 4.93 8.88
9/11/2021 5:00:00 AM 18.29 64.922 0.337 8.19 4.76 8.88
9/11/2021 5:15:00 AM 18.25 64.85 0.337 8.18 4.67 8.86
9/11/2021 5:30:00 AM 18.21 64.778 0.338 8.17 4.55 8.84
9/11/2021 5:45:00 AM 18.17 64.706 0.338 8.17 4.25 8.83
9/11/2021 6:00:00 AM 18.14 64.652 0.338 8.16 5.26 8.8
9/11/2021 6:15:00 AM 18.11 64.598 0.338 8.16 5.26 8.8
9/11/2021 6:30:00 AM 18.07 64.526 0.338 8.14 4.65 8.77
9/11/2021 6:45:00 AM 18.04 64.472 0.339 8.13 4.86 8.75
9/11/2021 7:00:00 AM 18 64.4 0.339 8.13 5.3 8.73
9/11/2021 7:15:00 AM 17.97 64.346 0.339 8.12 4.86 8.73
9/11/2021 7:30:00 AM 17.95 64.31 0.339 8.12 4.45 8.72
9/11/2021 7:45:00 AM 17.94 64.292 0.339 8.11 4.27 8.72
9/11/2021 8:00:00 AM 17.92 64.256 0.34 8.11 4.41 8.74
9/11/2021 8:15:00 AM 17.92 64.256 0.34 8.11 4.33 8.77
9/11/2021 8:30:00 AM 17.92 64.256 0.34 8.12 4.57 8.84
9/11/2021 8:45:00 AM 17.93 64.274 0.34 8.12 4.41 8.91
9/11/2021 9:00:00 AM 17.94 64.292 0.34 8.14 3.9 8.99
9/11/2021 9:15:00 AM 17.98 64.364 0.34 8.15 4.14 9.11
9/11/2021 9:30:00 AM 18.01 64.418 0.34 8.16 3.87 9.21
9/11/2021 9:45:00 AM 18.06 64.508 0.34 8.19 4.06 9.36
9/11/2021 10:00:00 AM 18.14 64.652 0.34 8.21 3.99 9.48
9/11/2021 10:15:00 AM 18.23 64.814 0.34 8.23 3.89 9.63
9/11/2021 10:30:00 AM 18.34 65.012 0.34 8.26 4.21 9.74
9/11/2021 10:45:00 AM 18.45 65.21 0.34 8.28 3.73 9.88
9/11/2021 11:00:00 AM 18.57 65.426 0.34 8.29 4 10.01
9/11/2021 11:15:00 AM 18.69 65.642 0.34 8.32 4.04 10.16
9/11/2021 11:30:00 AM 18.83 65.894 0.34 8.34 3.74 10.33
9/11/2021 11:45:00 AM 18.99 66.182 0.34 8.37 3.89 10.46
9/11/2021 12:00:00 PM 19.12 66.416 0.34 8.39 3.84 10.59
9/11/2021 12:15:00 PM 19.26 66.668 0.34 8.41 4.08 10.71
9/11/2021 12:30:00 PM 19.4 66.92 0.339 8.43 3.83 10.83
9/11/2021 12:45:00 PM 19.54 67.172 0.339 8.45 3.62 10.95
9/11/2021 1:00:00 PM 19.67 67.406 0.339 8.47 3.75 11.04
9/11/2021 1:15:00 PM 19.77 67.586 0.339 8.48 3.85 11.12
9/11/2021 1:30:00 PM 19.92 67.856 0.339 8.5 3.57 11.22
9/11/2021 1:45:00 PM 20.03 68.054 0.339 8.52 3.64 11.31
9/11/2021 2:00:00 PM 20.13 68.234 0.339 8.53 3.58 11.37
9/11/2021 2:15:00 PM 20.24 68.432 0.338 8.55 3.75 11.45
9/11/2021 2:30:00 PM 20.35 68.63 0.338 8.56 3.54 11.52
9/11/2021 2:45:00 PM 20.44 68.792 0.338 8.58 3.69 11.55
9/11/2021 3:00:00 PM 20.51 68.918 0.338 8.59 3.64 11.61
9/11/2021 3:15:00 PM 20.58 69.044 0.338 8.61 4.74 11.64
9/11/2021 3:30:00 PM 20.63 69.134 0.337 8.62 5.95 11.7
9/11/2021 3:45:00 PM 20.69 69.242 0.337 8.62 3.56 11.7
9/11/2021 4:00:00 PM 20.7 69.26 0.337 8.63 3.66 11.74
9/11/2021 4:15:00 PM 20.72 69.296 0.336 8.64 3.51 11.76
9/11/2021 4:30:00 PM 20.74 69.332 0.336 8.64 3.92 11.77
9/11/2021 4:45:00 PM 20.74 69.332 0.336 8.65 3.69 11.74
9/11/2021 5:00:00 PM 20.72 69.296 0.336 8.65 3.3 11.71
9/11/2021 5:15:00 PM 20.7 69.26 0.336 8.65 3.68 11.7
9/11/2021 5:30:00 PM 20.68 69.224 0.335 8.65 3.39 11.62
9/11/2021 5:45:00 PM 20.66 69.188 0.335 8.65 3.41 11.61
9/11/2021 6:00:00 PM 20.64 69.152 0.335 8.65 3.32 11.55
9/11/2021 6:15:00 PM 20.63 69.134 0.335 8.65 3.54 11.5
9/11/2021 6:30:00 PM 20.6 69.08 0.335 8.65 3.76 11.42
9/11/2021 6:45:00 PM 20.57 69.026 0.334 8.64 3.48 11.34
9/11/2021 7:00:00 PM 20.53 68.954 0.334 8.64 3.56 11.24
9/11/2021 7:15:00 PM 20.5 68.9 0.334 8.63 3.65 11.14
9/11/2021 7:30:00 PM 20.46 68.828 0.334 8.62 3.68 11.04
9/11/2021 7:45:00 PM 20.42 68.756 0.334 8.61 3.79 10.92
9/11/2021 8:00:00 PM 20.39 68.702 0.334 8.6 3.44 10.83
9/11/2021 8:15:00 PM 20.35 68.63 0.334 8.59 4.35 10.72
9/11/2021 8:30:00 PM 20.31 68.558 0.334 8.58 4.3 10.63
9/11/2021 8:45:00 PM 20.26 68.468 0.334 8.57 4.44 10.51
9/11/2021 9:00:00 PM 20.22 68.396 0.334 8.56 4.11 10.42
9/11/2021 9:15:00 PM 20.18 68.324 0.334 8.55 4.32 10.31
9/11/2021 9:30:00 PM 20.13 68.234 0.334 8.54 3.94 10.23
9/11/2021 9:45:00 PM 20.07 68.126 0.334 8.52 4.21 10.14
9/11/2021 10:00:00 PM 20.02 68.036 0.334 8.51 4.16 10.05
9/11/2021 10:15:00 PM 19.97 67.946 0.334 8.5 5.03 9.94
9/11/2021 10:30:00 PM 19.91 67.838 0.334 8.48 4.3 9.85
9/11/2021 10:45:00 PM 19.85 67.73 0.334 8.47 4.39 9.77
9/11/2021 11:00:00 PM 19.8 67.64 0.334 8.45 4.41 9.69
9/11/2021 11:15:00 PM 19.74 67.532 0.334 8.44 4.25 9.61
9/11/2021 11:30:00 PM 19.69 67.442 0.333 8.43 4.53 9.54
9/11/2021 11:45:00 PM 19.64 67.352 0.333 8.42 5.26 9.48
9/12/2021 12:00:00 AM 19.59 67.262 0.333 8.41 4.25 9.43
9/12/2021 12:15:00 AM 19.54 67.172 0.333 8.4 5.14 9.38
9/12/2021 12:30:00 AM 19.49 67.082 0.333 8.39 4.79 9.33
9/12/2021 12:45:00 AM 19.45 67.01 0.333 8.38 4.47 9.29
9/12/2021 1:00:00 AM 19.41 66.938 0.333 8.37 5 9.24
9/12/2021 1:15:00 AM 19.37 66.866 0.333 8.36 4.29 9.21
9/12/2021 1:30:00 AM 19.34 66.812 0.333 8.36 4.17 9.18
9/12/2021 1:45:00 AM 19.3 66.74 0.333 8.35 4.75 9.15
9/12/2021 2:00:00 AM 19.27 66.686 0.332 8.34 6.2 9.11
9/12/2021 2:15:00 AM 19.24 66.632 0.332 8.34 4.71 9.08
9/12/2021 2:30:00 AM 19.21 66.578 0.332 8.33 5.24 9.06
9/12/2021 2:45:00 AM 19.18 66.524 0.332 8.33 5.18 9.04
9/12/2021 3:00:00 AM 19.16 66.488 0.332 8.32 5.7 9
9/12/2021 3:15:00 AM 19.13 66.434 0.332 8.32 5.5 8.99
9/12/2021 3:30:00 AM 19.11 66.398 0.332 8.31 4.44 8.97
9/12/2021 3:45:00 AM 19.08 66.344 0.332 8.31 4.7 8.94
9/12/2021 4:00:00 AM 19.05 66.29 0.332 8.3 4.45 8.9
9/12/2021 4:15:00 AM 19.03 66.254 0.332 8.3 5.7 8.89
9/12/2021 4:30:00 AM 19.01 66.218 0.332 8.29 4.41 8.87
9/12/2021 4:45:00 AM 18.97 66.146 0.332 8.28 4.63 8.85
9/12/2021 5:00:00 AM 18.95 66.11 0.332 8.27 4.25 8.82
9/12/2021 5:15:00 AM 18.92 66.056 0.332 8.27 4.5 8.8
9/12/2021 5:30:00 AM 18.9 66.02 0.332 8.25 4.91 8.76
9/12/2021 5:45:00 AM 18.87 65.966 0.332 8.24 4.87 8.74
9/12/2021 6:00:00 AM 18.85 65.93 0.332 8.24 4.57 8.72
9/12/2021 6:15:00 AM 18.82 65.876 0.333 8.23 8.99 8.68
9/12/2021 6:30:00 AM 18.8 65.84 0.333 8.21 10.17 8.65
9/12/2021 6:45:00 AM 18.77 65.786 0.333 8.2 6.98 8.63
9/12/2021 7:00:00 AM 18.75 65.75 0.333 8.19 6.49 8.6
9/12/2021 7:15:00 AM 18.72 65.696 0.333 8.18 6.02 8.6
9/12/2021 7:30:00 AM 18.71 65.67799 0.333 8.17 7.55 8.59
9/12/2021 7:45:00 AM 18.7 65.66 0.334 8.17 4.88 8.61
9/12/2021 8:00:00 AM 18.7 65.66 0.334 8.16 4.45 8.62
9/12/2021 8:15:00 AM 18.7 65.66 0.334 8.16 3.97 8.63
9/12/2021 8:30:00 AM 18.71 65.67799 0.334 8.16 4.2 8.69
9/12/2021 8:45:00 AM 18.74 65.732 0.334 8.16 3.89 8.75
9/12/2021 9:00:00 AM 18.78 65.804 0.334 8.17 3.99 8.85
9/12/2021 9:15:00 AM 18.83 65.894 0.334 8.19 6.02 8.94
9/12/2021 9:30:00 AM 18.88 65.984 0.334 8.2 4.12 9.04
9/12/2021 9:45:00 AM 18.91 66.038 0.334 8.21 3.72 9.15
9/12/2021 10:00:00 AM 18.96 66.128 0.334 8.23 3.76 9.29
9/12/2021 10:15:00 AM 19.03 66.254 0.334 8.25 3.75 9.42
9/12/2021 10:30:00 AM 19.09 66.362 0.334 8.26 4.28 9.5
9/12/2021 10:45:00 AM 19.13 66.434 0.334 8.27 3.67 9.56
9/12/2021 11:00:00 AM 19.22 66.596 0.334 8.28 3.77 9.67
9/12/2021 11:15:00 AM 19.34 66.812 0.334 8.3 4.05 9.8
9/12/2021 11:30:00 AM 19.44 66.992 0.334 8.32 4.29 9.94
9/12/2021 11:45:00 AM 19.53 67.154 0.334 8.34 4.01 10.05
9/12/2021 12:00:00 PM 19.63 67.334 0.334 8.36 3.74 10.2
9/12/2021 12:15:00 PM 19.68 67.424 0.334 8.38 3.68 10.31
9/12/2021 12:30:00 PM 19.75 67.55 0.334 8.41 3.69 10.45
9/12/2021 12:45:00 PM 19.82 67.676 0.333 8.43 3.87 10.57
9/12/2021 1:00:00 PM 19.87 67.766 0.333 8.43 3.76 10.61
9/12/2021 1:15:00 PM 19.89 67.802 0.333 8.44 3.91 10.61
9/12/2021 1:30:00 PM 19.91 67.838 0.333 8.44 3.77 10.63
9/12/2021 1:45:00 PM 19.94 67.892 0.333 8.45 3.84 10.66
9/12/2021 2:00:00 PM 19.97 67.946 0.333 8.47 3.97 10.73
9/12/2021 2:15:00 PM 20.03 68.054 0.333 8.48 4.06 10.8
9/12/2021 2:30:00 PM 20.1 68.18 0.333 8.49 3.41 10.82
9/12/2021 2:45:00 PM 20.16 68.288 0.333 8.49 3.35 10.87
9/12/2021 3:00:00 PM 20.23 68.414 0.333 8.51 3.54 10.96
9/12/2021 3:15:00 PM 20.31 68.558 0.333 8.52 3.48 11.03
9/12/2021 3:30:00 PM 20.38 68.684 0.333 8.54 3.3 11.12
9/12/2021 3:45:00 PM 20.44 68.792 0.333 8.55 3.43 11.19
9/12/2021 4:00:00 PM 20.5 68.9 0.332 8.56 3.43 11.23
9/12/2021 4:15:00 PM 20.55 68.99 0.332 8.57 3.3 11.29
9/12/2021 4:30:00 PM 20.61 69.098 0.332 8.58 3.45 11.33
9/12/2021 4:45:00 PM 20.68 69.224 0.332 8.59 3.58 11.37
9/12/2021 5:00:00 PM 20.73 69.314 0.332 8.6 3.26 11.41
9/12/2021 5:15:00 PM 20.76 69.368 0.332 8.61 3.31 11.42
9/12/2021 5:30:00 PM 20.81 69.458 0.331 8.61 3.53 11.44
9/12/2021 5:45:00 PM 20.85 69.53 0.331 8.62 3.44 11.47
9/12/2021 6:00:00 PM 20.9 69.62 0.331 8.63 3.32 11.47
9/12/2021 6:15:00 PM 20.92 69.656 0.331 8.63 3.55 11.42
9/12/2021 6:30:00 PM 20.92 69.656 0.331 8.63 3.4 11.35
9/12/2021 6:45:00 PM 20.91 69.638 0.331 8.63 3.47 11.26
9/12/2021 7:00:00 PM 20.9 69.62 0.331 8.62 3.48 11.18
9/12/2021 7:15:00 PM 20.89 69.602 0.331 8.62 3.4 11.11
9/12/2021 7:30:00 PM 20.88 69.584 0.331 8.61 3.62 11.02
9/12/2021 7:45:00 PM 20.87 69.566 0.331 8.6 4.33 10.92
9/12/2021 8:00:00 PM 20.86 69.548 0.331 8.59 3.71 10.83
9/12/2021 8:15:00 PM 20.85 69.53 0.332 8.58 3.58 10.71
9/12/2021 8:30:00 PM 20.82 69.476 0.332 8.57 3.54 10.59
9/12/2021 8:45:00 PM 20.81 69.458 0.332 8.55 3.74 10.47
9/12/2021 9:00:00 PM 20.79 69.422 0.332 8.54 3.82 10.36
9/12/2021 9:15:00 PM 20.76 69.368 0.332 8.52 3.75 10.25
9/12/2021 9:30:00 PM 20.74 69.332 0.333 8.51 3.85 10.14
9/12/2021 9:45:00 PM 20.71 69.278 0.333 8.49 3.84 10.03
9/12/2021 10:00:00 PM 20.68 69.224 0.333 8.47 3.87 9.93
9/12/2021 10:15:00 PM 20.65 69.17 0.334 8.46 4.19 9.84
9/12/2021 10:30:00 PM 20.62 69.116 0.334 8.44 5.21 9.74
9/12/2021 10:45:00 PM 20.59 69.062 0.334 8.42 3.95 9.64
9/12/2021 11:00:00 PM 20.56 69.008 0.335 8.41 4.13 9.56
9/12/2021 11:15:00 PM 20.53 68.954 0.335 8.39 4 9.46
9/12/2021 11:30:00 PM 20.48 68.864 0.335 8.37 4.35 9.38
9/12/2021 11:45:00 PM 20.44 68.792 0.336 8.35 4.74 9.31
9/13/2021 12:00:00 AM 20.41 68.738 0.336 8.33 9.93 9.22
9/13/2021 12:15:00 AM 20.37 68.666 0.336 8.32 4.63 9.16
9/13/2021 12:30:00 AM 20.34 68.612 0.337 8.3 4.29 9.1
9/13/2021 12:45:00 AM 20.3 68.54 0.337 8.28 4.34 9.04
9/13/2021 1:00:00 AM 20.26 68.468 0.337 8.27 4.83 8.99
9/13/2021 1:15:00 AM 20.22 68.396 0.338 8.25 3.98 8.94
9/13/2021 1:30:00 AM 20.19 68.342 0.338 8.24 4.75 8.9
9/13/2021 1:45:00 AM 20.16 68.288 0.337 8.22 6.48 8.81
9/13/2021 2:00:00 AM 20.13 68.234 0.338 8.21 4.93 8.8
9/13/2021 2:15:00 AM 20.1 68.18 0.338 8.2 5.06 8.76
9/13/2021 2:30:00 AM 20.07 68.126 0.339 8.19 4.52 8.74
9/13/2021 2:45:00 AM 20.04 68.07201 0.339 8.18 4.81 8.71
9/13/2021 3:00:00 AM 20.01 68.018 0.339 8.17 4.38 8.69
9/13/2021 3:15:00 AM 19.98 67.964 0.34 8.16 6.55 8.64
9/13/2021 3:30:00 AM 19.96 67.92799 0.34 8.15 4.69 8.63
9/13/2021 3:45:00 AM 19.93 67.874 0.34 8.15 4.53 8.6
9/13/2021 4:00:00 AM 19.91 67.838 0.34 8.14 4.9 8.57
9/13/2021 4:15:00 AM 19.89 67.802 0.341 8.13 4.37 8.56
9/13/2021 4:30:00 AM 19.86 67.748 0.341 8.13 4.82 8.55
9/13/2021 4:45:00 AM 19.84 67.712 0.341 8.13 4.76 8.52
9/13/2021 5:00:00 AM 19.83 67.694 0.341 8.12 5.38 8.51
9/13/2021 5:15:00 AM 19.81 67.658 0.342 8.12 5.39 8.49
9/13/2021 5:30:00 AM 19.8 67.64 0.342 8.12 5.22 8.48
9/13/2021 5:45:00 AM 19.78 67.604 0.342 8.11 5.63 8.45
9/13/2021 6:00:00 AM 19.78 67.604 0.343 8.11 4.8 8.43
9/13/2021 6:15:00 AM 19.77 67.586 0.343 8.1 6.68 8.41
9/13/2021 6:30:00 AM 19.76 67.568 0.343 8.1 6.14 8.4
9/13/2021 6:45:00 AM 19.76 67.568 0.343 8.09 4.93 8.38
9/13/2021 7:00:00 AM 19.75 67.55 0.344 8.08 4.37 8.37
9/13/2021 7:15:00 AM 19.75 67.55 0.344 8.08 4.26 8.32
9/13/2021 7:30:00 AM 19.74 67.532 0.345 8.08 4.34 8.33
9/13/2021 7:45:00 AM 19.74 67.532 0.345 8.07 4.8 8.31
9/13/2021 8:00:00 AM 19.74 67.532 0.345 8.07 4.27 8.29
9/13/2021 8:15:00 AM 19.74 67.532 0.345 8.07 4.66 8.29
9/13/2021 8:30:00 AM 19.75 67.55 0.346 8.06 4.88 8.29
9/13/2021 8:45:00 AM 19.76 67.568 0.346 8.06 4.45 8.31
9/13/2021 9:00:00 AM 19.77 67.586 0.346 8.07 4.2 8.34
9/13/2021 9:15:00 AM 19.78 67.604 0.346 8.07 3.77 8.37
9/13/2021 9:30:00 AM 19.79 67.622 0.347 8.07 3.79 8.4
9/13/2021 9:45:00 AM 19.81 67.658 0.347 8.07 3.89 8.47
9/13/2021 10:00:00 AM 19.82 67.676 0.347 8.08 4.05 8.52
9/13/2021 10:15:00 AM 19.83 67.694 0.347 8.09 4.21 8.58
9/13/2021 10:30:00 AM 19.85 67.73 0.348 8.09 5.91 8.62
9/13/2021 10:45:00 AM 19.87 67.766 0.348 8.1 3.9 8.69
9/13/2021 11:00:00 AM 19.89 67.802 0.348 8.11 4.03 8.75
9/13/2021 11:15:00 AM 19.91 67.838 0.348 8.11 3.94 8.79
9/13/2021 11:30:00 AM 19.94 67.892 0.349 8.11 3.82 8.86
9/13/2021 11:45:00 AM 20.01 68.018 0.349 8.13 3.87 8.98
9/13/2021 12:00:00 PM 20.11 68.198 0.349 8.14 4.78 9.07
9/13/2021 12:15:00 PM 20.23 68.414 0.349 8.15 11.53 9.16
9/13/2021 12:30:00 PM 20.34 68.612 0.349 8.18 4.12 9.32
9/13/2021 12:45:00 PM 20.44 68.792 0.349 8.2 3.95 9.46
9/13/2021 1:00:00 PM 20.54 68.972 0.349 8.23 4.11 9.62
9/13/2021 1:15:00 PM 20.66 69.188 0.349 8.26 4.97 9.8
9/13/2021 1:30:00 PM 20.74 69.332 0.349 8.28 3.91 9.9
9/13/2021 1:45:00 PM 20.81 69.458 0.35 8.3 3.93 10.04
9/13/2021 2:00:00 PM 20.9 69.62 0.349 8.31 3.59 10.16
9/13/2021 2:15:00 PM 20.99 69.782 0.349 8.33 3.6 10.24
9/13/2021 2:30:00 PM 21.07 69.926 0.35 8.35 3.49 10.36
9/13/2021 2:45:00 PM 21.14 70.052 0.35 8.37 3.44 10.47
9/13/2021 3:00:00 PM 21.2 70.16 0.35 8.38 3.39 10.55
9/13/2021 3:15:00 PM 21.29 70.32201 0.35 8.4 3.36 10.64
9/13/2021 3:30:00 PM 21.36 70.448 0.349 8.42 3.44 10.71
9/13/2021 3:45:00 PM 21.43 70.574 0.349 8.43 3.55 10.84
9/13/2021 4:00:00 PM 21.5 70.7 0.349 8.45 3.52 10.89
9/13/2021 4:15:00 PM 21.57 70.826 0.349 8.46 3.87 10.94
9/13/2021 4:30:00 PM 21.65 70.97 0.349 8.48 3.64 11.03
9/13/2021 4:45:00 PM 21.69 71.042 0.349 8.49 3.3 11.08
9/13/2021 5:00:00 PM 21.73 71.114 0.349 8.5 6.73 11.08
9/13/2021 5:15:00 PM 21.75 71.15 0.349 8.51 3.66 11.14
9/13/2021 5:30:00 PM 21.76 71.168 0.348 8.52 3.45 11.14
9/13/2021 5:45:00 PM 21.76 71.168 0.348 8.53 3.82 11.14
9/13/2021 6:00:00 PM 21.75 71.15 0.348 8.53 3.47 11.14
9/13/2021 6:15:00 PM 21.73 71.114 0.348 8.53 3.37 11.09
9/13/2021 6:30:00 PM 21.71 71.078 0.348 8.53 3.46 11.06
9/13/2021 6:45:00 PM 21.67 71.006 0.348 8.53 3.37 11
9/13/2021 7:00:00 PM 21.63 70.934 0.348 8.52 3.67 10.91
9/13/2021 7:15:00 PM 21.6 70.88 0.348 8.52 3.67 10.83
9/13/2021 7:30:00 PM 21.56 70.808 0.347 8.51 4.04 10.71
9/13/2021 7:45:00 PM 21.53 70.754 0.347 8.5 4.07 10.59
9/13/2021 8:00:00 PM 21.49 70.682 0.348 8.49 4.21 10.46
9/13/2021 8:15:00 PM 21.46 70.628 0.347 8.48 3.77 10.36
9/13/2021 8:30:00 PM 21.43 70.574 0.348 8.46 4.47 10.24
9/13/2021 8:45:00 PM 21.39 70.502 0.348 8.45 5.57 10.12
9/13/2021 9:00:00 PM 21.36 70.448 0.348 8.44 4.39 10.03
9/13/2021 9:15:00 PM 21.32 70.376 0.348 8.42 8.11 9.91
9/13/2021 9:30:00 PM 21.29 70.32201 0.348 8.38 28.85 9.76
9/13/2021 9:45:00 PM 21.25 70.25 0.348 8.4 25.77 9.72
9/13/2021 10:00:00 PM 21.21 70.17799 0.348 8.39 4.53 9.67
9/13/2021 10:15:00 PM 21.18 70.124 0.348 8.37 4.62 9.56
9/13/2021 10:30:00 PM 21.14 70.052 0.348 8.36 3.79 9.47
9/13/2021 10:45:00 PM 21.1 69.98 0.348 8.34 3.98 9.39
9/13/2021 11:00:00 PM 21.07 69.926 0.348 8.32 3.94 9.3
9/13/2021 11:15:00 PM 21.04 69.872 0.349 8.31 4.62 9.21
9/13/2021 11:30:00 PM 21.01 69.818 0.349 8.28 6.24 9.12
9/13/2021 11:45:00 PM 20.98 69.764 0.349 8.27 4.83 9.05
9/14/2021 12:00:00 AM 20.96 69.728 0.349 8.26 4.34 8.99
9/14/2021 12:15:00 AM 20.89 69.602 0.346 8.24 9.61 8.92
9/14/2021 12:30:00 AM 20.87 69.566 0.347 8.23 6.96 8.87
9/14/2021 12:45:00 AM 20.84 69.512 0.348 8.22 6.05 8.82
9/14/2021 1:00:00 AM 20.82 69.476 0.348 8.2 6.47 8.76
9/14/2021 1:15:00 AM 20.79 69.422 0.348 8.19 6.05 8.72
9/14/2021 1:30:00 AM 20.76 69.368 0.348 8.18 5.39 8.68
9/14/2021 1:45:00 AM 20.74 69.332 0.348 8.18 5.64 8.64
9/14/2021 2:00:00 AM 20.71 69.278 0.348 8.16 5.25 8.61
9/14/2021 2:15:00 AM 20.69 69.242 0.348 8.15 5.21 8.56
9/14/2021 2:30:00 AM 20.66 69.188 0.349 8.14 5.29 8.51
9/14/2021 2:45:00 AM 20.64 69.152 0.349 8.13 5.3 8.49
9/14/2021 3:00:00 AM 20.62 69.116 0.35 8.11 6.64 8.45
9/14/2021 3:15:00 AM 20.6 69.08 0.35 8.11 5.14 8.42
9/14/2021 3:30:00 AM 20.57 69.026 0.35 8.1 5.04 8.38
9/14/2021 3:45:00 AM 20.55 68.99 0.35 8.1 4.53 8.35
9/14/2021 4:00:00 AM 20.53 68.954 0.35 8.09 4.61 8.34
9/14/2021 4:15:00 AM 20.51 68.918 0.35 8.08 4.83 8.32
9/14/2021 4:30:00 AM 20.49 68.882 0.351 8.07 4.79 8.3
9/14/2021 4:45:00 AM 20.46 68.828 0.351 8.07 4.9 8.27
9/14/2021 5:00:00 AM 20.45 68.81 0.351 8.07 4.47 8.27
9/14/2021 5:15:00 AM 20.43 68.774 0.351 8.07 5.17 8.25
9/14/2021 5:30:00 AM 20.41 68.738 0.352 8.05 5.55 8.23
9/14/2021 5:45:00 AM 20.39 68.702 0.352 8.06 6.05 8.2
9/14/2021 6:00:00 AM 20.37 68.666 0.352 8.05 5.41 8.19
9/14/2021 6:15:00 AM 20.35 68.63 0.352 8.04 7.89 8.16
9/14/2021 6:30:00 AM 20.33 68.594 0.352 8.04 7.24 8.17
9/14/2021 6:45:00 AM 20.31 68.558 0.353 8.04 5.02 8.15
9/14/2021 7:00:00 AM 20.28 68.504 0.353 8.03 5.22 8.12
9/14/2021 7:15:00 AM 20.26 68.468 0.353 8.04 6.05 8.12
9/14/2021 7:30:00 AM 20.24 68.432 0.353 8.03 6.96 8.11
9/14/2021 7:45:00 AM 20.22 68.396 0.354 8.01 5.59 8.11
9/14/2021 8:00:00 AM 20.21 68.378 0.354 8.03 7.51 8.12
9/14/2021 8:15:00 AM 20.2 68.36 0.354 8.03 5.37 8.14
9/14/2021 8:30:00 AM 20.2 68.36 0.355 8.02 6.37 8.16
9/14/2021 8:45:00 AM 20.21 68.378 0.355 8.03 5.84 8.21
9/14/2021 9:00:00 AM 20.23 68.414 0.355 8.04 5.88 8.31
9/14/2021 9:15:00 AM 20.25 68.45 0.355 8.05 4.43 8.39
9/14/2021 9:30:00 AM 20.28 68.504 0.356 8.06 5.77 8.49
9/14/2021 9:45:00 AM 20.33 68.594 0.356 8.09 6.15 8.62
9/14/2021 10:00:00 AM 20.38 68.684 0.357 8.1 5.01 8.72
9/14/2021 10:15:00 AM 20.44 68.792 0.356 8.11 5.41 8.85
9/14/2021 10:30:00 AM 20.51 68.918 0.357 8.13 5.17 8.97
9/14/2021 10:45:00 AM 20.59 69.062 0.357 8.15 6.24 9.08
9/14/2021 11:00:00 AM 20.71 69.278 0.357 8.16 4.2 9.2
9/14/2021 11:15:00 AM 20.8 69.44 0.358 8.19 4.58 9.35
9/14/2021 11:30:00 AM 20.84 69.512 0.358 8.2 4.84 9.46
9/14/2021 11:45:00 AM 20.92 69.656 0.358 8.21 4.46 9.56
9/14/2021 12:00:00 PM 21.04 69.872 0.359 8.24 5.13 9.68
9/14/2021 12:15:00 PM 21.17 70.106 0.359 8.26 4.47 9.86
9/14/2021 12:30:00 PM 21.28 70.304 0.359 8.27 5.14 9.95
9/14/2021 12:45:00 PM 21.4 70.52 0.359 8.29 5.58 10.05
9/14/2021 1:00:00 PM 21.54 70.772 0.36 8.31 6.57 10.19
9/14/2021 1:15:00 PM 21.64 70.952 0.36 8.33 5.33 10.32
9/14/2021 1:30:00 PM 21.76 71.168 0.36 8.34 7.51 10.41
9/14/2021 1:45:00 PM 21.84 71.312 0.36 8.36 5.03 10.51
9/14/2021 2:00:00 PM 21.89 71.402 0.361 8.37 4.64 10.56
9/14/2021 2:15:00 PM 21.98 71.564 0.36 8.39 4.52 10.64
9/14/2021 2:30:00 PM 22.08 71.744 0.361 8.41 3.73 10.75
9/14/2021 2:45:00 PM 22.16 71.888 0.361 8.42 4.96 10.84
9/14/2021 3:00:00 PM 22.23 72.014 0.361 8.44 4.84 10.88
9/14/2021 3:15:00 PM 22.32 72.176 0.361 8.44 3.98 10.98
9/14/2021 3:30:00 PM 22.4 72.32 0.361 8.46 4.34 11.01
9/14/2021 3:45:00 PM 22.48 72.464 0.361 8.47 3.72 11.04
9/14/2021 4:00:00 PM 22.57 72.626 0.361 8.48 5.15 11.09
9/14/2021 4:15:00 PM 22.64 72.752 0.361 8.5 5.81 11.15
9/14/2021 4:30:00 PM 22.7 72.86 0.361 8.51 3.91 11.22
9/14/2021 4:45:00 PM 22.73 72.914 0.361 8.52 8.17 11.19
9/14/2021 5:00:00 PM 22.74 72.932 0.361 8.52 4.24 11.17
9/14/2021 5:15:00 PM 22.75 72.95 0.361 8.53 3.35 11.19
9/14/2021 5:30:00 PM 22.76 72.968 0.361 8.54 3.43 11.18
9/14/2021 5:45:00 PM 22.76 72.968 0.361 8.54 3.6 11.13
9/14/2021 6:00:00 PM 22.77 72.986 0.36 8.54 3.41 11.09
9/14/2021 6:15:00 PM 22.77 72.986 0.361 8.54 3.19 11.02
9/14/2021 6:30:00 PM 22.76 72.968 0.361 8.54 3.21 10.98
9/14/2021 6:45:00 PM 22.76 72.968 0.36 8.53 3.34 10.93
9/14/2021 7:00:00 PM 22.75 72.95 0.361 8.53 3.29 10.88
9/14/2021 7:15:00 PM 22.72 72.896 0.361 8.53 3.5 10.77
9/14/2021 7:30:00 PM 22.7 72.86 0.361 8.52 3.6 10.68
9/14/2021 7:45:00 PM 22.67 72.806 0.361 8.51 3.92 10.57
9/14/2021 8:00:00 PM 22.64 72.752 0.361 8.5 4.19 10.46
9/14/2021 8:15:00 PM 22.61 72.698 0.361 8.49 3.41 10.34
9/14/2021 8:30:00 PM 22.58 72.644 0.361 8.47 3.86 10.21
9/14/2021 8:45:00 PM 22.54 72.57201 0.361 8.46 3.86 10.08
9/14/2021 9:00:00 PM 22.5 72.5 0.362 8.44 5.15 9.96
9/14/2021 9:15:00 PM 22.47 72.446 0.362 8.43 3.85 9.84
9/14/2021 9:30:00 PM 22.43 72.374 0.362 8.41 4.03 9.75
9/14/2021 9:45:00 PM 22.4 72.32 0.362 8.4 4.27 9.64
9/14/2021 10:00:00 PM 22.36 72.248 0.362 8.39 4.67 9.55
9/14/2021 10:15:00 PM 22.31 72.158 0.362 8.37 3.88 9.45
9/14/2021 10:30:00 PM 22.27 72.086 0.362 8.36 4.16 9.35
9/14/2021 10:45:00 PM 22.23 72.014 0.363 8.34 3.74 9.26
9/14/2021 11:00:00 PM 22.18 71.924 0.363 8.33 4.34 9.17
9/14/2021 11:15:00 PM 22.14 71.852 0.363 8.32 4.17 9.08
9/14/2021 11:30:00 PM 22.09 71.762 0.363 8.3 3.87 9
9/14/2021 11:45:00 PM 22.05 71.69 0.363 8.29 3.77 8.94
9/15/2021 12:00:00 AM 22.01 71.618 0.364 8.28 3.85 8.88
9/15/2021 12:15:00 AM 21.97 71.546 0.364 8.26 3.88 8.81
9/15/2021 12:30:00 AM 21.93 71.474 0.364 8.26 4.1 8.77
9/15/2021 12:45:00 AM 21.89 71.402 0.364 8.25 4.1 8.7
9/15/2021 1:00:00 AM 21.85 71.33 0.364 8.24 3.57 8.65
9/15/2021 1:15:00 AM 21.82 71.276 0.364 8.24 3.97 8.64
9/15/2021 1:30:00 AM 21.78 71.204 0.364 8.24 4.33 8.6
9/15/2021 1:45:00 AM 21.75 71.15 0.364 8.23 4.06 8.57
9/15/2021 2:00:00 AM 21.72 71.096 0.364 8.23 4.19 8.54
9/15/2021 2:15:00 AM 21.69 71.042 0.364 8.23 4.71 8.51
9/15/2021 2:30:00 AM 21.66 70.988 0.364 8.23 4.71 8.47
9/15/2021 2:45:00 AM 21.64 70.952 0.364 8.22 4.84 8.46
9/15/2021 3:00:00 AM 21.61 70.898 0.364 8.22 5.43 8.42
9/15/2021 3:15:00 AM 21.59 70.862 0.364 8.22 5.31 8.39
9/15/2021 3:30:00 AM 21.56 70.808 0.364 8.21 4.86 8.38
9/15/2021 3:45:00 AM 21.54 70.772 0.364 8.21 5.02 8.36
9/15/2021 4:00:00 AM 21.52 70.736 0.364 8.21 4.75 8.33
9/15/2021 4:15:00 AM 21.49 70.682 0.364 8.2 4.44 8.31
9/15/2021 4:30:00 AM 21.47 70.646 0.364 8.2 5.05 8.29
9/15/2021 4:45:00 AM 21.45 70.61 0.364 8.19 5.71 8.27
9/15/2021 5:00:00 AM 21.42 70.556 0.364 8.19 4.49 8.24
9/15/2021 5:15:00 AM 21.4 70.52 0.364 8.19 4.55 8.23
9/15/2021 5:30:00 AM 21.38 70.484 0.364 8.19 4.98 8.21
9/15/2021 5:45:00 AM 21.36 70.448 0.364 8.19 5.26 8.19
9/15/2021 6:00:00 AM 21.34 70.412 0.364 8.18 7.68 8.17
9/15/2021 6:15:00 AM 21.32 70.376 0.364 8.18 4.57 8.14
9/15/2021 6:30:00 AM 21.31 70.358 0.364 8.17 4.75 8.12
9/15/2021 6:45:00 AM 21.29 70.32201 0.364 8.16 4.56 8.09
9/15/2021 7:00:00 AM 21.27 70.286 0.364 8.15 4.58 8.03
9/15/2021 7:15:00 AM 21.26 70.268 0.364 8.15 4.77 8.04
9/15/2021 7:30:00 AM 21.25 70.25 0.364 8.14 4.73 8.03
9/15/2021 7:45:00 AM 21.25 70.25 0.364 8.14 4.63 8.01
9/15/2021 8:00:00 AM 21.26 70.268 0.364 8.14 4.49 8.05
9/15/2021 8:15:00 AM 21.28 70.304 0.364 8.14 4.76 8.08
9/15/2021 8:30:00 AM 21.31 70.358 0.364 8.14 4.41 8.14
9/15/2021 8:45:00 AM 21.33 70.394 0.363 8.14 4.89 8.19
9/15/2021 9:00:00 AM 21.36 70.448 0.363 8.15 4.85 8.28
9/15/2021 9:15:00 AM 21.41 70.538 0.363 8.16 4.82 8.38
9/15/2021 9:30:00 AM 21.47 70.646 0.363 8.18 5.04 8.48
9/15/2021 9:45:00 AM 21.52 70.736 0.362 8.19 4.77 8.59
9/15/2021 10:00:00 AM 21.6 70.88 0.362 8.2 4.64 8.68
9/15/2021 10:15:00 AM 21.66 70.988 0.362 8.2 6.47 8.73
9/15/2021 10:30:00 AM 21.75 71.15 0.362 8.22 4.8 8.87
9/15/2021 10:45:00 AM 21.85 71.33 0.361 8.24 5.07 9.01
9/15/2021 11:00:00 AM 21.93 71.474 0.361 8.26 5.13 9.1
9/15/2021 11:15:00 AM 22 71.6 0.36 8.27 4.64 9.21
9/15/2021 11:30:00 AM 22.06 71.708 0.36 8.29 4.87 9.31
9/15/2021 11:45:00 AM 22.11 71.798 0.36 8.31 4.82 9.43
9/15/2021 12:00:00 PM 22.14 71.852 0.359 8.32 4.75 9.49
9/15/2021 12:15:00 PM 22.14 71.852 0.359 8.33 3.86 9.52
9/15/2021 12:30:00 PM 22.14 71.852 0.356 8.33 6.37 9.48
9/15/2021 12:45:00 PM 22.16 71.888 0.357 8.33 5.6 9.51
9/15/2021 1:00:00 PM 22.2 71.96 0.357 8.33 4.24 9.52
9/15/2021 1:15:00 PM 22.24 72.032 0.357 8.33 4.65 9.5
9/15/2021 1:30:00 PM 22.25 72.05 0.356 8.34 4.54 9.52
9/15/2021 1:45:00 PM 22.28 72.104 0.356 8.35 4.53 9.6
9/15/2021 2:00:00 PM 22.3 72.14 0.356 8.36 4.73 9.66
9/15/2021 2:15:00 PM 22.34 72.212 0.356 8.38 4.62 9.74
9/15/2021 2:30:00 PM 22.36 72.248 0.356 8.38 4.51 9.75
9/15/2021 2:45:00 PM 22.37 72.266 0.356 8.38 4.12 9.75
9/15/2021 3:00:00 PM 22.37 72.266 0.357 8.38 4.46 9.72
9/15/2021 3:15:00 PM 22.36 72.248 0.357 8.38 4.11 9.69
9/15/2021 3:30:00 PM 22.35 72.23 0.357 8.37 4.12 9.67
9/15/2021 3:45:00 PM 22.33 72.194 0.357 8.37 4.83 9.63
9/15/2021 4:00:00 PM 22.33 72.194 0.357 8.37 4.1 9.65
9/15/2021 4:15:00 PM 22.32 72.176 0.357 8.38 3.8 9.65
9/15/2021 4:30:00 PM 22.3 72.14 0.358 8.38 3.93 9.62
9/15/2021 4:45:00 PM 22.29 72.122 0.358 8.37 4.09 9.62
9/15/2021 5:00:00 PM 22.26 72.068 0.358 8.37 4.3 9.57
9/15/2021 5:15:00 PM 22.24 72.032 0.359 8.37 4.31 9.57
9/15/2021 5:30:00 PM 22.22 71.996 0.359 8.36 4.04 9.52
9/15/2021 5:45:00 PM 22.19 71.942 0.36 8.36 3.76 9.44
9/15/2021 6:00:00 PM 22.17 71.906 0.36 8.35 3.7 9.42
9/15/2021 6:15:00 PM 22.13 71.834 0.36 8.34 3.65 9.34
9/15/2021 6:30:00 PM 22.09 71.762 0.361 8.33 4.01 9.28
9/15/2021 6:45:00 PM 22.05 71.69 0.361 8.32 4.12 9.24
9/15/2021 7:00:00 PM 22.01 71.618 0.361 8.31 4.53 9.18
9/15/2021 7:15:00 PM 21.96 71.528 0.362 8.29 4.16 9.1
9/15/2021 7:30:00 PM 21.91 71.438 0.362 8.28 3.96 9.03
9/15/2021 7:45:00 PM 21.86 71.348 0.363 8.27 3.93 8.95
9/15/2021 8:00:00 PM 21.82 71.276 0.363 8.25 4.27 8.89
9/15/2021 8:15:00 PM 21.77 71.186 0.363 8.24 4.75 8.8
9/15/2021 8:30:00 PM 21.72 71.096 0.364 8.21 7.53 8.71
9/15/2021 8:45:00 PM 21.68 71.024 0.364 8.21 4.16 8.68
9/15/2021 9:00:00 PM 21.63 70.934 0.364 8.19 4.24 8.62
9/15/2021 9:15:00 PM 21.58 70.844 0.364 8.17 4.42 8.56
9/15/2021 9:30:00 PM 21.53 70.754 0.364 8.16 4.24 8.51
9/15/2021 9:45:00 PM 21.48 70.664 0.365 8.14 4.27 8.43
9/15/2021 10:00:00 PM 21.43 70.574 0.364 8.12 4.24 8.38
9/15/2021 10:15:00 PM 21.38 70.484 0.365 8.11 3.92 8.33
9/15/2021 10:30:00 PM 21.33 70.394 0.365 8.07 131.86 8.17
9/15/2021 10:45:00 PM 21.27 70.286 0.365 8.07 6.67 8.19
9/15/2021 11:00:00 PM 21.22 70.196 0.365 8.06 6.7 8.16
9/15/2021 11:15:00 PM 21.17 70.106 0.365 8.05 4.76 8.15
9/15/2021 11:30:00 PM 21.12 70.016 0.365 8.04 5.03 8.13
9/15/2021 11:45:00 PM 21.07 69.926 0.365 8.03 14.41 8.12
9/16/2021 12:00:00 AM 21.02 69.836 0.364 8.03 4.73 8.11
9/16/2021 12:15:00 AM 20.98 69.764 0.364 8.02 5.19 8.09
9/16/2021 12:30:00 AM 20.93 69.674 0.364 8.02 5.59 8.08
9/16/2021 12:45:00 AM 20.88 69.584 0.364 8.01 5.18 8.06
9/16/2021 1:00:00 AM 20.83 69.494 0.364 8 5.45 8.06
9/16/2021 1:15:00 AM 20.79 69.422 0.364 8 5.19 8.05
9/16/2021 1:30:00 AM 20.74 69.332 0.363 7.99 5 8.04
9/16/2021 1:45:00 AM 20.69 69.242 0.363 7.98 5.07 8.03
9/16/2021 2:00:00 AM 20.64 69.152 0.363 7.99 7.47 8.03
9/16/2021 2:15:00 AM 20.6 69.08 0.362 7.98 5.09 8.03
9/16/2021 2:30:00 AM 20.56 69.008 0.362 7.98 5.38 8.02
9/16/2021 2:45:00 AM 20.51 68.918 0.362 7.97 5.29 8.03
9/16/2021 3:00:00 AM 20.47 68.846 0.361 7.97 6.41 8.04
9/16/2021 3:15:00 AM 20.43 68.774 0.361 7.97 5.57 8.04
9/16/2021 3:30:00 AM 20.39 68.702 0.36 7.97 5.98 8.07
9/16/2021 3:45:00 AM 20.35 68.63 0.359 7.97 6.4 8.08
9/16/2021 4:00:00 AM 20.31 68.558 0.358 7.97 6.52 8.09
9/16/2021 4:15:00 AM 20.28 68.504 0.357 7.97 6.91 8.09
9/16/2021 4:30:00 AM 20.26 68.468 0.356 7.97 6.94 8.09
9/16/2021 4:45:00 AM 20.23 68.414 0.355 7.96 7.34 8.09
9/16/2021 5:00:00 AM 20.2 68.36 0.354 7.96 6.38 8.1
9/16/2021 5:15:00 AM 20.18 68.324 0.353 7.96 7.27 8.09
9/16/2021 5:30:00 AM 20.16 68.288 0.352 7.95 7.39 8.09
9/16/2021 5:45:00 AM 20.13 68.234 0.351 7.95 7.17 8.09
9/16/2021 6:00:00 AM 20.11 68.198 0.35 7.94 8.13 8.08
9/16/2021 6:15:00 AM 20.09 68.162 0.348 7.94 8.93 8.08
9/16/2021 6:30:00 AM 20.07 68.126 0.347 7.93 10.1 8.07
9/16/2021 6:45:00 AM 20.05 68.09 0.346 7.93 9.39 8.07
9/16/2021 7:00:00 AM 20.03 68.054 0.344 7.92 7.66 8.05
9/16/2021 7:15:00 AM 20.02 68.036 0.343 7.92 8.65 8.03
9/16/2021 7:30:00 AM 20 68 0.342 7.91 13.65 8.04
9/16/2021 7:45:00 AM 19.99 67.982 0.342 7.91 9.25 8.04
9/16/2021 8:00:00 AM 19.97 67.946 0.341 7.91 9.93 8.05
9/16/2021 8:15:00 AM 19.96 67.92799 0.34 7.91 10.13 8.06
9/16/2021 8:30:00 AM 19.96 67.92799 0.339 7.91 7.79 8.08
9/16/2021 8:45:00 AM 19.96 67.92799 0.338 7.92 9.88 8.1
9/16/2021 9:00:00 AM 19.96 67.92799 0.337 7.92 9.3 8.13
9/16/2021 9:15:00 AM 19.96 67.92799 0.336 7.92 9.7 8.16
9/16/2021 9:30:00 AM 19.97 67.946 0.335 7.93 9.61 8.19
9/16/2021 9:45:00 AM 19.97 67.946 0.334 7.93 9.13 8.23
9/16/2021 10:00:00 AM 20 68 0.334 7.94 8.99 8.28
9/16/2021 10:15:00 AM 20.01 68.018 0.333 7.95 9.54 8.34
9/16/2021 10:30:00 AM 20.04 68.07201 0.333 7.96 11.95 8.45
9/16/2021 10:45:00 AM 20.07 68.126 0.333 7.97 10.07 8.53
9/16/2021 11:00:00 AM 20.08 68.144 0.332 7.98 10.33 8.59
9/16/2021 11:15:00 AM 20.06 68.108 0.332 7.98 10.24 8.63
9/16/2021 11:30:00 AM 20.09 68.162 0.33 7.99 10.78 8.67
9/16/2021 11:45:00 AM 20.09 68.162 0.328 7.99 11.74 8.72
9/16/2021 12:00:00 PM 20.08 68.144 0.325 7.98 14.2 8.73
9/16/2021 12:15:00 PM 20.04 68.07201 0.321 7.97 18.39 8.7
9/16/2021 12:30:00 PM 20.01 68.018 0.316 7.95 23.27 8.67
9/16/2021 12:45:00 PM 19.96 67.92799 0.31 7.93 22.35 8.59
9/16/2021 1:00:00 PM 19.93 67.874 0.304 7.9 24.99 8.55
9/16/2021 1:15:00 PM 19.89 67.802 0.298 7.88 31.26 8.52
9/16/2021 1:30:00 PM 19.88 67.784 0.292 7.86 32.46 8.5
9/16/2021 1:45:00 PM 19.89 67.802 0.287 7.85 33.1 8.47
9/16/2021 2:00:00 PM 19.88 67.784 0.284 7.84 60.66 8.49
9/16/2021 2:15:00 PM 19.89 67.802 0.282 7.83 42.71 8.49
9/16/2021 2:30:00 PM 19.9 67.82 0.281 7.83 32.73 8.49
9/16/2021 2:45:00 PM 19.93 67.874 0.281 7.83 33.64 8.54
9/16/2021 3:00:00 PM 19.96 67.92799 0.282 7.83 34.65 8.58
9/16/2021 3:15:00 PM 19.99 67.982 0.283 7.84 35.4 8.6
9/16/2021 3:30:00 PM 20.02 68.036 0.284 7.85 34.16 8.66
9/16/2021 3:45:00 PM 20.06 68.108 0.284 7.86 26.72 8.69
9/16/2021 4:00:00 PM 20.1 68.18 0.285 7.87 28.88 8.73
9/16/2021 4:15:00 PM 20.15 68.27 0.287 7.88 27.05 8.77
9/16/2021 4:30:00 PM 20.21 68.378 0.289 7.9 34.83 8.82
9/16/2021 4:45:00 PM 20.25 68.45 0.292 7.91 25.55 8.85
9/16/2021 5:00:00 PM 20.29 68.522 0.296 7.93 24.13 8.87
9/16/2021 5:15:00 PM 20.31 68.558 0.299 7.94 35.08 8.89
9/16/2021 5:30:00 PM 20.35 68.63 0.303 7.95 22.57 8.9
9/16/2021 5:45:00 PM 20.38 68.684 0.307 7.96 22.31 8.91
9/16/2021 6:00:00 PM 20.4 68.72 0.311 7.97 18.15 8.91
9/16/2021 6:15:00 PM 20.42 68.756 0.314 7.98 20.4 8.92
9/16/2021 6:30:00 PM 20.44 68.792 0.317 7.98 26.67 8.92
9/16/2021 6:45:00 PM 20.44 68.792 0.32 7.98 27.88 8.9
9/16/2021 7:00:00 PM 20.44 68.792 0.322 7.98 19.87 8.89
9/16/2021 7:15:00 PM 20.43 68.774 0.324 7.98 42.8 8.84
9/16/2021 7:30:00 PM 20.41 68.738 0.325 7.98 21.51 8.74
9/16/2021 7:45:00 PM 20.4 68.72 0.327 7.97 34.61 8.77
9/16/2021 8:00:00 PM 20.39 68.702 0.328 7.97 27.96 8.74
9/16/2021 8:15:00 PM 20.38 68.684 0.329 7.96 23.51 8.7
9/16/2021 8:30:00 PM 20.37 68.666 0.33 7.95 27.13 8.67
9/16/2021 8:45:00 PM 20.37 68.666 0.331 7.95 23.14 8.62
9/16/2021 9:00:00 PM 20.37 68.666 0.331 7.94 25.25 8.6
9/16/2021 9:15:00 PM 20.38 68.684 0.332 7.93 23.27 8.55
9/16/2021 9:30:00 PM 20.38 68.684 0.332 7.93 30.14 8.51
9/16/2021 9:45:00 PM 20.39 68.702 0.332 7.92 32.89 8.47
9/16/2021 10:00:00 PM 20.38 68.684 0.332 7.9 42.62 8.42
9/16/2021 10:15:00 PM 20.38 68.684 0.331 7.89 42.02 8.36
9/16/2021 10:30:00 PM 20.37 68.666 0.33 7.88 52.89 8.32
9/16/2021 10:45:00 PM 20.34 68.612 0.328 7.87 75.37 8.26
9/16/2021 11:00:00 PM 20.32 68.576 0.326 7.85 90.12 8.23
9/16/2021 11:15:00 PM 20.28 68.504 0.323 7.84 99.6 8.19
9/16/2021 11:30:00 PM 20.25 68.45 0.32 7.83 130.07 8.15
9/16/2021 11:45:00 PM 20.21 68.378 0.317 7.81 180.39 8.13
9/17/2021 12:00:00 AM 20.17 68.306 0.313 7.81 195.9 8.11
9/17/2021 12:15:00 AM 20.14 68.252 0.309 7.8 227.78 8.1
9/17/2021 12:30:00 AM 20.11 68.198 0.304 7.79 227.97 8.09
9/17/2021 12:45:00 AM 20.07 68.126 0.3 7.78 250.95 8.09
9/17/2021 1:00:00 AM 20.05 68.09 0.296 7.77 279.88 8.08
9/17/2021 1:15:00 AM 20.02 68.036 0.291 7.76 238.55 8.09
9/17/2021 1:30:00 AM 19.99 67.982 0.287 7.76 299.96 8.08
9/17/2021 1:45:00 AM 19.96 67.92799 0.283 7.75 326.72 8.09
9/17/2021 2:00:00 AM 19.93 67.874 0.28 7.75 315.98 8.09
9/17/2021 2:15:00 AM 19.91 67.838 0.276 7.74 325.38 8.1
9/17/2021 2:30:00 AM 19.88 67.784 0.272 7.74 298.86 8.1
9/17/2021 2:45:00 AM 19.86 67.748 0.27 7.74 342.31 8.11
9/17/2021 3:00:00 AM 19.84 67.712 0.267 7.74 274.87 8.12
9/17/2021 3:15:00 AM 19.82 67.676 0.265 7.73 233.33 8.11
9/17/2021 3:30:00 AM 19.8 67.64 0.263 7.73 240.38 8.12
9/17/2021 3:45:00 AM 19.77 67.586 0.261 7.73 202.22 8.11
9/17/2021 4:00:00 AM 19.75 67.55 0.26 7.72 285.27 8.12
9/17/2021 4:15:00 AM 19.73 67.514 0.259 7.72 223.5 8.12
9/17/2021 4:30:00 AM 19.71 67.478 0.258 7.72 178.72 8.13
9/17/2021 4:45:00 AM 19.69 67.442 0.258 7.72 209.78 8.13
9/17/2021 5:00:00 AM 19.67 67.406 0.257 7.72 182.27 8.12
9/17/2021 5:15:00 AM 19.65 67.37 0.257 7.72 204.61 8.13
9/17/2021 5:30:00 AM 19.64 67.352 0.257 7.71 220.74 8.13
9/17/2021 5:45:00 AM 19.62 67.316 0.257 7.72 246.35 8.13
9/17/2021 6:00:00 AM 19.6 67.28 0.257 7.71 205.45 8.13
9/17/2021 6:15:00 AM 19.58 67.244 0.257 7.71 170.88 8.13
9/17/2021 6:30:00 AM 19.56 67.208 0.257 7.71 208.99 8.14
9/17/2021 6:45:00 AM 19.54 67.172 0.257 7.71 257.94 8.13
9/17/2021 7:00:00 AM 19.53 67.154 0.257 7.71 149.61 8.13
9/17/2021 7:15:00 AM 19.51 67.118 0.257 7.7 304.94 8.11
9/17/2021 7:30:00 AM 19.5 67.1 0.257 7.71 188.84 8.12
9/17/2021 7:45:00 AM 19.49 67.082 0.257 7.71 200.67 8.12
9/17/2021 8:00:00 AM 19.48 67.064 0.257 7.71 168.83 8.13
9/17/2021 8:15:00 AM 19.47 67.046 0.257 7.7 159.15 8.12
9/17/2021 8:30:00 AM 19.46 67.028 0.257 7.7 183.15 8.13
9/17/2021 8:45:00 AM 19.47 67.046 0.257 7.7 247.24 8.12
9/17/2021 9:00:00 AM 19.47 67.046 0.257 7.7 172.28 8.12
9/17/2021 9:15:00 AM 19.47 67.046 0.257 7.7 142.9 8.13
9/17/2021 9:30:00 AM 19.48 67.064 0.258 7.71 150.75 8.12
9/17/2021 9:45:00 AM 19.49 67.082 0.258 7.71 160.78 8.13
9/17/2021 10:00:00 AM 19.51 67.118 0.258 7.71 146.81 8.13
9/17/2021 10:15:00 AM 19.54 67.172 0.258 7.71 146.67 8.15
9/17/2021 10:30:00 AM 19.58 67.244 0.258 7.72 165.72 8.14
9/17/2021 10:45:00 AM 19.61 67.298 0.257 7.72 150.43 8.13
9/17/2021 11:00:00 AM 19.64 67.352 0.258 7.72 139.15 8.15
9/17/2021 11:15:00 AM 19.68 67.424 0.258 7.72 157.12 8.16
9/17/2021 11:30:00 AM 19.73 67.514 0.258 7.72 120.95 8.15
9/17/2021 11:45:00 AM 19.78 67.604 0.257 7.72 198.72 8.17
9/17/2021 12:00:00 PM 19.84 67.712 0.258 7.72 158.38 8.16
9/17/2021 12:15:00 PM 19.9 67.82 0.258 7.73 154.39 8.11
9/17/2021 12:30:00 PM 19.97 67.946 0.258 7.73 156.9 8.2
9/17/2021 12:45:00 PM 19.99 67.982 0.258 7.73 142.8 8.21
9/17/2021 1:00:00 PM 20.01 68.018 0.258 7.73 125.42 8.19
9/17/2021 1:15:00 PM 20.02 68.036 0.258 7.73 139.2 8.2
9/17/2021 1:30:00 PM 20.04 68.07201 0.258 7.73 137.34 8.2
9/17/2021 1:45:00 PM 20.07 68.126 0.258 7.73 166.16 8.2
9/17/2021 2:00:00 PM 20.12 68.216 0.258 7.74 131.18 8.22
9/17/2021 2:15:00 PM 20.19 68.342 0.259 7.74 153.26 8.23
9/17/2021 2:30:00 PM 20.25 68.45 0.259 7.74 119.8 8.25
9/17/2021 2:45:00 PM 20.29 68.522 0.259 7.75 132.29 8.24
9/17/2021 3:00:00 PM 20.33 68.594 0.259 7.75 118.76 8.24
9/17/2021 3:15:00 PM 20.38 68.684 0.259 7.75 125.11 8.24
9/17/2021 3:30:00 PM 20.44 68.792 0.259 7.75 110.01 8.24
9/17/2021 3:45:00 PM 20.51 68.918 0.26 7.75 124.4 8.26
9/17/2021 4:00:00 PM 20.54 68.972 0.26 7.76 163.25 8.26
9/17/2021 4:15:00 PM 20.57 69.026 0.26 7.76 113.07 8.26
9/17/2021 4:30:00 PM 20.59 69.062 0.26 7.76 118.06 8.26
9/17/2021 4:45:00 PM 20.63 69.134 0.26 7.76 116.67 8.25
9/17/2021 5:00:00 PM 20.66 69.188 0.26 7.76 124.68 8.25
9/17/2021 5:15:00 PM 20.68 69.224 0.261 7.76 118.23 8.25
9/17/2021 5:30:00 PM 20.71 69.278 0.261 7.76 121.53 8.23
9/17/2021 5:45:00 PM 20.73 69.314 0.262 7.76 150.33 8.23
9/17/2021 6:00:00 PM 20.75 69.35 0.262 7.75 114.38 8.22
9/17/2021 6:15:00 PM 20.75 69.35 0.263 7.75 104.85 8.2
9/17/2021 6:30:00 PM 20.76 69.368 0.263 7.75 102.61 8.17
9/17/2021 6:45:00 PM 20.76 69.368 0.264 7.75 106.03 8.19
9/17/2021 7:00:00 PM 20.75 69.35 0.264 7.75 120.3 8.19
9/17/2021 7:15:00 PM 20.74 69.332 0.264 7.75 96.65 8.18
9/17/2021 7:30:00 PM 20.73 69.314 0.264 7.74 92.16 8.16
9/17/2021 7:45:00 PM 20.71 69.278 0.264 7.74 116.68 8.08
9/17/2021 8:00:00 PM 20.7 69.26 0.264 7.74 97.64 8.15
9/17/2021 8:15:00 PM 20.69 69.242 0.265 7.74 116.7 8.13
9/17/2021 8:30:00 PM 20.67 69.206 0.265 7.74 101.6 8.13
9/17/2021 8:45:00 PM 20.65 69.17 0.265 7.73 90.77 8.11
9/17/2021 9:00:00 PM 20.63 69.134 0.265 7.73 102.57 8.11
9/17/2021 9:15:00 PM 20.61 69.098 0.265 7.73 89.17 8.11
9/17/2021 9:30:00 PM 20.59 69.062 0.265 7.72 148.16 8.08
9/17/2021 9:45:00 PM 20.57 69.026 0.265 7.72 91.02 8.09
9/17/2021 10:00:00 PM 20.56 69.008 0.265 7.72 140.56 8.08
9/17/2021 10:15:00 PM 20.54 68.972 0.266 7.72 108.78 8.08
9/17/2021 10:30:00 PM 20.54 68.972 0.266 7.72 92.04 8.07
9/17/2021 10:45:00 PM 20.53 68.954 0.266 7.72 83.61 8.07
9/17/2021 11:00:00 PM 20.52 68.936 0.266 7.71 115.68 8.06
9/17/2021 11:15:00 PM 20.51 68.918 0.267 7.72 109.4 8.04
9/17/2021 11:30:00 PM 20.5 68.9 0.267 7.71 84.64 8.06
9/17/2021 11:45:00 PM 20.5 68.9 0.267 7.71 85.75 8.04
9/18/2021 12:00:00 AM 20.48 68.864 0.267 7.71 84.65 8.04
9/18/2021 12:15:00 AM 20.47 68.846 0.268 7.71 86.45 8.02
9/18/2021 12:30:00 AM 20.46 68.828 0.268 7.71 76.52 8.03
9/18/2021 12:45:00 AM 20.45 68.81 0.268 7.71 78.32 8.01
9/18/2021 1:00:00 AM 20.44 68.792 0.268 7.71 86.56 8.05
9/18/2021 1:15:00 AM 20.43 68.774 0.268 7.71 97.95 8.04
9/18/2021 1:30:00 AM 20.42 68.756 0.269 7.71 87.25 8.04
9/18/2021 1:45:00 AM 20.41 68.738 0.269 7.71 70.51 8.05
9/18/2021 2:00:00 AM 20.4 68.72 0.269 7.71 100.83 8.04
9/18/2021 2:15:00 AM 20.4 68.72 0.269 7.72 77.07 8.04
9/18/2021 2:30:00 AM 20.39 68.702 0.27 7.72 96.47 8.04
9/18/2021 2:45:00 AM 20.39 68.702 0.27 7.72 78.65 8.05
9/18/2021 3:00:00 AM 20.39 68.702 0.27 7.72 76.19 8.05
9/18/2021 3:15:00 AM 20.39 68.702 0.27 7.72 72.63 8.05
9/18/2021 3:30:00 AM 20.39 68.702 0.27 7.72 66.79 8.05
9/18/2021 3:45:00 AM 20.39 68.702 0.27 7.72 64.23 8.03
9/18/2021 4:00:00 AM 20.39 68.702 0.27 7.73 82.06 8.06
9/18/2021 4:15:00 AM 20.38 68.684 0.271 7.73 66.01 8.05
9/18/2021 4:30:00 AM 20.38 68.684 0.271 7.73 69.57 7.96
9/18/2021 4:45:00 AM 20.37 68.666 0.271 7.73 71.13 8.05
9/18/2021 5:00:00 AM 20.36 68.648 0.271 7.71 67.41 7.99
9/18/2021 5:15:00 AM 20.35 68.63 0.272 7.73 66.52 8.05
9/18/2021 5:30:00 AM 20.34 68.612 0.272 7.73 61.66 8.06
9/18/2021 5:45:00 AM 20.33 68.594 0.272 7.74 72.65 8.06
9/18/2021 6:00:00 AM 20.31 68.558 0.273 7.74 72.32 8.05
9/18/2021 6:15:00 AM 20.3 68.54 0.273 7.74 55.43 8.05
9/18/2021 6:30:00 AM 20.29 68.522 0.274 7.75 60.96 8.06
9/18/2021 6:45:00 AM 20.29 68.522 0.274 7.75 65.01 8.06
9/18/2021 7:00:00 AM 20.28 68.504 0.274 7.75 62.98 8.04
9/18/2021 7:15:00 AM 20.27 68.486 0.275 7.75 54.31 8.05
9/18/2021 7:30:00 AM 20.27 68.486 0.275 7.76 56.11 8.06
9/18/2021 7:45:00 AM 20.26 68.468 0.276 7.76 58.48 8.06
9/18/2021 8:00:00 AM 20.25 68.45 0.276 7.76 60.26 8.06
9/18/2021 8:15:00 AM 20.26 68.468 0.277 7.76 69.12 8.05
9/18/2021 8:30:00 AM 20.25 68.45 0.278 7.76 54.49 8.05
9/18/2021 8:45:00 AM 20.25 68.45 0.278 7.77 52.38 8.09
9/18/2021 9:00:00 AM 20.26 68.468 0.279 7.77 59.52 8.1
9/18/2021 9:15:00 AM 20.28 68.504 0.279 7.78 53.19 8.14
9/18/2021 9:30:00 AM 20.29 68.522 0.28 7.78 53.93 8.15
9/18/2021 9:45:00 AM 20.33 68.594 0.28 7.79 55.97 8.2
9/18/2021 10:00:00 AM 20.39 68.702 0.281 7.8 52.63 8.22
9/18/2021 10:15:00 AM 20.45 68.81 0.281 7.81 51.27 8.28
9/18/2021 10:30:00 AM 20.53 68.954 0.282 7.82 49.37 8.34
9/18/2021 10:45:00 AM 20.62 69.116 0.283 7.84 45.87 8.42
9/18/2021 11:00:00 AM 20.72 69.296 0.283 7.85 47.57 8.47
9/18/2021 11:15:00 AM 20.83 69.494 0.284 7.87 49.51 8.54
9/18/2021 11:30:00 AM 20.94 69.692 0.284 7.88 45.94 8.61
9/18/2021 11:45:00 AM 21.04 69.872 0.285 7.9 61.31 8.67
9/18/2021 12:00:00 PM 21.11 69.998 0.285 7.91 47 8.72
9/18/2021 12:15:00 PM 21.22 70.196 0.286 7.93 58.58 8.77
9/18/2021 12:30:00 PM 21.29 70.32201 0.287 7.93 45.16 8.79
9/18/2021 12:45:00 PM 21.37 70.466 0.288 7.95 46.48 8.88
9/18/2021 1:00:00 PM 21.46 70.628 0.288 7.96 146.83 8.91
9/18/2021 1:15:00 PM 21.46 70.628 0.288 7.97 44.46 8.93
9/18/2021 1:30:00 PM 21.45 70.61 0.289 7.97 40.03 8.95
9/18/2021 1:45:00 PM 21.44 70.592 0.289 7.98 44 8.95
9/18/2021 2:00:00 PM 21.41 70.538 0.29 7.96 42.17 8.87
9/18/2021 2:15:00 PM 21.42 70.556 0.29 7.95 45.81 8.84
9/18/2021 2:30:00 PM 21.43 70.574 0.29 7.95 51.88 8.84
9/18/2021 2:45:00 PM 21.46 70.628 0.291 7.95 49.16 8.87
9/18/2021 3:00:00 PM 21.51 70.718 0.291 7.97 42.18 8.91
9/18/2021 3:15:00 PM 21.51 70.718 0.291 7.97 41.54 8.96
9/18/2021 3:30:00 PM 21.51 70.718 0.291 7.99 40.13 9.02
9/18/2021 3:45:00 PM 21.53 70.754 0.292 7.99 41.95 9.03
9/18/2021 4:00:00 PM 21.52 70.736 0.292 7.99 42.26 9
9/18/2021 4:15:00 PM 21.53 70.754 0.292 7.99 38.53 9.02
9/18/2021 4:30:00 PM 21.54 70.772 0.293 8 42.45 9.02
9/18/2021 4:45:00 PM 21.54 70.772 0.293 7.99 52.78 8.99
9/18/2021 5:00:00 PM 21.55 70.79 0.294 7.99 37.1 8.98
9/18/2021 5:15:00 PM 21.55 70.79 0.294 7.99 37.35 8.99
9/18/2021 5:30:00 PM 21.55 70.79 0.294 8 38.96 8.99
9/18/2021 5:45:00 PM 21.55 70.79 0.295 8 41.08 8.98
9/18/2021 6:00:00 PM 21.53 70.754 0.295 7.99 40.53 8.96
9/18/2021 6:15:00 PM 21.51 70.718 0.295 7.99 38.04 8.93
9/18/2021 6:30:00 PM 21.49 70.682 0.295 7.98 37.79 8.91
9/18/2021 6:45:00 PM 21.47 70.646 0.296 7.98 42.3 8.87
9/18/2021 7:00:00 PM 21.45 70.61 0.296 7.98 38.23 8.85
9/18/2021 7:15:00 PM 21.42 70.556 0.296 7.97 41.48 8.81
9/18/2021 7:30:00 PM 21.39 70.502 0.296 7.96 33.8 8.79
9/18/2021 7:45:00 PM 21.36 70.448 0.296 7.96 37.1 8.76
9/18/2021 8:00:00 PM 21.32 70.376 0.297 7.95 37.41 8.72
9/18/2021 8:15:00 PM 21.29 70.32201 0.297 7.93 51.01 8.67
9/18/2021 8:30:00 PM 21.25 70.25 0.297 7.93 36.79 8.62
9/18/2021 8:45:00 PM 21.22 70.196 0.297 7.92 33.34 8.58
9/18/2021 9:00:00 PM 21.18 70.124 0.297 7.92 34.05 8.58
9/18/2021 9:15:00 PM 21.15 70.07 0.297 7.91 33.69 8.53
9/18/2021 9:30:00 PM 21.12 70.016 0.297 7.9 35 8.51
9/18/2021 9:45:00 PM 21.08 69.944 0.298 7.9 33.48 8.47
9/18/2021 10:00:00 PM 21.05 69.89 0.298 7.89 37.98 8.45
9/18/2021 10:15:00 PM 21.02 69.836 0.298 7.89 37.87 8.45
9/18/2021 10:30:00 PM 20.99 69.782 0.298 7.89 32.72 8.43
9/18/2021 10:45:00 PM 20.96 69.728 0.298 7.88 35.49 8.4
9/18/2021 11:00:00 PM 20.93 69.674 0.298 7.88 35.12 8.39
9/18/2021 11:15:00 PM 20.91 69.638 0.298 7.87 31.34 8.37
9/18/2021 11:30:00 PM 20.88 69.584 0.298 7.88 32.49 8.37
9/18/2021 11:45:00 PM 20.86 69.548 0.299 7.87 41.27 8.34
9/19/2021 12:00:00 AM 20.83 69.494 0.299 7.87 32.13 8.34
9/19/2021 12:15:00 AM 20.8 69.44 0.299 7.87 31.05 8.32
9/19/2021 12:30:00 AM 20.78 69.404 0.299 7.86 32.7 8.3
9/19/2021 12:45:00 AM 20.75 69.35 0.299 7.86 34.85 8.28
9/19/2021 1:00:00 AM 20.72 69.296 0.299 7.86 30.82 8.27
9/19/2021 1:15:00 AM 20.69 69.242 0.299 7.86 29.33 8.28
9/19/2021 1:30:00 AM 20.67 69.206 0.299 7.86 29.06 8.26
9/19/2021 1:45:00 AM 20.64 69.152 0.299 7.86 29.86 8.26
9/19/2021 2:00:00 AM 20.61 69.098 0.299 7.86 29.31 8.25
9/19/2021 2:15:00 AM 20.59 69.062 0.299 7.86 31.33 8.23
9/19/2021 2:30:00 AM 20.56 69.008 0.299 7.86 28.37 8.24
9/19/2021 2:45:00 AM 20.53 68.954 0.299 7.86 30.35 8.23
9/19/2021 3:00:00 AM 20.5 68.9 0.299 7.86 32.66 8.23
9/19/2021 3:15:00 AM 20.47 68.846 0.299 7.86 28.96 8.21
9/19/2021 3:30:00 AM 20.44 68.792 0.299 7.86 28.5 8.2
9/19/2021 3:45:00 AM 20.4 68.72 0.3 7.86 27.56 8.19
9/19/2021 4:00:00 AM 20.38 68.684 0.3 7.86 29.87 8.2
9/19/2021 4:15:00 AM 20.34 68.612 0.3 7.86 26.57 8.18
9/19/2021 4:30:00 AM 20.33 68.594 0.3 7.86 29.39 8.16
9/19/2021 4:45:00 AM 20.31 68.558 0.3 7.86 30.08 8.16
9/19/2021 5:00:00 AM 20.3 68.54 0.3 7.86 28.25 8.13
9/19/2021 5:15:00 AM 20.29 68.522 0.3 7.82 69.34 8.11
9/19/2021 5:30:00 AM 20.28 68.504 0.3 7.86 92.99 8.1
9/19/2021 5:45:00 AM 20.27 68.486 0.3 7.87 26.96 8.15
9/19/2021 6:00:00 AM 20.26 68.468 0.3 7.87 25.07 8.13
9/19/2021 6:15:00 AM 20.25 68.45 0.3 7.87 27.66 8.13
9/19/2021 6:30:00 AM 20.24 68.432 0.3 7.86 39.92 8.1
9/19/2021 6:45:00 AM 20.23 68.414 0.3 7.87 24.68 8.1
9/19/2021 7:00:00 AM 20.23 68.414 0.3 7.88 25.89 8.1
9/19/2021 7:15:00 AM 20.22 68.396 0.3 7.88 25.08 7.92
9/19/2021 7:30:00 AM 20.22 68.396 0.3 7.88 27.45 8.05
9/19/2021 7:45:00 AM 20.21 68.378 0.3 7.88 21.77 8.07
9/19/2021 8:00:00 AM 20.2 68.36 0.301 7.88 24.44 8.06
9/19/2021 8:15:00 AM 20.2 68.36 0.301 7.88 23.6 8.06
9/19/2021 8:30:00 AM 20.2 68.36 0.301 7.89 23.48 8.1
9/19/2021 8:45:00 AM 20.2 68.36 0.301 7.9 21.73 8.11
9/19/2021 9:00:00 AM 20.21 68.378 0.301 7.91 24.95 8.15
9/19/2021 9:15:00 AM 20.24 68.432 0.301 7.92 22.56 8.18
9/19/2021 9:30:00 AM 20.29 68.522 0.301 7.94 21.25 8.26
9/19/2021 9:45:00 AM 20.36 68.648 0.301 7.96 29.13 8.39
9/19/2021 10:00:00 AM 20.44 68.792 0.301 7.99 21.14 8.52
9/19/2021 10:15:00 AM 20.51 68.918 0.301 8.02 22.55 8.65
9/19/2021 10:30:00 AM 20.59 69.062 0.302 8.05 39.22 8.78
9/19/2021 10:45:00 AM 20.67 69.206 0.301 8.08 19.52 8.9
9/19/2021 11:00:00 AM 20.74 69.332 0.302 8.11 21.19 9.02
9/19/2021 11:15:00 AM 20.81 69.458 0.302 8.14 18.34 9.16
9/19/2021 11:30:00 AM 20.89 69.602 0.302 8.16 21.08 9.26
9/19/2021 11:45:00 AM 20.98 69.764 0.302 8.19 19.17 9.39
9/19/2021 12:00:00 PM 21.06 69.908 0.302 8.22 18.08 9.48
9/19/2021 12:15:00 PM 21.16 70.088 0.302 8.25 18.96 9.62
9/19/2021 12:30:00 PM 21.26 70.268 0.302 8.28 17.76 9.74
9/19/2021 12:45:00 PM 21.34 70.412 0.302 8.3 16.72 9.82
9/19/2021 1:00:00 PM 21.42 70.556 0.302 8.32 17.85 9.93
9/19/2021 1:15:00 PM 21.5 70.7 0.302 8.34 17.45 10.01
9/19/2021 1:30:00 PM 21.59 70.862 0.302 8.37 15.14 10.1
9/19/2021 1:45:00 PM 21.64 70.952 0.302 8.38 15.77 10.19
9/19/2021 2:00:00 PM 21.71 71.078 0.302 8.4 18.1 10.26
9/19/2021 2:15:00 PM 21.75 71.15 0.302 8.41 15.11 10.33
9/19/2021 2:30:00 PM 21.8 71.24 0.302 8.43 14.73 10.39
9/19/2021 2:45:00 PM 21.83 71.294 0.302 8.44 15.91 10.43
9/19/2021 3:00:00 PM 21.84 71.312 0.302 8.44 16.35 10.43
9/19/2021 3:15:00 PM 21.86 71.348 0.302 8.45 18.43 10.47
9/19/2021 3:30:00 PM 21.86 71.348 0.302 8.46 14.04 10.49
9/19/2021 3:45:00 PM 21.86 71.348 0.303 8.46 14.52 10.51
9/19/2021 4:00:00 PM 21.85 71.33 0.303 8.47 15.02 10.54
9/19/2021 4:15:00 PM 21.83 71.294 0.303 8.47 15.3 10.52
9/19/2021 4:30:00 PM 21.81 71.258 0.303 8.47 14.52 10.51
9/19/2021 4:45:00 PM 21.78 71.204 0.303 8.47 13.16 10.48
9/19/2021 5:00:00 PM 21.76 71.168 0.303 8.47 14.02 10.47
9/19/2021 5:15:00 PM 21.73 71.114 0.303 8.47 13.7 10.41
9/19/2021 5:30:00 PM 21.71 71.078 0.303 8.46 13.97 10.35
9/19/2021 5:45:00 PM 21.67 71.006 0.303 8.45 14.25 10.31
9/19/2021 6:00:00 PM 21.64 70.952 0.304 8.45 13.26 10.24
9/19/2021 6:15:00 PM 21.6 70.88 0.304 8.44 12.68 10.17
9/19/2021 6:30:00 PM 21.57 70.826 0.304 8.43 12.89 10.13
9/19/2021 6:45:00 PM 21.53 70.754 0.304 8.43 12.72 10.09
9/19/2021 7:00:00 PM 21.49 70.682 0.304 8.42 13.44 10.02
9/19/2021 7:15:00 PM 21.44 70.592 0.304 8.41 13.98 9.94
9/19/2021 7:30:00 PM 21.39 70.502 0.305 8.4 13.47 9.92
9/19/2021 7:45:00 PM 21.35 70.43 0.305 8.39 13.26 9.86
9/19/2021 8:00:00 PM 21.3 70.34 0.305 8.38 13.34 9.8
9/19/2021 8:15:00 PM 21.25 70.25 0.305 8.37 13.1 9.75
9/19/2021 8:30:00 PM 21.19 70.142 0.305 8.36 14.22 9.68
9/19/2021 8:45:00 PM 21.12 70.016 0.306 8.35 14.28 9.61
9/19/2021 9:00:00 PM 21.06 69.908 0.306 8.33 16.51 9.51
9/19/2021 9:15:00 PM 20.99 69.782 0.306 8.32 16.21 9.46
9/19/2021 9:30:00 PM 20.92 69.656 0.306 8.31 14.02 9.41
9/19/2021 9:45:00 PM 20.84 69.512 0.307 8.29 15.88 9.29
9/19/2021 10:00:00 PM 20.77 69.386 0.307 8.26 40.51 9.21
9/19/2021 10:15:00 PM 20.7 69.26 0.307 8.25 25.61 9.19
9/19/2021 10:30:00 PM 20.63 69.134 0.307 8.25 14.53 9.13
9/19/2021 10:45:00 PM 20.56 69.008 0.308 8.24 14.09 9.09
9/19/2021 11:00:00 PM 20.5 68.9 0.308 8.23 16.16 9.05
9/19/2021 11:15:00 PM 20.43 68.774 0.308 8.22 14.71 9.02
9/19/2021 11:30:00 PM 20.37 68.666 0.308 8.21 13.89 8.98
9/19/2021 11:45:00 PM 20.31 68.558 0.308 8.2 14.18 8.95
9/20/2021 12:00:00 AM 20.25 68.45 0.308 8.2 14.35 8.92
9/20/2021 12:15:00 AM 20.2 68.36 0.308 8.19 13.24 8.86
9/20/2021 12:30:00 AM 20.15 68.27 0.309 8.18 19.41 8.85
9/20/2021 12:45:00 AM 20.1 68.18 0.309 8.18 12.68 8.83
9/20/2021 1:00:00 AM 20.05 68.09 0.309 8.18 14.09 8.81
9/20/2021 1:15:00 AM 20.01 68.018 0.309 8.17 14.07 8.76
9/20/2021 1:30:00 AM 19.96 67.92799 0.309 8.16 15.06 8.76
9/20/2021 1:45:00 AM 19.92 67.856 0.309 8.16 14.74 8.75
9/20/2021 2:00:00 AM 19.88 67.784 0.31 8.15 12.47 8.73
9/20/2021 2:15:00 AM 19.84 67.712 0.31 8.15 13.63 8.71
9/20/2021 2:30:00 AM 19.8 67.64 0.31 8.14 24.28 8.69
9/20/2021 2:45:00 AM 19.77 67.586 0.31 8.14 14.47 8.67
9/20/2021 3:00:00 AM 19.73 67.514 0.31 8.14 13.13 8.64
9/20/2021 3:15:00 AM 19.68 67.424 0.31 8.14 14.28 8.64
9/20/2021 3:30:00 AM 19.64 67.352 0.31 8.13 13.29 8.61
9/20/2021 3:45:00 AM 19.59 67.262 0.31 8.13 12.65 8.59
9/20/2021 4:00:00 AM 19.54 67.172 0.311 8.09 29.98 8.53
9/20/2021 4:15:00 AM 19.5 67.1 0.311 8.11 18.67 8.55
9/20/2021 4:30:00 AM 19.47 67.046 0.311 8.11 15.61 8.54
9/20/2021 4:45:00 AM 19.43 66.974 0.311 8.11 14.91 8.5
9/20/2021 5:00:00 AM 19.4 66.92 0.311 8.1 18.23 8.48
9/20/2021 5:15:00 AM 19.38 66.884 0.311 8.1 14.43 8.46
9/20/2021 5:30:00 AM 19.36 66.848 0.311 8.1 16.45 8.44
9/20/2021 5:45:00 AM 19.32 66.776 0.312 8.1 13.48 8.42
9/20/2021 6:00:00 AM 19.3 66.74 0.312 8.09 18.79 8.4
9/20/2021 6:15:00 AM 19.27 66.686 0.312 8.09 16.63 8.39
9/20/2021 6:30:00 AM 19.24 66.632 0.312 8.09 18.54 8.36
9/20/2021 6:45:00 AM 19.2 66.56 0.312 8.08 14.33 8.34
9/20/2021 7:00:00 AM 19.18 66.524 0.313 8.08 14.83 8.33
9/20/2021 7:15:00 AM 19.14 66.452 0.313 8.08 13.62 8.33
9/20/2021 7:30:00 AM 19.12 66.416 0.313 8.07 15.23 8.31
9/20/2021 7:45:00 AM 19.1 66.38 0.313 8.07 15.11 8.3
9/20/2021 8:00:00 AM 19.08 66.344 0.313 8.07 13.98 8.29
9/20/2021 8:15:00 AM 19.07 66.326 0.313 8.08 13.48 8.34
9/20/2021 8:30:00 AM 19.08 66.344 0.313 8.09 12.74 8.37
9/20/2021 8:45:00 AM 19.08 66.344 0.313 8.1 13.02 8.41
9/20/2021 9:00:00 AM 19.09 66.362 0.314 8.11 13.8 8.45
9/20/2021 9:15:00 AM 19.1 66.38 0.314 8.12 15.4 8.52
9/20/2021 9:30:00 AM 19.09 66.362 0.314 8.14 12.97 8.63
9/20/2021 9:45:00 AM 19.1 66.38 0.314 8.15 30.93 8.66
9/20/2021 10:00:00 AM 19.14 66.452 0.314 8.18 13.08 8.8
9/20/2021 10:15:00 AM 19.21 66.578 0.314 8.2 11.76 8.95
9/20/2021 10:30:00 AM 19.3 66.74 0.314 8.24 11.38 9.14
9/20/2021 10:45:00 AM 19.41 66.938 0.313 8.28 11.4 9.27
9/20/2021 11:00:00 AM 19.5 67.1 0.313 8.31 12.22 9.46
9/20/2021 11:15:00 AM 19.61 67.298 0.313 8.34 12.84 9.57
9/20/2021 11:30:00 AM 19.73 67.514 0.313 8.38 11.3 9.78
9/20/2021 11:45:00 AM 19.85 67.73 0.313 8.41 12.41 9.96
9/20/2021 12:00:00 PM 19.95 67.91 0.313 8.43 12.29 10.06
9/20/2021 12:15:00 PM 20.08 68.144 0.313 8.46 11.16 10.2
9/20/2021 12:30:00 PM 20.2 68.36 0.313 8.49 12.09 10.33
9/20/2021 12:45:00 PM 20.32 68.576 0.313 8.52 11.07 10.52
9/20/2021 1:00:00 PM 20.43 68.774 0.313 8.55 10.7 10.66
9/20/2021 1:15:00 PM 20.55 68.99 0.313 8.57 12.7 10.76
9/20/2021 1:30:00 PM 20.67 69.206 0.313 8.59 11.26 10.87
9/20/2021 1:45:00 PM 20.76 69.368 0.313 8.61 11.74 11.01
9/20/2021 2:00:00 PM 20.88 69.584 0.313 8.63 10.57 11.11
9/20/2021 2:15:00 PM 20.96 69.728 0.312 8.64 11.15 11.26
9/20/2021 2:30:00 PM 21.02 69.836 0.312 8.65 13.43 11.29
9/20/2021 2:45:00 PM 21.08 69.944 0.312 8.65 105.87 11.28
9/20/2021 3:00:00 PM 21.13 70.034 0.313 8.67 22.25 11.35
9/20/2021 3:15:00 PM 21.15 70.07 0.313 8.68 10.89 11.42
9/20/2021 3:30:00 PM 21.18 70.124 0.313 8.69 12.43 11.4
9/20/2021 3:45:00 PM 21.19 70.142 0.313 8.7 9.65 11.44
9/20/2021 4:00:00 PM 21.17 70.106 0.313 8.69 11.04 11.44
9/20/2021 4:15:00 PM 21.16 70.088 0.313 8.7 12.03 11.4
9/20/2021 4:30:00 PM 21.16 70.088 0.313 8.7 10.82 11.42
9/20/2021 4:45:00 PM 21.14 70.052 0.313 8.7 28.03 11.36
9/20/2021 5:00:00 PM 21.13 70.034 0.313 8.71 10.66 11.4
9/20/2021 5:15:00 PM 21.13 70.034 0.313 8.71 14.84 11.38
9/20/2021 5:30:00 PM 21.13 70.034 0.313 8.7 10.93 11.35
9/20/2021 5:45:00 PM 21.12 70.016 0.313 8.7 10.74 11.3
9/20/2021 6:00:00 PM 21.09 69.962 0.314 8.7 10.5 11.26
9/20/2021 6:15:00 PM 21.07 69.926 0.314 8.69 10.05 11.18
9/20/2021 6:30:00 PM 21.04 69.872 0.314 8.69 10.22 11.13
9/20/2021 6:45:00 PM 21.01 69.818 0.314 8.68 10.08 11.09
9/20/2021 7:00:00 PM 20.97 69.746 0.315 8.68 10.27 11.02
9/20/2021 7:15:00 PM 20.93 69.674 0.315 8.67 11.96 10.95
9/20/2021 7:30:00 PM 20.89 69.602 0.315 8.65 15.69 10.84
9/20/2021 7:45:00 PM 20.85 69.53 0.316 8.64 10.92 10.75
9/20/2021 8:00:00 PM 20.8 69.44 0.316 8.63 15.36 10.64
9/20/2021 8:15:00 PM 20.75 69.35 0.317 8.61 12.62 10.52
9/20/2021 8:30:00 PM 20.7 69.26 0.317 8.6 11.16 10.39
9/20/2021 8:45:00 PM 20.65 69.17 0.317 8.59 10.43 10.33
9/20/2021 9:00:00 PM 20.6 69.08 0.318 8.57 10.5 10.25
9/20/2021 9:15:00 PM 20.55 68.99 0.318 8.55 16.37 10.15
9/20/2021 9:30:00 PM 20.51 68.918 0.319 8.54 10.16 10.06
9/20/2021 9:45:00 PM 20.45 68.81 0.319 8.52 10.99 9.97
9/20/2021 10:00:00 PM 20.4 68.72 0.32 8.51 10.3 9.88
9/20/2021 10:15:00 PM 20.35 68.63 0.32 8.49 10.75 9.78
9/20/2021 10:30:00 PM 20.29 68.522 0.321 8.47 12.79 9.69
9/20/2021 10:45:00 PM 20.23 68.414 0.321 8.45 10.41 9.61
9/20/2021 11:00:00 PM 20.18 68.324 0.322 8.44 12.08 9.54
9/20/2021 11:15:00 PM 20.13 68.234 0.322 8.42 22.42 9.46
9/20/2021 11:30:00 PM 20.07 68.126 0.323 8.41 11.04 9.41
9/20/2021 11:45:00 PM 20.01 68.018 0.323 8.4 11.8 9.37
9/21/2021 12:00:00 AM 19.96 67.92799 0.324 8.38 12.88 9.31
9/21/2021 12:15:00 AM 19.92 67.856 0.324 8.37 9.96 9.27
9/21/2021 12:30:00 AM 19.86 67.748 0.324 8.36 10.42 9.22
9/21/2021 12:45:00 AM 19.81 67.658 0.325 8.35 9.81 9.19
9/21/2021 1:00:00 AM 19.77 67.586 0.325 8.35 10.88 9.15
9/21/2021 1:15:00 AM 19.73 67.514 0.325 8.34 12.88 9.12
9/21/2021 1:30:00 AM 19.69 67.442 0.326 8.32 26.77 9.08
9/21/2021 1:45:00 AM 19.64 67.352 0.326 8.32 11.91 9.04
9/21/2021 2:00:00 AM 19.6 67.28 0.326 8.31 13.93 9.01
9/21/2021 2:15:00 AM 19.56 67.208 0.327 8.3 12.63 8.99
9/21/2021 2:30:00 AM 19.52 67.136 0.327 8.29 15.79 8.94
9/21/2021 2:45:00 AM 19.49 67.082 0.327 8.28 16.69 8.91
9/21/2021 3:00:00 AM 19.47 67.046 0.328 8.28 12.04 8.9
9/21/2021 3:15:00 AM 19.44 66.992 0.328 8.27 11.09 8.88
9/21/2021 3:30:00 AM 19.41 66.938 0.328 8.26 12.59 8.84
9/21/2021 3:45:00 AM 19.38 66.884 0.329 8.25 10.97 8.84
9/21/2021 4:00:00 AM 19.35 66.83 0.329 8.24 25.8 8.8
9/21/2021 4:15:00 AM 19.32 66.776 0.329 8.24 14.58 8.79
9/21/2021 4:30:00 AM 19.29 66.722 0.33 8.23 12.51 8.75
9/21/2021 4:45:00 AM 19.26 66.668 0.33 8.23 12.53 8.72
9/21/2021 5:00:00 AM 19.22 66.596 0.33 8.22 10.28 8.71
9/21/2021 5:15:00 AM 19.18 66.524 0.33 8.21 13.02 8.67
9/21/2021 5:30:00 AM 19.15 66.47 0.331 8.2 14.32 8.65
9/21/2021 5:45:00 AM 19.11 66.398 0.331 8.19 13.18 8.63
9/21/2021 6:00:00 AM 19.07 66.326 0.331 8.19 11.85 8.62
9/21/2021 6:15:00 AM 19.04 66.272 0.332 8.18 20.29 8.56
9/21/2021 6:30:00 AM 19.01 66.218 0.332 8.18 12.87 8.56
9/21/2021 6:45:00 AM 18.98 66.164 0.332 8.17 12.12 8.54
9/21/2021 7:00:00 AM 18.95 66.11 0.333 8.17 12.31 8.53
9/21/2021 7:15:00 AM 18.93 66.074 0.333 8.16 12.24 8.5
9/21/2021 7:30:00 AM 18.9 66.02 0.333 8.15 12.24 8.46
9/21/2021 7:45:00 AM 18.89 66.002 0.334 8.15 17.63 8.45
9/21/2021 8:00:00 AM 18.89 66.002 0.334 8.15 33.46 8.49
9/21/2021 8:15:00 AM 18.88 65.984 0.334 8.14 21.74 8.48
9/21/2021 8:30:00 AM 18.89 66.002 0.335 8.14 11.94 8.51
9/21/2021 8:45:00 AM 18.9 66.02 0.335 8.17 11.38 8.54
9/21/2021 9:00:00 AM 18.9 66.02 0.335 8.18 13.62 8.62
9/21/2021 9:15:00 AM 18.93 66.074 0.335 8.2 15.64 8.73
9/21/2021 9:30:00 AM 18.98 66.164 0.335 8.23 9.42 8.86
9/21/2021 9:45:00 AM 19.04 66.272 0.336 8.25 9.67 8.96
9/21/2021 10:00:00 AM 19.08 66.344 0.336 8.27 10.24 9.06
9/21/2021 10:15:00 AM 19.13 66.434 0.336 8.29 12.77 9.19
9/21/2021 10:30:00 AM 19.19 66.542 0.336 8.32 10.83 9.39
9/21/2021 10:45:00 AM 19.23 66.614 0.336 8.36 9.99 9.53
9/21/2021 11:00:00 AM 19.32 66.776 0.336 8.38 10.2 9.7
9/21/2021 11:15:00 AM 19.45 67.01 0.336 8.42 11.28 9.87
9/21/2021 11:30:00 AM 19.62 67.316 0.336 8.44 10.13 10.01
9/21/2021 11:45:00 AM 19.74 67.532 0.336 8.47 9.76 10.18
9/21/2021 12:00:00 PM 19.86 67.748 0.335 8.51 10.34 10.34
9/21/2021 12:15:00 PM 19.97 67.946 0.335 8.52 10.76 10.43
9/21/2021 12:30:00 PM 20.08 68.144 0.335 8.55 10.6 10.58
9/21/2021 12:45:00 PM 20.21 68.378 0.335 8.58 9.85 10.76
9/21/2021 1:00:00 PM 20.31 68.558 0.335 8.61 11.38 10.91
9/21/2021 1:15:00 PM 20.38 68.684 0.335 8.63 10.53 11.04
9/21/2021 1:30:00 PM 20.45 68.81 0.335 8.65 9.05 11.09
9/21/2021 1:45:00 PM 20.49 68.882 0.335 8.67 9.54 11.26
9/21/2021 2:00:00 PM 20.56 69.008 0.335 8.68 8.95 11.32
9/21/2021 2:15:00 PM 20.59 69.062 0.335 8.7 8.29 11.4
9/21/2021 2:30:00 PM 20.62 69.116 0.335 8.71 8.36 11.37
9/21/2021 2:45:00 PM 20.66 69.188 0.335 8.72 8.56 11.45
9/21/2021 3:00:00 PM 20.7 69.26 0.335 8.73 9.26 11.5
9/21/2021 3:15:00 PM 20.77 69.386 0.334 8.75 8.5 11.6
9/21/2021 3:30:00 PM 20.84 69.512 0.334 8.76 10.19 11.69
9/21/2021 3:45:00 PM 20.89 69.602 0.334 8.77 12.94 11.77
9/21/2021 4:00:00 PM 20.95 69.71 0.334 8.78 8.97 11.8
9/21/2021 4:15:00 PM 20.98 69.764 0.334 8.79 9.15 11.87
9/21/2021 4:30:00 PM 21 69.8 0.333 8.81 8.28 11.94
9/21/2021 4:45:00 PM 21.03 69.854 0.333 8.81 8.41 11.95
9/21/2021 5:00:00 PM 21.04 69.872 0.333 8.81 21.87 11.96
9/21/2021 5:15:00 PM 21.03 69.854 0.333 8.81 9.56 11.9
9/21/2021 5:30:00 PM 21.02 69.836 0.333 8.82 7.99 11.9
9/21/2021 5:45:00 PM 21.01 69.818 0.333 8.82 8.94 11.88
9/21/2021 6:00:00 PM 20.99 69.782 0.333 8.82 8.07 11.78
9/21/2021 6:15:00 PM 20.95 69.71 0.333 8.81 7.56 11.74
9/21/2021 6:30:00 PM 20.92 69.656 0.334 8.8 14.72 11.64
9/21/2021 6:45:00 PM 20.88 69.584 0.334 8.8 10.86 11.51
9/21/2021 7:00:00 PM 20.84 69.512 0.334 8.79 9.08 11.41
9/21/2021 7:15:00 PM 20.8 69.44 0.335 8.78 10.59 11.22
9/21/2021 7:30:00 PM 20.76 69.368 0.334 8.77 8.18 11.13
9/21/2021 7:45:00 PM 20.72 69.296 0.335 8.76 9.11 11.01
9/21/2021 8:00:00 PM 20.68 69.224 0.335 8.74 8.99 10.87
9/21/2021 8:15:00 PM 20.64 69.152 0.335 8.73 9.67 10.76
9/21/2021 8:30:00 PM 20.61 69.098 0.335 8.72 10.51 10.64
9/21/2021 8:45:00 PM 20.57 69.026 0.336 8.71 7.78 10.51
9/21/2021 9:00:00 PM 20.54 68.972 0.336 8.69 10.47 10.39
9/21/2021 9:15:00 PM 20.5 68.9 0.336 8.68 7.5 10.27
9/21/2021 9:30:00 PM 20.46 68.828 0.337 8.66 7.33 10.19
9/21/2021 9:45:00 PM 20.43 68.774 0.337 8.65 7.67 10.07
9/21/2021 10:00:00 PM 20.39 68.702 0.337 8.64 7.94 9.99
9/21/2021 10:15:00 PM 20.37 68.666 0.338 8.62 10.45 9.87
9/21/2021 10:30:00 PM 20.34 68.612 0.338 8.61 8.18 9.79
9/21/2021 10:45:00 PM 20.31 68.558 0.338 8.59 8.5 9.69
9/21/2021 11:00:00 PM 20.29 68.522 0.339 8.57 9.24 9.61
9/21/2021 11:15:00 PM 20.26 68.468 0.339 8.56 8.65 9.53
9/21/2021 11:30:00 PM 20.24 68.432 0.339 8.55 8.67 9.46
9/21/2021 11:45:00 PM 20.22 68.396 0.34 8.53 7.35 9.4
9/22/2021 12:00:00 AM 20.19 68.342 0.34 8.52 8.58 9.33
9/22/2021 12:15:00 AM 20.17 68.306 0.34 8.5 7.59 9.28
9/22/2021 12:30:00 AM 20.15 68.27 0.341 8.49 8.55 9.2
9/22/2021 12:45:00 AM 20.12 68.216 0.341 8.48 8.32 9.17
9/22/2021 1:00:00 AM 20.11 68.198 0.341 8.46 9.03 9.12
9/22/2021 1:15:00 AM 20.08 68.144 0.342 8.45 8.77 9.07
9/22/2021 1:30:00 AM 20.06 68.108 0.342 8.44 8.81 9.02
9/22/2021 1:45:00 AM 20.04 68.07201 0.342 8.43 8.45 8.99
9/22/2021 2:00:00 AM 20.02 68.036 0.342 8.42 8.43 8.95
9/22/2021 2:15:00 AM 20 68 0.343 8.41 7.94 8.91
9/22/2021 2:30:00 AM 19.97 67.946 0.343 8.39 8.39 8.88
9/22/2021 2:45:00 AM 19.95 67.91 0.343 8.38 8.25 8.82
9/22/2021 3:00:00 AM 19.93 67.874 0.343 8.37 9.29 8.78
9/22/2021 3:15:00 AM 19.9 67.82 0.343 8.35 17.58 8.74
9/22/2021 3:30:00 AM 19.88 67.784 0.344 8.35 8.47 8.7
9/22/2021 3:45:00 AM 19.85 67.73 0.344 8.34 9.5 8.69
9/22/2021 4:00:00 AM 19.83 67.694 0.344 8.33 8.88 8.66
9/22/2021 4:15:00 AM 19.8 67.64 0.344 8.32 8.86 8.63
9/22/2021 4:30:00 AM 19.77 67.586 0.345 8.3 9.19 8.61
9/22/2021 4:45:00 AM 19.75 67.55 0.345 8.29 9.32 8.57
9/22/2021 5:00:00 AM 19.72 67.496 0.345 8.28 9.14 8.55
9/22/2021 5:15:00 AM 19.69 67.442 0.345 8.27 8.35 8.52
9/22/2021 5:30:00 AM 19.67 67.406 0.346 8.26 7.85 8.5
9/22/2021 5:45:00 AM 19.65 67.37 0.346 8.25 9.54 8.47
9/22/2021 6:00:00 AM 19.62 67.316 0.346 8.24 11.02 8.44
9/22/2021 6:15:00 AM 19.6 67.28 0.346 8.23 13.78 8.4
9/22/2021 6:30:00 AM 19.57 67.226 0.346 8.22 7.8 8.39
9/22/2021 6:45:00 AM 19.55 67.19 0.347 8.21 10.96 8.33
9/22/2021 7:00:00 AM 19.53 67.154 0.347 8.2 9.65 8.32
9/22/2021 7:15:00 AM 19.51 67.118 0.347 8.19 9.06 8.32
9/22/2021 7:30:00 AM 19.49 67.082 0.347 8.18 8.21 8.28
9/22/2021 7:45:00 AM 19.48 67.064 0.347 8.17 9.13 8.27
9/22/2021 8:00:00 AM 19.46 67.028 0.347 8.17 7.58 8.29
9/22/2021 8:15:00 AM 19.45 67.01 0.348 8.16 7.87 8.29
9/22/2021 8:30:00 AM 19.44 66.992 0.348 8.16 8.36 8.3
9/22/2021 8:45:00 AM 19.44 66.992 0.348 8.16 8.28 8.3
9/22/2021 9:00:00 AM 19.44 66.992 0.348 8.16 7.86 8.31
9/22/2021 9:15:00 AM 19.43 66.974 0.348 8.16 9.78 8.35
9/22/2021 9:30:00 AM 19.43 66.974 0.348 8.16 8.68 8.36
9/22/2021 9:45:00 AM 19.43 66.974 0.348 8.16 12.3 8.4
9/22/2021 10:00:00 AM 19.45 67.01 0.348 8.17 8.97 8.42
9/22/2021 10:15:00 AM 19.47 67.046 0.348 8.17 13.32 8.47
9/22/2021 10:30:00 AM 19.5 67.1 0.348 8.18 10.64 8.49
9/22/2021 10:45:00 AM 19.52 67.136 0.348 8.18 10.29 8.55
9/22/2021 11:00:00 AM 19.54 67.172 0.348 8.2 10.57 8.64
9/22/2021 11:15:00 AM 19.56 67.208 0.348 8.21 21.27 8.74
9/22/2021 11:30:00 AM 19.61 67.298 0.348 8.24 12.23 8.87
9/22/2021 11:45:00 AM 19.64 67.352 0.348 8.26 10.27 8.99
9/22/2021 12:00:00 PM 19.7 67.46 0.348 8.29 11.98 9.07
9/22/2021 12:15:00 PM 19.72 67.496 0.348 8.3 9.49 9.18
9/22/2021 12:30:00 PM 19.77 67.586 0.348 8.32 9.04 9.28
9/22/2021 12:45:00 PM 19.85 67.73 0.348 8.34 10.16 9.38
9/22/2021 1:00:00 PM 19.92 67.856 0.348 8.36 10.1 9.5
9/22/2021 1:15:00 PM 19.96 67.92799 0.348 8.37 10.91 9.56
9/22/2021 1:30:00 PM 19.99 67.982 0.347 8.4 8.59 9.67
9/22/2021 1:45:00 PM 20.02 68.036 0.347 8.42 8.88 9.83
9/22/2021 2:00:00 PM 20.06 68.108 0.347 8.45 8.96 9.94
9/22/2021 2:15:00 PM 20.08 68.144 0.347 8.47 9.58 10.02
9/22/2021 2:30:00 PM 20.09 68.162 0.346 8.47 10.62 10
9/22/2021 2:45:00 PM 20.11 68.198 0.346 8.48 9.24 10
9/22/2021 3:00:00 PM 20.13 68.234 0.346 8.47 43.47 9.95
9/22/2021 3:15:00 PM 20.15 68.27 0.346 8.49 14.35 9.99
9/22/2021 3:30:00 PM 20.16 68.288 0.345 8.5 12.4 9.99
9/22/2021 3:45:00 PM 20.17 68.306 0.345 8.51 10.84 10.03
9/22/2021 4:00:00 PM 20.19 68.342 0.345 8.52 8.9 10.1
9/22/2021 4:15:00 PM 20.2 68.36 0.344 8.53 9.4 10.08
9/22/2021 4:30:00 PM 20.22 68.396 0.344 8.54 8.49 10.12
9/22/2021 4:45:00 PM 20.24 68.432 0.344 8.54 9.23 10.1
9/22/2021 5:00:00 PM 20.25 68.45 0.344 8.55 8.85 10.09
9/22/2021 5:15:00 PM 20.25 68.45 0.344 8.54 8.42 10.03
9/22/2021 5:30:00 PM 20.25 68.45 0.344 8.54 8.91 10.03
9/22/2021 5:45:00 PM 20.25 68.45 0.344 8.54 8.87 9.99
9/22/2021 6:00:00 PM 20.25 68.45 0.343 8.54 8.49 9.99
9/22/2021 6:15:00 PM 20.25 68.45 0.343 8.54 10.86 9.94
9/22/2021 6:30:00 PM 20.25 68.45 0.343 8.54 9.25 9.91
9/22/2021 6:45:00 PM 20.24 68.432 0.343 8.53 10.05 9.86
9/22/2021 7:00:00 PM 20.23 68.414 0.343 8.52 9.26 9.77
9/22/2021 7:15:00 PM 20.23 68.414 0.343 8.51 9.07 9.71
9/22/2021 7:30:00 PM 20.22 68.396 0.343 8.5 7.92 9.61
9/22/2021 7:45:00 PM 20.21 68.378 0.343 8.49 8.08 9.54
9/22/2021 8:00:00 PM 20.21 68.378 0.343 8.48 8.99 9.48
9/22/2021 8:15:00 PM 20.2 68.36 0.343 8.47 9.85 9.43
9/22/2021 8:30:00 PM 20.19 68.342 0.343 8.46 8.47 9.36
9/22/2021 8:45:00 PM 20.19 68.342 0.343 8.45 8.02 9.29
9/22/2021 9:00:00 PM 20.18 68.324 0.344 8.44 10.1 9.22
9/22/2021 9:15:00 PM 20.18 68.324 0.343 8.42 7.88 9.15
9/22/2021 9:30:00 PM 20.17 68.306 0.343 8.4 8.6 9.09
9/22/2021 9:45:00 PM 20.16 68.288 0.344 8.39 7.63 9.02
9/22/2021 10:00:00 PM 20.16 68.288 0.344 8.37 7.51 8.97
9/22/2021 10:15:00 PM 20.15 68.27 0.343 8.36 7.88 8.88
9/22/2021 10:30:00 PM 20.15 68.27 0.343 8.34 10.01 8.85
9/22/2021 10:45:00 PM 20.14 68.252 0.343 8.33 65.43 8.8
9/22/2021 11:00:00 PM 20.14 68.252 0.343 8.31 8.58 8.73
9/22/2021 11:15:00 PM 20.13 68.234 0.343 8.3 8.38 8.69
9/22/2021 11:30:00 PM 20.13 68.234 0.343 8.29 8.99 8.66
9/22/2021 11:45:00 PM 20.12 68.216 0.343 8.27 11.96 8.6
9/23/2021 12:00:00 AM 20.12 68.216 0.343 8.26 8.21 8.57
9/23/2021 12:15:00 AM 20.11 68.198 0.343 8.24 11.56 8.52
9/23/2021 12:30:00 AM 20.1 68.18 0.343 8.23 8.86 8.5
9/23/2021 12:45:00 AM 20.1 68.18 0.343 8.22 8.25 8.46
9/23/2021 1:00:00 AM 20.09 68.162 0.344 8.21 10.12 8.45
9/23/2021 1:15:00 AM 20.08 68.144 0.344 8.19 8.79 8.4
9/23/2021 1:30:00 AM 20.07 68.126 0.343 8.14 15.31 8.32
9/23/2021 1:45:00 AM 20.06 68.108 0.344 8.16 8.58 8.34
9/23/2021 2:00:00 AM 20.05 68.09 0.344 8.15 9.07 8.32
9/23/2021 2:15:00 AM 20.04 68.07201 0.344 8.13 8.09 8.25
9/23/2021 2:30:00 AM 20.02 68.036 0.344 8.12 9.28 8.25
9/23/2021 2:45:00 AM 20.01 68.018 0.344 8.09 8.26 8.23
9/23/2021 3:00:00 AM 20 68 0.344 8.1 12.74 8.21
9/23/2021 3:15:00 AM 19.99 67.982 0.344 8.08 8.14 8.17
9/23/2021 3:30:00 AM 19.98 67.964 0.345 8.08 8.78 8.17
9/23/2021 3:45:00 AM 19.97 67.946 0.345 8.06 8.29 8.15
9/23/2021 4:00:00 AM 19.96 67.92799 0.345 8.05 11.92 8.12
9/23/2021 4:15:00 AM 19.95 67.91 0.345 8.05 7.35 8.09
9/23/2021 4:30:00 AM 19.94 67.892 0.345 8.03 9.75 8.09
9/23/2021 4:45:00 AM 19.93 67.874 0.345 8.03 9.64 8.07
9/23/2021 5:00:00 AM 19.92 67.856 0.345 8.01 8.97 8.05
9/23/2021 5:15:00 AM 19.91 67.838 0.345 8.01 8.81 7.96
9/23/2021 5:30:00 AM 19.89 67.802 0.345 8 9.24 8.02
9/23/2021 5:45:00 AM 19.89 67.802 0.346 7.99 8.44 7.99
9/23/2021 6:00:00 AM 19.87 67.766 0.346 7.98 8.97 7.97
9/23/2021 6:15:00 AM 19.86 67.748 0.346 7.97 9.42 7.94
9/23/2021 6:30:00 AM 19.85 67.73 0.346 7.96 8.74 7.93
9/23/2021 6:45:00 AM 19.84 67.712 0.345 7.96 11.01 7.94
9/23/2021 7:00:00 AM 19.83 67.694 0.346 7.95 8.6 7.9
9/23/2021 7:15:00 AM 19.82 67.676 0.345 7.94 10.51 7.9
9/23/2021 7:30:00 AM 19.81 67.658 0.345 7.93 11.29 7.87
9/23/2021 7:45:00 AM 19.79 67.622 0.345 7.93 9.37 7.88
9/23/2021 8:00:00 AM 19.75 67.55 0.343 7.93 16.29 7.9
9/23/2021 8:15:00 AM 19.71 67.478 0.341 7.93 17.58 7.95
9/23/2021 8:30:00 AM 19.67 67.406 0.34 7.93 17.07 7.97
9/23/2021 8:45:00 AM 19.65 67.37 0.34 7.92 17.84 7.95
9/23/2021 9:00:00 AM 19.59 67.262 0.34 7.9 48 7.95
9/23/2021 9:15:00 AM 19.46 67.028 0.337 7.89 50.96 7.97
9/23/2021 9:30:00 AM 19.39 66.902 0.334 7.89 44.04 8.04
9/23/2021 9:45:00 AM 19.31 66.758 0.331 7.88 49.88 8.04
9/23/2021 10:00:00 AM 19.16 66.488 0.323 7.85 81.85 8.17
9/23/2021 10:15:00 AM 19.04 66.272 0.316 7.82 97.76 8.22
9/23/2021 10:30:00 AM 18.94 66.092 0.308 7.8 98.83 8.24
9/23/2021 10:45:00 AM 18.85 65.93 0.302 7.77 130.67 8.32
9/23/2021 11:00:00 AM 18.78 65.804 0.297 7.76 123.74 8.34
9/23/2021 11:15:00 AM 18.75 65.75 0.294 7.76 119.66 8.34
9/23/2021 11:30:00 AM 18.73 65.714 0.292 7.75 89.37 8.36
9/23/2021 11:45:00 AM 18.65 65.57 0.286 7.74 108 8.38
9/23/2021 12:00:00 PM 18.62 65.516 0.285 7.73 99.92 8.4
9/23/2021 12:15:00 PM 18.62 65.516 0.285 7.73 107.33 8.43
9/23/2021 12:30:00 PM 18.64 65.552 0.285 7.75 85.28 8.44
9/23/2021 12:45:00 PM 18.65 65.57 0.285 7.76 79.76 8.47
9/23/2021 1:00:00 PM 18.71 65.67799 0.288 7.78 65.14 8.49
9/23/2021 1:15:00 PM 18.8 65.84 0.289 7.8 64.17 8.55
9/23/2021 1:30:00 PM 18.79 65.82201 0.285 7.79 76.95 8.56
9/23/2021 1:45:00 PM 18.78 65.804 0.279 7.79 61.46 8.62
9/23/2021 2:00:00 PM 18.8 65.84 0.274 7.81 38.15 8.71
9/23/2021 2:15:00 PM 18.79 65.82201 0.266 7.82 48.53 8.8
9/23/2021 2:30:00 PM 18.85 65.93 0.264 7.85 54.39 8.86
9/23/2021 2:45:00 PM 18.94 66.092 0.266 7.88 42.37 8.9
9/23/2021 3:00:00 PM 19.08 66.344 0.272 7.94 36.61 8.98
9/23/2021 3:15:00 PM 19.27 66.686 0.282 8.01 61.18 9.08
9/23/2021 3:30:00 PM 19.45 67.01 0.295 8.05 57.8 9.07
9/23/2021 3:45:00 PM 19.6 67.28 0.306 8.05 69.6 8.97
9/23/2021 4:00:00 PM 19.66 67.388 0.301 7.98 149.97 8.72
9/23/2021 4:15:00 PM 19.51 67.118 0.299 7.82 176.11 8.47
9/23/2021 4:30:00 PM 19.4 66.92 0.29 7.77 240.87 8.33
9/23/2021 4:45:00 PM 19.32 66.776 0.283 7.73 237.21 8.23
9/23/2021 5:00:00 PM 19.26 66.668 0.276 7.69 348.74 8.14
9/23/2021 5:15:00 PM 19.13 66.434 0.262 7.66 449.94 8.09
9/23/2021 5:30:00 PM 18.95 66.11 0.243 7.62 634.58 8.06
9/23/2021 5:45:00 PM 18.75 65.75 0.221 7.6 882.62 8.06
9/23/2021 6:00:00 PM 18.58 65.444 0.199 7.57 900.29 8.09
9/23/2021 6:15:00 PM 18.45 65.21 0.173 7.52 800.9 8.14
9/23/2021 6:30:00 PM 18.35 65.03 0.152 7.49 1013.09 8.18
9/23/2021 6:45:00 PM 18.29 64.922 0.148 7.46 1023.93 8.22
9/23/2021 7:00:00 PM 18.26 64.868 0.165 7.45 855.15 8.23
9/23/2021 7:15:00 PM 18.26 64.868 0.164 7.45 1071.04 8.26
9/23/2021 7:30:00 PM 18.27 64.886 0.164 7.45 787.37 8.28
9/23/2021 7:45:00 PM 18.27 64.886 0.163 7.46 703.43 8.29
9/23/2021 8:00:00 PM 18.27 64.886 0.163 7.46 1070.67 8.3
9/23/2021 8:15:00 PM 18.27 64.886 0.162 7.46 885.1 8.31
9/23/2021 8:30:00 PM 18.27 64.886 0.162 7.46 699.81 8.32
9/23/2021 8:45:00 PM 18.27 64.886 0.163 7.46 739.8 8.32
9/23/2021 9:00:00 PM 18.28 64.904 0.162 7.46 655.73 8.32
9/23/2021 9:15:00 PM 18.28 64.904 0.16 7.45 642.79 8.3
9/23/2021 9:30:00 PM 18.29 64.922 0.16 7.45 587.67 8.3
9/23/2021 9:45:00 PM 18.3 64.94 0.167 7.45 646.67 8.3
9/23/2021 10:00:00 PM 18.3 64.94 0.168 7.45 577.18 8.28
9/23/2021 10:15:00 PM 18.29 64.922 0.167 7.46 698.26 8.26
9/23/2021 10:30:00 PM 18.29 64.922 0.168 7.47 604.47 8.25
9/23/2021 10:45:00 PM 18.28 64.904 0.164 7.48 630.05 8.24
9/23/2021 11:00:00 PM 18.27 64.886 0.166 7.48 723.81 8.24
9/23/2021 11:15:00 PM 18.26 64.868 0.154 7.48 611.44 8.24
9/23/2021 11:30:00 PM 18.25 64.85 0.156 7.49 654.31 8.25
9/23/2021 11:45:00 PM 18.24 64.832 0.148 7.5 911.1 8.25
9/24/2021 12:00:00 AM 18.22 64.796 0.148 7.51 584.36 8.25
9/24/2021 12:15:00 AM 18.2 64.76 0.136 7.5 581.81 8.26
9/24/2021 12:30:00 AM 18.19 64.742 0.138 7.51 723.54 8.28
9/24/2021 12:45:00 AM 18.18 64.724 0.131 7.51 637.89 8.29
9/24/2021 1:00:00 AM 18.16 64.688 0.125 7.52 769.58 8.3
9/24/2021 1:15:00 AM 18.14 64.652 0.134 7.52 743.53 8.31
9/24/2021 1:30:00 AM 18.13 64.634 0.146 7.53 792.75 8.32
9/24/2021 1:45:00 AM 18.11 64.598 0.148 7.53 657.32 8.33
9/24/2021 2:00:00 AM 18.1 64.58 0.15 7.53 806.68 8.33
9/24/2021 2:15:00 AM 18.08 64.544 0.15 7.52 747.95 8.35
9/24/2021 2:30:00 AM 18.06 64.508 0.15 7.52 870.15 8.36
9/24/2021 2:45:00 AM 18.05 64.49 0.149 7.52 687.62 8.37
9/24/2021 3:00:00 AM 18.03 64.454 0.149 7.52 889.53 8.38
9/24/2021 3:15:00 AM 18.02 64.436 0.149 7.51 745.4 8.39
9/24/2021 3:30:00 AM 18.01 64.418 0.149 7.5 622.11 8.4
9/24/2021 3:45:00 AM 18 64.4 0.149 7.5 726.47 8.4
9/24/2021 4:00:00 AM 17.99 64.382 0.112 7.49 668.94 8.41
9/24/2021 4:15:00 AM 17.98 64.364 0.057 7.49 683.73 8.41
9/24/2021 4:30:00 AM 17.97 64.346 0.148 7.48 581.91 8.42
9/24/2021 4:45:00 AM 17.95 64.31 0.149 7.48 541.25 8.42
9/24/2021 5:00:00 AM 17.94 64.292 0.145 7.47 517.79 8.43
9/24/2021 5:15:00 AM 17.92 64.256 0.15 7.46 757.07 8.44
9/24/2021 5:30:00 AM 17.91 64.238 0.15 7.45 582.2 8.44
9/24/2021 5:45:00 AM 17.89 64.202 0.149 7.44 499.98 8.45
9/24/2021 6:00:00 AM 17.87 64.166 0.151 7.43 637.9 8.45
9/24/2021 6:15:00 AM 17.84 64.112 0.151 7.42 455.33 8.46
9/24/2021 6:30:00 AM 17.81 64.058 0.15 7.41 451.43 8.47
9/24/2021 6:45:00 AM 17.78 64.004 0.149 7.4 708.96 8.47
9/24/2021 7:00:00 AM 17.75 63.95 0.152 7.39 556.15 8.48
9/24/2021 7:15:00 AM 17.71 63.878 0.153 7.38 394.46 8.49
9/24/2021 7:30:00 AM 17.68 63.824 0.151 7.36 413.03 8.5
9/24/2021 7:45:00 AM 17.65 63.77 0.132 7.35 573.51 8.51
9/24/2021 8:00:00 AM 17.63 63.734 0.154 7.35 400.67 8.51
9/24/2021 8:15:00 AM 17.6 63.68 0.154 7.34 380.49 8.52
9/24/2021 8:30:00 AM 17.58 63.644 0.155 7.33 440.59 8.54
9/24/2021 8:45:00 AM 17.56 63.608 0.155 7.33 365.14 8.55
9/24/2021 9:00:00 AM 17.55 63.59 0.156 7.33 457.04 8.56
9/24/2021 9:15:00 AM 17.55 63.59 0.156 7.34 362.15 8.57
9/24/2021 9:30:00 AM 17.54 63.572 0.157 7.34 329.67 8.58
9/24/2021 9:45:00 AM 17.54 63.572 0.157 7.34 361.34 8.59
9/24/2021 10:00:00 AM 17.55 63.59 0.157 7.33 295.32 8.61
9/24/2021 10:15:00 AM 17.55 63.59 0.157 7.34 374.85 8.62
9/24/2021 10:30:00 AM 17.56 63.608 0.158 7.34 274.24 8.63
9/24/2021 10:45:00 AM 17.58 63.644 0.158 7.35 329.48 8.65
9/24/2021 11:00:00 AM 17.57 63.626 0.158 7.35 419.74 8.66
9/24/2021 11:15:00 AM 17.57 63.626 0.159 7.35 254.97 8.67
9/24/2021 11:30:00 AM 17.57 63.626 0.159 7.35 399.3 8.68
9/24/2021 11:45:00 AM 17.61 63.698 0.16 7.35 302.92 8.69
9/24/2021 12:00:00 PM 17.64 63.752 0.16 7.35 327.23 8.71
9/24/2021 12:15:00 PM 17.66 63.788 0.16 7.35 302.62 8.72
9/24/2021 12:30:00 PM 17.68 63.824 0.16 7.36 300.35 8.73
9/24/2021 12:45:00 PM 17.7 63.86 0.16 7.36 276.36 8.74
9/24/2021 1:00:00 PM 17.73 63.914 0.16 7.36 238.42 8.75
9/24/2021 1:15:00 PM 17.75 63.95 0.16 7.37 232.56 8.76
9/24/2021 1:30:00 PM 17.8 64.04 0.16 7.37 231.53 8.76
9/24/2021 1:45:00 PM 17.83 64.094 0.16 7.37 318.56 8.77
9/24/2021 2:00:00 PM 17.85 64.13 0.16 7.37 350.41 8.77
9/24/2021 2:15:00 PM 17.85 64.13 0.161 7.37 225.31 8.78
9/24/2021 2:30:00 PM 17.87 64.166 0.16 7.37 261.45 8.79
9/24/2021 2:45:00 PM 17.89 64.202 0.158 7.38 265.12 8.79
9/24/2021 3:00:00 PM 17.92 64.256 0.161 7.38 261.73 8.8
9/24/2021 3:15:00 PM 17.95 64.31 0.161 7.37 203.73 8.8
9/24/2021 3:30:00 PM 17.97 64.346 0.157 7.38 226.66 8.8
9/24/2021 3:45:00 PM 17.99 64.382 0.129 7.38 246.42 8.8
9/24/2021 4:00:00 PM 18 64.4 0.145 7.38 203.96 8.81
9/24/2021 4:15:00 PM 18.02 64.436 0.161 7.38 324.65 8.81
9/24/2021 4:30:00 PM 18.04 64.472 0.161 7.38 230.39 8.82
9/24/2021 4:45:00 PM 18.05 64.49 0.161 7.38 350.27 8.82
9/24/2021 5:00:00 PM 18.07 64.526 0.161 7.38 263.93 8.82
9/24/2021 5:15:00 PM 18.07 64.526 0.161 7.37 238.26 8.83
9/24/2021 5:30:00 PM 18.07 64.526 0.161 7.38 198.54 8.83
9/24/2021 5:45:00 PM 18.06 64.508 0.161 7.38 231.71 8.83
9/24/2021 6:00:00 PM 18.04 64.472 0.161 7.38 222.15 8.84
9/24/2021 6:15:00 PM 18.03 64.454 0.162 7.38 238.88 8.83
9/24/2021 6:30:00 PM 18.02 64.436 0.162 7.38 223.82 8.84
9/24/2021 6:45:00 PM 18.01 64.418 0.162 7.38 239.28 8.84
9/24/2021 7:00:00 PM 18 64.4 0.162 7.38 235.53 8.84
9/24/2021 7:15:00 PM 17.99 64.382 0.162 7.38 205.93 8.84
9/24/2021 7:30:00 PM 17.98 64.364 0.158 7.37 235.44 8.85
9/24/2021 7:45:00 PM 17.97 64.346 0.137 7.38 222.31 8.85
9/24/2021 8:00:00 PM 17.96 64.328 0.139 7.38 220.96 8.85
9/24/2021 8:15:00 PM 17.96 64.328 0.138 7.38 211.71 8.86
9/24/2021 8:30:00 PM 17.96 64.328 0.138 7.39 191.22 8.86
9/24/2021 8:45:00 PM 17.96 64.328 0.138 7.39 257.5 8.85
9/24/2021 9:00:00 PM 17.96 64.328 0.11 7.39 250.84 8.86
9/24/2021 9:15:00 PM 17.96 64.328 0.121 7.39 230.03 8.86
9/24/2021 9:30:00 PM 17.95 64.31 0.125 7.4 200.56 8.86
9/24/2021 9:45:00 PM 17.95 64.31 0.121 7.4 233.94 8.87
9/24/2021 10:00:00 PM 17.94 64.292 0.118 7.41 229.33 8.86
9/24/2021 10:15:00 PM 17.93 64.274 0.118 7.4 215.94 8.86
9/24/2021 10:30:00 PM 17.92 64.256 0.119 7.41 177.38 8.86
9/24/2021 10:45:00 PM 17.91 64.238 0.119 7.4 237.49 8.86
9/24/2021 11:00:00 PM 17.89 64.202 0.127 7.41 240.85 8.86
9/24/2021 11:15:00 PM 17.87 64.166 0.105 7.42 229.64 8.84
9/24/2021 11:30:00 PM 17.84 64.112 0.099 7.42 183.96 8.84
9/24/2021 11:45:00 PM 17.81 64.058 0.11 7.42 217.34 8.85
9/25/2021 12:00:00 AM 17.79 64.022 0.131 7.42 193.94 8.85
9/25/2021 12:15:00 AM 17.76 63.968 0.14 7.42 338.42 8.84
9/25/2021 12:30:00 AM 17.73 63.914 0.147 7.41 272.22 8.85
9/25/2021 12:45:00 AM 17.7 63.86 0.16 7.42 212.49 8.85
9/25/2021 1:00:00 AM 17.66 63.788 0.168 7.43 224.31 8.85
9/25/2021 1:15:00 AM 17.63 63.734 0.168 7.43 207.72 8.85
9/25/2021 1:30:00 AM 17.59 63.662 0.168 7.43 246.45 8.85
9/25/2021 1:45:00 AM 17.56 63.608 0.169 7.43 178.53 8.86
9/25/2021 2:00:00 AM 17.53 63.554 0.163 7.43 221.47 8.85
9/25/2021 2:15:00 AM 17.5 63.5 0.17 7.43 211.25 8.86
9/25/2021 2:30:00 AM 17.48 63.464 0.17 7.43 229.16 8.86
9/25/2021 2:45:00 AM 17.45 63.41 0.168 7.43 228.04 8.86
9/25/2021 3:00:00 AM 17.42 63.356 0.17 7.43 218.47 8.86
9/25/2021 3:15:00 AM 17.39 63.302 0.166 7.44 221.51 8.87
9/25/2021 3:30:00 AM 17.37 63.266 0.166 7.43 192.09 8.86
9/25/2021 3:45:00 AM 17.35 63.23 0.169 7.44 158.67 8.87
9/25/2021 4:00:00 AM 17.32 63.176 0.172 7.43 177.37 8.87
9/25/2021 4:15:00 AM 17.3 63.14 0.172 7.44 160.73 8.87
9/25/2021 4:30:00 AM 17.28 63.104 0.173 7.44 186.61 8.87
9/25/2021 4:45:00 AM 17.26 63.068 0.173 7.44 241.55 8.87
9/25/2021 5:00:00 AM 17.23 63.014 0.172 7.43 191.17 8.88
9/25/2021 5:15:00 AM 17.19 62.942 0.172 7.44 154.41 8.88
9/25/2021 5:30:00 AM 17.16 62.888 0.169 7.44 135.85 8.89
9/25/2021 5:45:00 AM 17.14 62.852 0.17 7.43 175.35 8.89
9/25/2021 6:00:00 AM 17.11 62.798 0.171 7.43 175.34 8.9
9/25/2021 6:15:00 AM 17.08 62.744 0.171 7.44 243.8 8.9
9/25/2021 6:30:00 AM 17.05 62.69 0.174 7.43 196.44 8.91
9/25/2021 6:45:00 AM 17.03 62.654 0.174 7.44 177.28 8.91
9/25/2021 7:00:00 AM 17 62.6 0.177 7.43 129.48 8.92
9/25/2021 7:15:00 AM 16.97 62.546 0.175 7.43 189.54 8.92
9/25/2021 7:30:00 AM 16.94 62.492 0.175 7.44 177.13 8.93
9/25/2021 7:45:00 AM 16.92 62.456 0.175 7.44 171.36 8.93
9/25/2021 8:00:00 AM 16.9 62.42 0.175 7.44 188.97 8.94
9/25/2021 8:15:00 AM 16.88 62.384 0.175 7.44 120.95 8.95
9/25/2021 8:30:00 AM 16.87 62.366 0.175 7.44 165.38 8.95
9/25/2021 8:45:00 AM 16.87 62.366 0.196 7.45 166.09 8.94
9/25/2021 9:00:00 AM 16.86 62.348 0.19 7.45 120.04 8.96
9/25/2021 9:15:00 AM 16.86 62.348 0.186 7.45 249.22 8.97
9/25/2021 9:30:00 AM 16.86 62.348 0.185 7.45 157.19 8.97
9/25/2021 9:45:00 AM 16.87 62.366 0.184 7.46 136.61 8.97
9/25/2021 10:00:00 AM 16.89 62.402 0.183 7.46 113.4 8.98
9/25/2021 10:15:00 AM 16.92 62.456 0.182 7.46 157.62 8.98
9/25/2021 10:30:00 AM 16.95 62.51 0.183 7.46 130.3 8.98
9/25/2021 10:45:00 AM 16.99 62.582 0.185 7.47 184.52 8.98
9/25/2021 11:00:00 AM 17.03 62.654 0.186 7.46 194.47 8.98
9/25/2021 11:15:00 AM 17.06 62.708 0.189 7.46 181.44 8.98
9/25/2021 11:30:00 AM 17.1 62.78 0.189 7.47 129.73 8.99
9/25/2021 11:45:00 AM 17.13 62.834 0.189 7.47 132.79 8.99
9/25/2021 12:00:00 PM 17.18 62.924 0.189 7.47 138.93 8.99
9/25/2021 12:15:00 PM 17.22 62.996 0.189 7.47 143.17 8.98
9/25/2021 12:30:00 PM 17.27 63.086 0.19 7.48 131.66 8.99
9/25/2021 12:45:00 PM 17.31 63.158 0.19 7.47 131.4 8.98
9/25/2021 1:00:00 PM 17.36 63.248 0.187 7.47 164.53 8.98
9/25/2021 1:15:00 PM 17.4 63.32 0.191 7.48 148.07 8.99
9/25/2021 1:30:00 PM 17.45 63.41 0.192 7.47 132.2 8.99
9/25/2021 1:45:00 PM 17.5 63.5 0.192 7.48 196.7 8.98
9/25/2021 2:00:00 PM 17.54 63.572 0.192 7.48 121.53 8.99
9/25/2021 2:15:00 PM 17.59 63.662 0.192 7.48 129.38 8.98
9/25/2021 2:30:00 PM 17.63 63.734 0.188 7.48 142.6 8.98
9/25/2021 2:45:00 PM 17.68 63.824 0.188 7.48 162.09 8.98
9/25/2021 3:00:00 PM 17.72 63.896 0.187 7.48 120.81 8.98
9/25/2021 3:15:00 PM 17.76 63.968 0.189 7.49 149.29 8.98
9/25/2021 3:30:00 PM 17.81 64.058 0.179 7.49 161.34 8.98
9/25/2021 3:45:00 PM 17.85 64.13 0.187 7.49 160.63 8.97
9/25/2021 4:00:00 PM 17.9 64.22 0.186 7.49 141.74 8.97
9/25/2021 4:15:00 PM 17.95 64.31 0.184 7.49 111.93 8.96
9/25/2021 4:30:00 PM 18 64.4 0.179 7.5 168.58 8.97
9/25/2021 4:45:00 PM 18.03 64.454 0.18 7.49 144.71 8.96
9/25/2021 5:00:00 PM 18.05 64.49 0.181 7.49 150.07 8.96
9/25/2021 5:15:00 PM 18.06 64.508 0.181 7.5 110.7 8.96
9/25/2021 5:30:00 PM 18.07 64.526 0.185 7.49 139.78 8.96
9/25/2021 5:45:00 PM 18.07 64.526 0.179 7.5 130.21 8.96
9/25/2021 6:00:00 PM 18.08 64.544 0.183 7.5 192.24 8.96
9/25/2021 6:15:00 PM 18.09 64.562 0.191 7.5 98.37 8.96
9/25/2021 6:30:00 PM 18.09 64.562 0.195 7.5 129.84 8.95
9/25/2021 6:45:00 PM 18.09 64.562 0.183 7.5 133.36 8.95
9/25/2021 7:00:00 PM 18.1 64.58 0.188 7.49 124.72 8.95
9/25/2021 7:15:00 PM 18.09 64.562 0.185 7.49 143.45 8.94
9/25/2021 7:30:00 PM 18.09 64.562 0.208 7.49 120.45 8.94
9/25/2021 7:45:00 PM 18.09 64.562 0.199 7.5 130.2 8.93
9/25/2021 8:00:00 PM 18.08 64.544 0.188 7.5 123.68 8.94
9/25/2021 8:15:00 PM 18.08 64.544 0.191 7.5 127.3 8.92
9/25/2021 8:30:00 PM 18.07 64.526 0.196 7.49 115.25 8.92
9/25/2021 8:45:00 PM 18.06 64.508 0.196 7.5 162.56 8.92
9/25/2021 9:00:00 PM 18.05 64.49 0.199 7.5 169.9 8.92
9/25/2021 9:15:00 PM 18.05 64.49 0.2 7.51 108.35 8.91
9/25/2021 9:30:00 PM 18.04 64.472 0.2 7.5 104.79 8.92
9/25/2021 9:45:00 PM 18.03 64.454 0.2 7.5 114.38 8.92
9/25/2021 10:00:00 PM 18.02 64.436 0.2 7.51 122.38 8.92
9/25/2021 10:15:00 PM 18.01 64.418 0.201 7.51 131.63 8.91
9/25/2021 10:30:00 PM 17.99 64.382 0.201 7.51 123.45 8.91
9/25/2021 10:45:00 PM 17.98 64.364 0.201 7.51 136.4 8.91
9/25/2021 11:00:00 PM 17.97 64.346 0.202 7.51 135.57 8.91
9/25/2021 11:15:00 PM 17.96 64.328 0.202 7.51 154.48 8.91
9/25/2021 11:30:00 PM 17.94 64.292 0.203 7.51 123.59 8.9
9/25/2021 11:45:00 PM 17.93 64.274 0.204 7.51 121.65 8.9
9/26/2021 12:00:00 AM 17.92 64.256 0.205 7.52 100.16 8.89
9/26/2021 12:15:00 AM 17.91 64.238 0.205 7.52 101.51 8.89
9/26/2021 12:30:00 AM 17.89 64.202 0.206 7.52 89 8.89
9/26/2021 12:45:00 AM 17.88 64.184 0.207 7.52 90.09 8.88
9/26/2021 1:00:00 AM 17.86 64.148 0.207 7.53 143.6 8.88
9/26/2021 1:15:00 AM 17.84 64.112 0.208 7.53 87.58 8.87
9/26/2021 1:30:00 AM 17.83 64.094 0.193 7.53 79.3 8.87
9/26/2021 1:45:00 AM 17.81 64.058 0.195 7.53 85.09 8.86
9/26/2021 2:00:00 AM 17.79 64.022 0.195 7.53 115.22 8.84
9/26/2021 2:15:00 AM 17.78 64.004 0.196 7.53 97.38 8.86
9/26/2021 2:30:00 AM 17.76 63.968 0.199 7.53 102.73 8.85
9/26/2021 2:45:00 AM 17.74 63.932 0.197 7.53 92.07 8.84
9/26/2021 3:00:00 AM 17.73 63.914 0.203 7.54 86.02 8.84
9/26/2021 3:15:00 AM 17.71 63.878 0.203 7.54 80.04 8.83
9/26/2021 3:30:00 AM 17.68 63.824 0.169 7.53 100.14 8.83
9/26/2021 3:45:00 AM 17.66 63.788 0.17 7.54 78.77 8.82
9/26/2021 4:00:00 AM 17.63 63.734 0.17 7.53 87.85 8.81
9/26/2021 4:15:00 AM 17.6 63.68 0.17 7.53 72.28 8.82
9/26/2021 4:30:00 AM 17.57 63.626 0.17 7.53 96.11 8.82
9/26/2021 4:45:00 AM 17.54 63.572 0.172 7.53 99.57 8.81
9/26/2021 5:00:00 AM 17.51 63.518 0.173 7.53 90.07 8.81
9/26/2021 5:15:00 AM 17.47 63.446 0.174 7.53 86.92 8.81
9/26/2021 5:30:00 AM 17.43 63.374 0.175 7.53 85.61 8.81
9/26/2021 5:45:00 AM 17.4 63.32 0.175 7.53 71.67 8.81
9/26/2021 6:00:00 AM 17.37 63.266 0.176 7.53 74.06 8.81
9/26/2021 6:15:00 AM 17.33 63.194 0.177 7.53 110.01 8.81
9/26/2021 6:30:00 AM 17.3 63.14 0.177 7.53 90.45 8.81
9/26/2021 6:45:00 AM 17.26 63.068 0.192 7.53 62.47 8.81
9/26/2021 7:00:00 AM 17.22 62.996 0.177 7.54 78.71 8.82
9/26/2021 7:15:00 AM 17.18 62.924 0.198 7.53 76 8.82
9/26/2021 7:30:00 AM 17.15 62.87 0.198 7.53 85.11 8.82
9/26/2021 7:45:00 AM 17.11 62.798 0.199 7.54 72.86 8.83
9/26/2021 8:00:00 AM 17.08 62.744 0.192 7.54 79.39 8.83
9/26/2021 8:15:00 AM 17.06 62.708 0.202 7.53 61.52 8.84
9/26/2021 8:30:00 AM 17.05 62.69 0.202 7.54 66.59 8.83
9/26/2021 8:45:00 AM 17.03 62.654 0.203 7.54 65.34 8.85
9/26/2021 9:00:00 AM 17.02 62.636 0.202 7.54 71.96 8.85
9/26/2021 9:15:00 AM 17.03 62.654 0.2 7.54 67.04 8.86
9/26/2021 9:30:00 AM 17.04 62.672 0.202 7.54 86.31 8.87
9/26/2021 9:45:00 AM 17.05 62.69 0.204 7.54 84.11 8.88
9/26/2021 10:00:00 AM 17.08 62.744 0.203 7.54 68.45 8.89
9/26/2021 10:15:00 AM 17.1 62.78 0.202 7.55 76.09 8.9
9/26/2021 10:30:00 AM 17.12 62.816 0.203 7.55 83.8 8.91
9/26/2021 10:45:00 AM 17.14 62.852 0.203 7.55 60.63 8.91
9/26/2021 11:00:00 AM 17.17 62.906 0.205 7.55 143.41 8.93
9/26/2021 11:15:00 AM 17.21 62.978 0.199 7.55 73.75 8.93
9/26/2021 11:30:00 AM 17.24 63.032 0.202 7.55 75.27 8.93
9/26/2021 11:45:00 AM 17.28 63.104 0.206 7.56 89.24 8.95
9/26/2021 12:00:00 PM 17.32 63.176 0.206 7.55 76.56 8.95
9/26/2021 12:15:00 PM 17.36 63.248 0.202 7.56 62.95 8.96
9/26/2021 12:30:00 PM 17.41 63.338 0.208 7.56 74.83 8.96
9/26/2021 12:45:00 PM 17.43 63.374 0.211 7.56 72.36 8.96
9/26/2021 1:00:00 PM 17.43 63.374 0.212 7.56 64.88 8.97
9/26/2021 1:15:00 PM 17.43 63.374 0.212 7.57 61.6 8.97
9/26/2021 1:30:00 PM 17.45 63.41 0.212 7.56 68.78 8.98
9/26/2021 1:45:00 PM 17.46 63.428 0.211 7.57 79.01 8.98
9/26/2021 2:00:00 PM 17.46 63.428 0.207 7.57 78.66 8.98
9/26/2021 2:15:00 PM 17.49 63.482 0.212 7.57 68.19 8.99
9/26/2021 2:30:00 PM 17.54 63.572 0.216 7.57 76.77 8.99
9/26/2021 2:45:00 PM 17.58 63.644 0.214 7.57 87.59 8.99
9/26/2021 3:00:00 PM 17.6 63.68 0.208 7.57 61.78 9
9/26/2021 3:15:00 PM 17.61 63.698 0.207 7.57 71.66 9
9/26/2021 3:30:00 PM 17.62 63.716 0.211 7.57 70.66 9
9/26/2021 3:45:00 PM 17.64 63.752 0.209 7.58 67.75 9
9/26/2021 4:00:00 PM 17.67 63.806 0.215 7.57 66.25 9.01
9/26/2021 4:15:00 PM 17.7 63.86 0.216 7.58 58.34 9.01
9/26/2021 4:30:00 PM 17.71 63.878 0.217 7.58 71.24 9
9/26/2021 4:45:00 PM 17.72 63.896 0.217 7.58 60.07 9
9/26/2021 5:00:00 PM 17.74 63.932 0.217 7.58 69.24 9
9/26/2021 5:15:00 PM 17.75 63.95 0.216 7.58 68.96 8.99
9/26/2021 5:30:00 PM 17.76 63.968 0.216 7.59 58.86 8.99
9/26/2021 5:45:00 PM 17.75 63.95 0.213 7.59 60.39 9
9/26/2021 6:00:00 PM 17.75 63.95 0.215 7.59 54.07 9
9/26/2021 6:15:00 PM 17.74 63.932 0.215 7.59 91.71 9
9/26/2021 6:30:00 PM 17.74 63.932 0.214 7.59 81.36 9.01
9/26/2021 6:45:00 PM 17.72 63.896 0.214 7.58 74.36 9.01
9/26/2021 7:00:00 PM 17.7 63.86 0.214 7.59 63.47 9.01
9/26/2021 7:15:00 PM 17.68 63.824 0.214 7.59 55.23 9.01
9/26/2021 7:30:00 PM 17.66 63.788 0.214 7.59 87.7 9
9/26/2021 7:45:00 PM 17.65 63.77 0.214 7.59 69.55 8.99
9/26/2021 8:00:00 PM 17.65 63.77 0.214 7.59 54.21 9
9/26/2021 8:15:00 PM 17.65 63.77 0.214 7.59 60.65 9
9/26/2021 8:30:00 PM 17.65 63.77 0.212 7.59 73.57 9
9/26/2021 8:45:00 PM 17.66 63.788 0.211 7.59 59.75 9
9/26/2021 9:00:00 PM 17.65 63.77 0.211 7.59 72.43 9.01
9/26/2021 9:15:00 PM 17.65 63.77 0.211 7.59 62.04 9
9/26/2021 9:30:00 PM 17.63 63.734 0.21 7.59 70.92 9.01
9/26/2021 9:45:00 PM 17.61 63.698 0.21 7.59 64.41 9
9/26/2021 10:00:00 PM 17.6 63.68 0.21 7.59 62.71 8.99
9/26/2021 10:15:00 PM 17.58 63.644 0.21 7.6 56.09 9
9/26/2021 10:30:00 PM 17.55 63.59 0.209 7.6 87.71 9
9/26/2021 10:45:00 PM 17.53 63.554 0.209 7.6 59.94 9.01
9/26/2021 11:00:00 PM 17.51 63.518 0.208 7.6 52.36 8.99
9/26/2021 11:15:00 PM 17.49 63.482 0.208 7.59 60.33 9.01
9/26/2021 11:30:00 PM 17.47 63.446 0.207 7.59 61.99 9
9/26/2021 11:45:00 PM 17.45 63.41 0.206 7.59 52.33 9.01
9/27/2021 12:00:00 AM 17.44 63.392 0.208 7.59 54.69 9
9/27/2021 12:15:00 AM 17.42 63.356 0.207 7.59 58.65 9
9/27/2021 12:30:00 AM 17.41 63.338 0.207 7.59 58.95 9
9/27/2021 12:45:00 AM 17.39 63.302 0.206 7.59 61.48 9
9/27/2021 1:00:00 AM 17.37 63.266 0.205 7.59 60.02 9
9/27/2021 1:15:00 AM 17.35 63.23 0.205 7.59 57.29 8.98
9/27/2021 1:30:00 AM 17.32 63.176 0.204 7.58 55.04 8.98
9/27/2021 1:45:00 AM 17.3 63.14 0.2 7.58 59.03 8.99
9/27/2021 2:00:00 AM 17.28 63.104 0.2 7.58 57.91 8.97
9/27/2021 2:15:00 AM 17.26 63.068 0.199 7.58 61.06 8.95
9/27/2021 2:30:00 AM 17.24 63.032 0.198 7.58 68.07 8.96
9/27/2021 2:45:00 AM 17.23 63.014 0.199 7.58 57.78 8.93
9/27/2021 3:00:00 AM 17.21 62.978 0.198 7.57 70.92 8.94
9/27/2021 3:15:00 AM 17.2 62.96 0.198 7.57 52.83 8.91
9/27/2021 3:30:00 AM 17.18 62.924 0.197 7.57 51.64 8.92
9/27/2021 3:45:00 AM 17.17 62.906 0.197 7.57 55.6 8.93
9/27/2021 4:00:00 AM 17.16 62.888 0.198 7.57 54.05 8.9
9/27/2021 4:15:00 AM 17.14 62.852 0.197 7.57 49.91 8.9
9/27/2021 4:30:00 AM 17.13 62.834 0.197 7.57 58.62 8.91
9/27/2021 4:45:00 AM 17.12 62.816 0.197 7.57 49.05 8.9
9/27/2021 5:00:00 AM 17.11 62.798 0.198 7.57 54.68 8.9
9/27/2021 5:15:00 AM 17.09 62.762 0.2 7.56 66.48 8.9
9/27/2021 5:30:00 AM 17.08 62.744 0.2 7.57 51.66 8.9
9/27/2021 5:45:00 AM 17.06 62.708 0.2 7.57 51.09 8.87
9/27/2021 6:00:00 AM 17.05 62.69 0.2 7.57 52.74 8.89
9/27/2021 6:15:00 AM 17.04 62.672 0.2 7.57 52.02 8.87
9/27/2021 6:30:00 AM 17.01 62.618 0.2 7.57 54.62 8.88
9/27/2021 6:45:00 AM 17 62.6 0.2 7.57 46.72 8.88
9/27/2021 7:00:00 AM 16.98 62.564 0.201 7.57 52.8 8.88
9/27/2021 7:15:00 AM 16.96 62.528 0.201 7.57 48.19 8.89
9/27/2021 7:30:00 AM 16.94 62.492 0.201 7.57 45.35 8.88
9/27/2021 7:45:00 AM 16.92 62.456 0.201 7.58 42.38 8.86
9/27/2021 8:00:00 AM 16.89 62.402 0.202 7.58 52.13 8.89
9/27/2021 8:15:00 AM 16.87 62.366 0.203 7.58 52.81 8.88
9/27/2021 8:30:00 AM 16.86 62.348 0.203 7.58 48.46 8.89
9/27/2021 8:45:00 AM 16.85 62.33 0.203 7.58 46.05 8.91
9/27/2021 9:00:00 AM 16.85 62.33 0.203 7.59 47.54 8.9
9/27/2021 9:15:00 AM 16.86 62.348 0.203 7.59 47.61 8.92
9/27/2021 9:30:00 AM 16.87 62.366 0.203 7.59 47.15 8.92
9/27/2021 9:45:00 AM 16.89 62.402 0.204 7.59 46.05 8.91
9/27/2021 10:00:00 AM 16.89 62.402 0.204 7.59 42.02 8.95
9/27/2021 10:15:00 AM 16.91 62.438 0.201 7.59 46.03 8.96
9/27/2021 10:30:00 AM 16.94 62.492 0.203 7.6 50.93 8.94
9/27/2021 10:45:00 AM 16.98 62.564 0.204 7.6 51.9 8.95
9/27/2021 11:00:00 AM 17.04 62.672 0.204 7.61 55.92 9
9/27/2021 11:15:00 AM 17.11 62.798 0.205 7.62 51.69 8.99
9/27/2021 11:30:00 AM 17.18 62.924 0.206 7.62 45.12 9.02
9/27/2021 11:45:00 AM 17.25 63.05 0.204 7.62 40.5 9
9/27/2021 12:00:00 PM 17.3 63.14 0.205 7.63 49.67 9.04
9/27/2021 12:15:00 PM 17.36 63.248 0.203 7.63 44.35 9.05
9/27/2021 12:30:00 PM 17.42 63.356 0.206 7.65 43.49 9.06
9/27/2021 12:45:00 PM 17.48 63.464 0.204 7.65 44.53 9.1
9/27/2021 1:00:00 PM 17.51 63.518 0.202 7.66 40.51 9.08
9/27/2021 1:15:00 PM 17.55 63.59 0.206 7.66 44.61 9.1
9/27/2021 1:30:00 PM 17.59 63.662 0.206 7.67 43.12 9.11
9/27/2021 1:45:00 PM 17.62 63.716 0.206 7.67 41.09 9.1
9/27/2021 2:00:00 PM 17.65 63.77 0.206 7.67 42.31 9.13
9/27/2021 2:15:00 PM 17.69 63.842 0.206 7.67 48.89 9.13
9/27/2021 2:30:00 PM 17.72 63.896 0.206 7.68 43.45 9.14
9/27/2021 2:45:00 PM 17.75 63.95 0.206 7.67 41.69 9.15
9/27/2021 3:00:00 PM 17.79 64.022 0.206 7.68 40.67 9.16
9/27/2021 3:15:00 PM 17.82 64.076 0.206 7.69 39.14 9.14
9/27/2021 3:30:00 PM 17.86 64.148 0.207 7.69 41.48 9.14
9/27/2021 3:45:00 PM 17.89 64.202 0.207 7.69 45.57 9.17
9/27/2021 4:00:00 PM 17.92 64.256 0.208 7.69 41.72 9.17
9/27/2021 4:15:00 PM 17.95 64.31 0.208 7.69 53.06 9.15
9/27/2021 4:30:00 PM 17.97 64.346 0.208 7.69 52.96 9.17
9/27/2021 4:45:00 PM 17.99 64.382 0.209 7.69 40.81 9.18
9/27/2021 5:00:00 PM 18.02 64.436 0.209 7.69 41.56 9.15
9/27/2021 5:15:00 PM 18.04 64.472 0.21 7.7 42.61 9.18
9/27/2021 5:30:00 PM 18.05 64.49 0.21 7.7 38.5 9.16
9/27/2021 5:45:00 PM 18.06 64.508 0.209 7.7 48.13 9.17
9/27/2021 6:00:00 PM 18.07 64.526 0.21 7.7 41.08 9.15
9/27/2021 6:15:00 PM 18.07 64.526 0.21 7.69 58.42 9.16
9/27/2021 6:30:00 PM 18.07 64.526 0.21 7.69 39.74 9.12
9/27/2021 6:45:00 PM 18.07 64.526 0.21 7.69 49.73 9.1
9/27/2021 7:00:00 PM 18.06 64.508 0.209 7.69 44.95 9.07
9/27/2021 7:15:00 PM 18.06 64.508 0.209 7.69 43.72 9.1
9/27/2021 7:30:00 PM 18.05 64.49 0.209 7.69 48.3 9.07
9/27/2021 7:45:00 PM 18.04 64.472 0.209 7.68 40.77 9.07
9/27/2021 8:00:00 PM 18.04 64.472 0.209 7.67 44.66 9.01
9/27/2021 8:15:00 PM 18.03 64.454 0.209 7.67 42.16 9.03
9/27/2021 8:30:00 PM 18.03 64.454 0.209 7.67 40.09 8.99
9/27/2021 8:45:00 PM 18.02 64.436 0.209 7.67 40.04 9.03
9/27/2021 9:00:00 PM 18.01 64.418 0.209 7.66 40.53 9.02
9/27/2021 9:15:00 PM 18.01 64.418 0.208 7.66 41.51 8.99
9/27/2021 9:30:00 PM 18.01 64.418 0.208 7.66 41.93 8.97
9/27/2021 9:45:00 PM 18 64.4 0.209 7.65 37.7 8.97
9/27/2021 10:00:00 PM 17.99 64.382 0.209 7.65 47.48 8.83
9/27/2021 10:15:00 PM 17.99 64.382 0.209 7.65 51.24 8.87
9/27/2021 10:30:00 PM 17.98 64.364 0.21 7.66 42.55 8.95
9/27/2021 10:45:00 PM 17.97 64.346 0.21 7.66 41.61 8.93
9/27/2021 11:00:00 PM 17.96 64.328 0.21 7.65 46.27 8.92
9/27/2021 11:15:00 PM 17.95 64.31 0.21 7.65 43.2 8.88
9/27/2021 11:30:00 PM 17.95 64.31 0.21 7.65 39.54 8.88
9/27/2021 11:45:00 PM 17.94 64.292 0.211 7.64 43.16 8.89
9/28/2021 12:00:00 AM 17.94 64.292 0.211 7.64 47.07 8.87
9/28/2021 12:15:00 AM 17.92 64.256 0.212 7.64 39.84 8.87
9/28/2021 12:30:00 AM 17.92 64.256 0.211 7.64 41.16 8.86
9/28/2021 12:45:00 AM 17.91 64.238 0.213 7.63 44.22 8.81
9/28/2021 1:00:00 AM 17.9 64.22 0.214 7.63 39.98 8.82
9/28/2021 1:15:00 AM 17.89 64.202 0.216 7.63 42.57 8.85
9/28/2021 1:30:00 AM 17.88 64.184 0.216 7.64 40.94 8.84
9/28/2021 1:45:00 AM 17.88 64.184 0.217 7.63 41.12 8.8
9/28/2021 2:00:00 AM 17.87 64.166 0.217 7.64 37.79 8.82
9/28/2021 2:15:00 AM 17.87 64.166 0.217 7.64 41.72 8.81
9/28/2021 2:30:00 AM 17.86 64.148 0.216 7.64 38.31 8.78
9/28/2021 2:45:00 AM 17.86 64.148 0.218 7.64 37.77 8.82
9/28/2021 3:00:00 AM 17.85 64.13 0.218 7.64 43.28 8.81
9/28/2021 3:15:00 AM 17.85 64.13 0.218 7.64 39.92 8.79
9/28/2021 3:30:00 AM 17.84 64.112 0.219 7.64 41.24 8.81
9/28/2021 3:45:00 AM 17.84 64.112 0.219 7.64 41.02 8.69
9/28/2021 4:00:00 AM 17.82 64.076 0.221 7.64 36.96 8.77
9/28/2021 4:15:00 AM 17.81 64.058 0.222 7.64 39.37 8.8
9/28/2021 4:30:00 AM 17.79 64.022 0.222 7.65 38.53 8.74
9/28/2021 4:45:00 AM 17.77 63.986 0.222 7.65 37.87 8.79
9/28/2021 5:00:00 AM 17.75 63.95 0.223 7.65 36.56 8.69
9/28/2021 5:15:00 AM 17.73 63.914 0.223 7.66 37.07 8.8
9/28/2021 5:30:00 AM 17.71 63.878 0.225 7.66 40.45 8.76
9/28/2021 5:45:00 AM 17.68 63.824 0.226 7.66 37.34 8.63
9/28/2021 6:00:00 AM 17.66 63.788 0.226 7.66 36.62 8.76
9/28/2021 6:15:00 AM 17.63 63.734 0.227 7.67 41.4 8.76
9/28/2021 6:30:00 AM 17.61 63.698 0.227 7.67 40.54 8.7
9/28/2021 6:45:00 AM 17.58 63.644 0.228 7.67 44.16 8.75
9/28/2021 7:00:00 AM 17.55 63.59 0.229 7.66 45.32 8.7
9/28/2021 7:15:00 AM 17.53 63.554 0.23 7.66 45.5 8.63
9/28/2021 7:30:00 AM 17.51 63.518 0.231 7.66 43.49 8.75
9/28/2021 7:45:00 AM 17.49 63.482 0.232 7.66 50.77 8.52
9/28/2021 8:00:00 AM 17.47 63.446 0.233 7.66 37.1 8.68
9/28/2021 8:15:00 AM 17.45 63.41 0.234 7.66 35.48 8.73
9/28/2021 8:30:00 AM 17.44 63.392 0.234 7.66 33.58 8.73
9/28/2021 8:45:00 AM 17.42 63.356 0.234 7.66 34.24 8.71
9/28/2021 9:00:00 AM 17.4 63.32 0.235 7.66 35.26 8.66
9/28/2021 9:15:00 AM 17.39 63.302 0.235 7.66 39.43 8.64
9/28/2021 9:30:00 AM 17.38 63.284 0.234 7.66 37.29 8.74
9/28/2021 9:45:00 AM 17.36 63.248 0.237 7.66 37.3 8.66
9/28/2021 10:00:00 AM 17.35 63.23 0.237 7.66 35.61 8.67
9/28/2021 10:15:00 AM 17.34 63.212 0.238 7.65 36.76 8.67
9/28/2021 10:30:00 AM 17.33 63.194 0.238 7.66 37.83 8.66
9/28/2021 10:45:00 AM 17.32 63.176 0.24 7.66 33.99 8.69
9/28/2021 11:00:00 AM 17.32 63.176 0.241 7.65 33.25 8.71
9/28/2021 11:15:00 AM 17.31 63.158 0.241 7.66 35.69 8.66
9/28/2021 11:30:00 AM 17.3 63.14 0.243 7.65 33.17 8.73
9/28/2021 11:45:00 AM 17.3 63.14 0.244 7.65 32.15 8.7
9/28/2021 12:00:00 PM 17.3 63.14 0.245 7.66 31.64 8.74
9/28/2021 12:15:00 PM 17.31 63.158 0.245 7.66 31.72 8.77
9/28/2021 12:30:00 PM 17.36 63.248 0.245 7.67 33.41 8.74
9/28/2021 12:45:00 PM 17.42 63.356 0.245 7.68 30.14 8.86
9/28/2021 1:00:00 PM 17.48 63.464 0.245 7.69 31.53 8.86
9/28/2021 1:15:00 PM 17.53 63.554 0.246 7.7 32.81 8.87
9/28/2021 1:30:00 PM 17.58 63.644 0.247 7.7 32.49 8.92
9/28/2021 1:45:00 PM 17.61 63.698 0.247 7.7 30.4 8.91
9/28/2021 2:00:00 PM 17.61 63.698 0.248 7.7 37.55 8.99
9/28/2021 2:15:00 PM 17.6 63.68 0.248 7.7 34.16 8.85
9/28/2021 2:30:00 PM 17.59 63.662 0.248 7.71 29.52 8.88
9/28/2021 2:45:00 PM 17.59 63.662 0.248 7.72 30.43 8.84
9/28/2021 3:00:00 PM 17.6 63.68 0.249 7.71 32.92 8.79
9/28/2021 3:15:00 PM 17.63 63.734 0.249 7.72 32.34 9.01
9/28/2021 3:30:00 PM 17.66 63.788 0.25 7.72 30.85 9.04
9/28/2021 3:45:00 PM 17.67 63.806 0.251 7.74 34.99 9.01
9/28/2021 4:00:00 PM 17.69 63.842 0.25 7.74 30.21 9.1
9/28/2021 4:15:00 PM 17.71 63.878 0.251 7.74 32.52 9.12
9/28/2021 4:30:00 PM 17.72 63.896 0.251 7.75 30.57 9.12
9/28/2021 4:45:00 PM 17.73 63.914 0.251 7.75 31.65 9.14
9/28/2021 5:00:00 PM 17.73 63.914 0.251 7.76 34.2 9.16
9/28/2021 5:15:00 PM 17.72 63.896 0.251 7.76 33.06 9.11
9/28/2021 5:30:00 PM 17.7 63.86 0.25 7.76 32.92 9.08
9/28/2021 5:45:00 PM 17.68 63.824 0.25 7.76 34.55 9.15
9/28/2021 6:00:00 PM 17.64 63.752 0.25 7.76 30.79 9.06
9/28/2021 6:15:00 PM 17.58 63.644 0.248 7.76 31.02 9.07
9/28/2021 6:30:00 PM 17.53 63.554 0.248 7.76 32.83 9.08
9/28/2021 6:45:00 PM 17.48 63.464 0.249 7.76 30.09 9.03
9/28/2021 7:00:00 PM 17.42 63.356 0.249 7.75 32.14 8.91
9/28/2021 7:15:00 PM 17.36 63.248 0.246 7.74 36.83 9.06
9/28/2021 7:30:00 PM 17.32 63.176 0.247 7.73 30.43 8.99
9/28/2021 7:45:00 PM 17.27 63.086 0.246 7.73 32.52 9.03
9/28/2021 8:00:00 PM 17.23 63.014 0.248 7.72 32.71 8.88
9/28/2021 8:15:00 PM 17.19 62.942 0.249 7.73 33.73 9.01
9/28/2021 8:30:00 PM 17.16 62.888 0.248 7.72 33.07 8.94
9/28/2021 8:45:00 PM 17.11 62.798 0.248 7.72 36.04 9.02
9/28/2021 9:00:00 PM 17.09 62.762 0.25 7.72 34.77 8.99
9/28/2021 9:15:00 PM 17.06 62.708 0.251 7.71 33.19 8.97
9/28/2021 9:30:00 PM 17.03 62.654 0.251 7.71 35.36 8.94
9/28/2021 9:45:00 PM 17.01 62.618 0.251 7.71 31.94 9.02
9/28/2021 10:00:00 PM 16.98 62.564 0.253 7.71 34.74 8.95
9/28/2021 10:15:00 PM 16.95 62.51 0.253 7.71 34.37 8.99
9/28/2021 10:30:00 PM 16.93 62.474 0.254 7.71 36.16 9
9/28/2021 10:45:00 PM 16.9 62.42 0.254 7.71 35.71 9.01
9/28/2021 11:00:00 PM 16.87 62.366 0.253 7.71 34.13 9.04
9/28/2021 11:15:00 PM 16.85 62.33 0.254 7.71 35.56 8.96
9/28/2021 11:30:00 PM 16.82 62.276 0.253 7.71 34.95 9.01
9/28/2021 11:45:00 PM 16.79 62.222 0.253 7.71 34.63 8.95
9/29/2021 12:00:00 AM 16.76 62.168 0.252 7.71 36.41 9.01
9/29/2021 12:15:00 AM 16.73 62.114 0.252 7.71 35.78 9.04
9/29/2021 12:30:00 AM 16.71 62.078 0.251 7.71 36.72 8.92
9/29/2021 12:45:00 AM 16.67 62.006 0.251 7.71 40.19 8.85
9/29/2021 1:00:00 AM 16.64 61.952 0.251 7.71 40.52 9
9/29/2021 1:15:00 AM 16.61 61.898 0.25 7.71 40.9 9.07
9/29/2021 1:30:00 AM 16.57 61.826 0.251 7.71 42.2 9.08
9/29/2021 1:45:00 AM 16.53 61.754 0.251 7.7 40.21 8.96
9/29/2021 2:00:00 AM 16.48 61.664 0.251 7.7 41.65 8.95
9/29/2021 2:15:00 AM 16.44 61.592 0.25 7.7 44.13 9.03
9/29/2021 2:30:00 AM 16.39 61.502 0.25 7.7 44.83 9.04
9/29/2021 2:45:00 AM 16.35 61.43 0.251 7.69 46.8 9.05
9/29/2021 3:00:00 AM 16.3 61.34 0.251 7.69 43.05 8.99
9/29/2021 3:15:00 AM 16.24 61.232 0.25 7.68 52.44 9.05
9/29/2021 3:30:00 AM 16.2 61.16 0.25 7.69 46.74 9.01
9/29/2021 3:45:00 AM 16.15 61.07 0.25 7.68 42.46 9.04
9/29/2021 4:00:00 AM 16.11 60.998 0.249 7.68 48.64 9.06
9/29/2021 4:15:00 AM 16.06 60.908 0.25 7.68 48.41 9.06
9/29/2021 4:30:00 AM 16.01 60.818 0.254 7.68 50.17 8.99
9/29/2021 4:45:00 AM 15.97 60.746 0.257 7.68 53.94 8.96
9/29/2021 5:00:00 AM 15.92 60.656 0.255 7.68 47.96 9.08
9/29/2021 5:15:00 AM 15.87 60.566 0.26 7.68 46.41 9.05
9/29/2021 5:30:00 AM 15.82 60.476 0.26 7.67 43.85 9.07
9/29/2021 5:45:00 AM 15.78 60.404 0.26 7.68 47.7 9.13
9/29/2021 6:00:00 AM 15.72 60.296 0.261 7.68 45.34 9.15
9/29/2021 6:15:00 AM 15.68 60.224 0.262 7.68 50.72 9.08
9/29/2021 6:30:00 AM 15.64 60.152 0.26 7.68 41.23 9.07
9/29/2021 6:45:00 AM 15.59 60.062 0.26 7.67 42.3 9.07
9/29/2021 7:00:00 AM 15.55 59.99 0.26 7.68 39.29 9.11
9/29/2021 7:15:00 AM 15.51 59.918 0.26 7.68 38.14 9.12
9/29/2021 7:30:00 AM 15.47 59.846 0.26 7.67 42.41 9.12
9/29/2021 7:45:00 AM 15.43 59.774 0.26 7.67 43.03 9.12
9/29/2021 8:00:00 AM 15.39 59.702 0.26 7.68 43.66 9.06
9/29/2021 8:15:00 AM 15.37 59.666 0.26 7.68 41.76 9.02
9/29/2021 8:30:00 AM 15.34 59.612 0.261 7.68 68.03 9.07
9/29/2021 8:45:00 AM 15.33 59.594 0.262 7.68 53.74 9.03
9/29/2021 9:00:00 AM 15.34 59.612 0.263 7.69 44.38 9.11
9/29/2021 9:15:00 AM 15.36 59.648 0.264 7.69 40.19 9.19
9/29/2021 9:30:00 AM 15.38 59.684 0.265 7.7 42.11 9.19
9/29/2021 9:45:00 AM 15.41 59.738 0.265 7.71 46.52 9.22
9/29/2021 10:00:00 AM 15.46 59.828 0.266 7.71 46.43 9.23
9/29/2021 10:15:00 AM 15.51 59.918 0.266 7.71 48.41 9.28
9/29/2021 10:30:00 AM 15.57 60.026 0.266 7.72 50.86 9.28
9/29/2021 10:45:00 AM 15.63 60.134 0.265 7.72 49.26 9.25
9/29/2021 11:00:00 AM 15.7 60.26 0.264 7.73 52.47 9.24
9/29/2021 11:15:00 AM 15.78 60.404 0.264 7.74 52.23 9.37
9/29/2021 11:30:00 AM 15.86 60.548 0.264 7.75 52.34 9.25
9/29/2021 11:45:00 AM 15.92 60.656 0.264 7.75 51.81 9.35
9/29/2021 12:00:00 PM 15.97 60.746 0.263 7.75 59.09 9.27
9/29/2021 12:15:00 PM 16.01 60.818 0.262 7.75 49.58 9.18
9/29/2021 12:30:00 PM 16.07 60.926 0.262 7.75 62.68 9.37
9/29/2021 12:45:00 PM 16.1 60.98 0.262 7.76 53.55 9.4
9/29/2021 1:00:00 PM 16.13 61.034 0.262 7.76 50.52 9.37
9/29/2021 1:15:00 PM 16.16 61.088 0.262 7.76 50.21 9.4
9/29/2021 1:30:00 PM 16.21 61.178 0.262 7.77 50.56 9.2
9/29/2021 1:45:00 PM 16.27 61.286 0.263 7.77 54.89 9.46
9/29/2021 2:00:00 PM 16.32 61.376 0.262 7.77 54.44 9.39
9/29/2021 2:15:00 PM 16.35 61.43 0.261 7.77 63.97 9.46
9/29/2021 2:30:00 PM 16.37 61.466 0.263 7.78 55.2 9.1
9/29/2021 2:45:00 PM 16.38 61.484 0.263 7.78 83.41 9.47
9/29/2021 3:00:00 PM 16.38 61.484 0.264 7.78 50.43 9.4
9/29/2021 3:15:00 PM 16.4 61.52 0.263 7.78 52.48 9.48
9/29/2021 3:30:00 PM 16.41 61.538 0.264 7.78 53.01 9.48
9/29/2021 3:45:00 PM 16.41 61.538 0.265 7.78 48.69 9.51
9/29/2021 4:00:00 PM 16.41 61.538 0.266 7.79 50.92 9.52
9/29/2021 4:15:00 PM 16.41 61.538 0.263 7.79 51.74 9.38
9/29/2021 4:30:00 PM 16.4 61.52 0.264 7.79 62.44 9.42
9/29/2021 4:45:00 PM 16.4 61.52 0.264 7.79 48.98 9.52
9/29/2021 5:00:00 PM 16.41 61.538 0.264 7.79 45.4 9.42
9/29/2021 5:15:00 PM 16.41 61.538 0.264 7.79 65.95 9.37
9/29/2021 5:30:00 PM 16.41 61.538 0.264 7.79 49.79 9.45
9/29/2021 5:45:00 PM 16.4 61.52 0.264 7.79 49.68 9.43
9/29/2021 6:00:00 PM 16.39 61.502 0.264 7.78 50.14 9.51
9/29/2021 6:15:00 PM 16.36 61.448 0.264 7.79 45.67 9.5
9/29/2021 6:30:00 PM 16.33 61.394 0.265 7.78 47.62 9.36
9/29/2021 6:45:00 PM 16.3 61.34 0.265 7.78 49.91 9.39
9/29/2021 7:00:00 PM 16.28 61.304 0.267 7.77 45.91 9.47
9/29/2021 7:15:00 PM 16.26 61.268 0.266 7.77 50.4 9.47
9/29/2021 7:30:00 PM 16.23 61.214 0.267 7.77 47.78 9.49
9/29/2021 7:45:00 PM 16.21 61.178 0.266 7.77 44.87 9.34
9/29/2021 8:00:00 PM 16.2 61.16 0.266 7.77 43.03 9.44
9/29/2021 8:15:00 PM 16.18 61.124 0.267 7.77 43.27 9.42
9/29/2021 8:30:00 PM 16.17 61.106 0.268 7.77 43.07 9.38
9/29/2021 8:45:00 PM 16.16 61.088 0.267 7.77 46.92 9.35
9/29/2021 9:00:00 PM 16.15 61.07 0.266 7.77 54.38 9.34
9/29/2021 9:15:00 PM 16.14 61.052 0.266 7.76 44.14 9.05
9/29/2021 9:30:00 PM 16.13 61.034 0.267 7.77 42.98 9.42
9/29/2021 9:45:00 PM 16.12 61.016 0.267 7.77 45.96 9.31
9/29/2021 10:00:00 PM 16.12 61.016 0.266 7.76 45.11 9.28
9/29/2021 10:15:00 PM 16.11 60.998 0.268 7.76 44.37 9.24
9/29/2021 10:30:00 PM 16.11 60.998 0.268 7.76 54.76 9.18
9/29/2021 10:45:00 PM 16.1 60.98 0.268 7.77 3529.87 9.08
9/29/2021 11:00:00 PM 16.1 60.98 0.268 7.77 42.96 9.36
9/29/2021 11:15:00 PM 16.1 60.98 0.268 7.77 43.73 9.38
9/29/2021 11:30:00 PM 16.1 60.98 0.268 7.77 40.24 9.37
9/29/2021 11:45:00 PM 16.09 60.962 0.267 7.76 42.49 9.31
9/30/2021 12:00:00 AM 16.08 60.944 0.268 7.76 45.84 9.35
9/30/2021 12:15:00 AM 16.06 60.908 0.268 7.77 42.99 9.41
9/30/2021 12:30:00 AM 16.04 60.872 0.268 7.76 44.38 9.01
9/30/2021 12:45:00 AM 16.02 60.836 0.268 7.77 43.92 9.08
9/30/2021 1:00:00 AM 16 60.8 0.268 7.76 52.89 9.34
9/30/2021 1:15:00 AM 15.97 60.746 0.268 7.76 53.38 9.26
9/30/2021 1:30:00 AM 15.94 60.692 0.268 7.78 45.23 9.33
9/30/2021 1:45:00 AM 15.92 60.656 0.268 7.78 41.63 9.25
9/30/2021 2:00:00 AM 15.89 60.602 0.266 7.78 42.7 9.36
9/30/2021 2:15:00 AM 15.86 60.548 0.266 7.78 36.49 9.25
9/30/2021 2:30:00 AM 15.82 60.476 0.265 7.78 41.48 9.09
9/30/2021 2:45:00 AM 15.8 60.44 0.265 7.78 39.88 9.16
9/30/2021 3:00:00 AM 15.77 60.386 0.265 7.78 39.75 9.34
9/30/2021 3:15:00 AM 15.75 60.35 0.265 7.78 42.9 9.16
9/30/2021 3:30:00 AM 15.73 60.314 0.265 7.77 40.97 9.24
9/30/2021 3:45:00 AM 15.72 60.296 0.264 7.78 38.98 9.31
9/30/2021 4:00:00 AM 15.72 60.296 0.265 7.78 39.54 9.23
9/30/2021 4:15:00 AM 15.7 60.26 0.264 7.78 40.55 9.33
9/30/2021 4:30:00 AM 15.7 60.26 0.265 7.78 40.66 9.04
9/30/2021 4:45:00 AM 15.69 60.242 0.264 7.78 40.08 9.2
9/30/2021 5:00:00 AM 15.67 60.206 0.266 7.77 38.96 9.13
9/30/2021 5:15:00 AM 15.66 60.188 0.267 7.78 39.91 9.31
9/30/2021 5:30:00 AM 15.66 60.188 0.266 7.77 39.74 9.31
9/30/2021 5:45:00 AM 15.65 60.17 0.267 7.77 40.75 9
9/30/2021 6:00:00 AM 15.65 60.17 0.267 7.77 37.94 9.29
9/30/2021 6:15:00 AM 15.64 60.152 0.267 7.77 38.82 9.13
9/30/2021 6:30:00 AM 15.62 60.116 0.266 7.77 38.61 9.11
9/30/2021 6:45:00 AM 15.61 60.098 0.267 7.76 39.8 9.3
9/30/2021 7:00:00 AM 15.6 60.08 0.268 7.76 40.06 9.23
9/30/2021 7:15:00 AM 15.59 60.062 0.269 7.76 38.32 8.71
9/30/2021 7:30:00 AM 15.57 60.026 0.268 7.76 43.21 9.09
9/30/2021 7:45:00 AM 15.56 60.008 0.269 7.76 38.42 9.21
9/30/2021 8:00:00 AM 15.55 59.99 0.269 7.76 41.43 9.19
9/30/2021 8:15:00 AM 15.54 59.972 0.269 7.75 39.66 9.13
9/30/2021 8:30:00 AM 15.53 59.954 0.269 7.76 51.09 9.13
9/30/2021 8:45:00 AM 15.53 59.954 0.269 7.75 38.88 9.25
9/30/2021 9:00:00 AM 15.55 59.99 0.27 7.76 39.15 9.33
9/30/2021 9:15:00 AM 15.57 60.026 0.269 7.77 35.36 9.11